Time,TemperatureF,DewpointF,PressureIn,WindDirection,WindDirectionDegrees,WindSpeedMPH,WindSpeedGustMPH,Humidity,HourlyPrecipIn,Conditions,Clouds,dailyrainin,SolarRadiationWatts/m^2,SoftwareType,DateUTC
2013-04-18 00:00:00,58.4,6.6,29.62,WSW,252,3.9,4.3,12,-99.99,,,0.00,0,rob ver 1B,2013-04-18 07:00:00,
2013-04-18 00:01:00,58.4,6.6,29.62,West,263,4.0,4.4,12,-99.99,,,0.00,0,rob ver 1B,2013-04-18 07:01:00,
2013-04-18 00:02:00,58.4,6.6,29.62,West,269,4.0,4.4,12,-99.99,,,0.00,0,rob ver 1B,2013-04-18 07:02:00,
2013-04-18 00:03:00,58.3,6.6,29.62,West,278,3.9,4.2,12,-99.99,,,0.00,0,rob ver 1B,2013-04-18 07:03:00,
2013-04-18 00:04:00,59.1,7.9,29.56,West,279,2.8,3.1,12,-99.99,,,0.00,0,rob ver 1A,2013-04-18 07:04:00,
2013-04-18 00:05:00,58.4,6.7,29.62,West,279,4.0,4.2,12,-99.99,,,0.00,0,rob ver 1B,2013-04-18 07:05:00,
2013-04-18 00:06:00,58.5,6.7,29.62,WNW,285,4.3,4.4,12,-99.99,,,0.00,0,rob ver 1B,2013-04-18 07:06:00,
2013-04-18 00:07:00,58.5,6.6,29.62,WNW,284,4.4,4.5,12,-99.99,,,0.00,0,rob ver 1B,2013-04-18 07:07:00,
2013-04-18 00:08:00,58.4,6.6,29.62,WNW,294,4.3,4.4,12,-99.99,,,0.00,0,rob ver 1B,2013-04-18 07:08:00,
2013-04-18 00:09:00,58.7,8.1,29.56,WNW,286,2.5,2.9,13,-99.99,,,0.00,0,rob ver 1A,2013-04-18 07:09:00,
2013-04-18 00:10:00,58.1,6.3,29.62,NW,306,3.9,4.3,12,-99.99,,,0.00,0,rob ver 1B,2013-04-18 07:10:00,
2013-04-18 00:11:00,58.0,6.3,29.62,NW,304,4.2,4.4,12,-99.99,,,0.00,0,rob ver 1B,2013-04-18 07:11:00,
2013-04-18 00:12:00,57.8,6.3,29.62,NW,306,4.3,4.5,12,-99.99,,,0.00,0,rob ver 1B,2013-04-18 07:12:00,
2013-04-18 00:13:00,57.8,6.3,29.62,WNW,301,4.1,4.5,12,-99.99,,,0.00,0,rob ver 1B,2013-04-18 07:13:00,
2013-04-18 00:14:00,59.4,8.3,29.56,WNW,282,2.0,2.2,12,-99.99,,,0.00,0,rob ver 1A,2013-04-18 07:14:00,
2013-04-18 00:15:00,57.5,6.1,29.62,WNW,300,3.6,4.0,12,-99.99,,,0.00,0,rob ver 1B,2013-04-18 07:15:00,
2013-04-18 00:16:00,57.4,6.1,29.62,WNW,302,3.6,4.2,12,-99.99,,,0.00,0,rob ver 1B,2013-04-18 07:16:00,
2013-04-18 00:17:00,57.3,5.9,29.62,WNW,303,3.7,4.0,12,-99.99,,,0.00,0,rob ver 1B,2013-04-18 07:17:00,
2013-04-18 00:18:00,57.1,6.0,29.62,WNW,296,4.0,4.5,12,-99.99,,,0.00,0,rob ver 1B,2013-04-18 07:18:00,
2013-04-18 00:19:00,59.5,8.3,29.56,WNW,292,2.2,2.6,12,-99.99,,,0.00,0,rob ver 1A,2013-04-18 07:19:00,
2013-04-18 00:20:00,57.0,6.0,29.62,NW,304,4.1,4.6,12,-99.99,,,0.00,0,rob ver 1B,2013-04-18 07:20:00,
2013-04-18 00:21:00,57.0,6.0,29.62,NW,307,3.9,4.4,12,-99.99,,,0.00,0,rob ver 1B,2013-04-18 07:21:00,
2013-04-18 00:22:00,57.0,6.2,29.62,NW,307,4.5,5.0,12,-99.99,,,0.00,0,rob ver 1B,2013-04-18 07:22:00,
2013-04-18 00:23:00,57.0,6.3,29.62,NW,309,4.8,5.2,12,-99.99,,,0.00,0,rob ver 1B,2013-04-18 07:23:00,
2013-04-18 00:24:00,59.3,8.4,29.56,WNW,297,2.7,3.0,12,-99.99,,,0.00,0,rob ver 1A,2013-04-18 07:24:00,
2013-04-18 00:25:00,57.4,6.4,29.62,NW,309,4.7,5.1,12,-99.99,,,0.00,0,rob ver 1B,2013-04-18 07:25:00,
2013-04-18 00:26:00,57.4,6.4,29.62,NW,311,4.8,5.1,12,-99.99,,,0.00,0,rob ver 1B,2013-04-18 07:26:00,
2013-04-18 00:27:00,57.4,6.4,29.62,NW,311,4.6,5.1,12,-99.99,,,0.00,0,rob ver 1B,2013-04-18 07:27:00,
2013-04-18 00:28:00,57.4,6.4,29.62,NW,311,4.5,4.9,12,-99.99,,,0.00,0,rob ver 1B,2013-04-18 07:28:00,
2013-04-18 00:29:00,59.5,8.3,29.56,WNW,303,3.3,4.0,12,-99.99,,,0.00,0,rob ver 1A,2013-04-18 07:29:00,
2013-04-18 00:30:00,57.5,6.5,29.62,NW,308,4.6,5.4,12,-99.99,,,0.00,0,rob ver 1B,2013-04-18 07:30:00,
2013-04-18 00:31:00,57.7,6.6,29.62,NW,307,5.0,6.4,12,-99.99,,,0.00,0,rob ver 1B,2013-04-18 07:31:00,
2013-04-18 00:32:00,58.3,6.8,29.62,WNW,302,6.4,8.5,12,-99.99,,,0.00,0,rob ver 1B,2013-04-18 07:32:00,
2013-04-18 00:33:00,59.3,7.2,29.62,WNW,297,9.0,10.3,12,-99.99,,,0.00,0,rob ver 1B,2013-04-18 07:33:00,
2013-04-18 00:34:00,59.3,8.4,29.56,West,277,4.0,4.5,13,-99.99,,,0.00,0,rob ver 1A,2013-04-18 07:34:00,
2013-04-18 00:35:00,61.1,7.6,29.62,WNW,293,9.8,11.3,11,-99.99,,,0.00,0,rob ver 1B,2013-04-18 07:35:00,
2013-04-18 00:36:00,61.7,7.8,29.62,WNW,290,9.2,11.1,11,-99.99,,,0.00,0,rob ver 1B,2013-04-18 07:36:00,
2013-04-18 00:37:00,61.9,7.8,29.62,WNW,289,8.8,10.5,11,-99.99,,,0.00,0,rob ver 1B,2013-04-18 07:37:00,
2013-04-18 00:38:00,62.0,7.8,29.62,WNW,288,9.3,10.6,11,-99.99,,,0.00,0,rob ver 1B,2013-04-18 07:38:00,
2013-04-18 00:39:00,59.3,8.5,29.56,WNW,289,3.7,4.2,12,-99.99,,,0.00,0,rob ver 1A,2013-04-18 07:39:00,
2013-04-18 00:40:00,62.2,7.8,29.62,WNW,290,9.5,11.1,11,-99.99,,,0.00,0,rob ver 1B,2013-04-18 07:40:00,
2013-04-18 00:41:00,62.2,7.8,29.62,WNW,292,9.0,10.5,11,-99.99,,,0.00,0,rob ver 1B,2013-04-18 07:41:00,
2013-04-18 00:42:00,62.2,7.8,29.62,WNW,293,9.0,10.8,11,-99.99,,,0.00,0,rob ver 1B,2013-04-18 07:42:00,
2013-04-18 00:43:00,62.1,7.8,29.62,WNW,297,8.9,10.6,11,-99.99,,,0.00,0,rob ver 1B,2013-04-18 07:43:00,
2013-04-18 00:44:00,59.3,8.4,29.56,West,277,4.0,4.6,13,-99.99,,,0.00,0,rob ver 1A,2013-04-18 07:44:00,
2013-04-18 00:45:00,62.0,7.7,29.62,WNW,300,8.6,10.4,11,-99.99,,,0.00,0,rob ver 1B,2013-04-18 07:45:00,
2013-04-18 00:46:00,61.8,7.7,29.62,WNW,302,9.0,10.3,11,-99.99,,,0.00,0,rob ver 1B,2013-04-18 07:46:00,
2013-04-18 00:47:00,61.7,7.6,29.62,WNW,303,9.0,10.4,11,-99.99,,,0.00,0,rob ver 1B,2013-04-18 07:47:00,
2013-04-18 00:48:00,61.7,7.6,29.62,NW,304,8.7,10.5,11,-99.99,,,0.00,0,rob ver 1B,2013-04-18 07:48:00,
2013-04-18 00:49:00,59.4,8.6,29.56,West,262,4.7,5.3,12,-99.99,,,0.00,0,rob ver 1A,2013-04-18 07:49:00,
2013-04-18 00:50:00,61.6,7.7,29.62,NW,304,8.9,11.1,11,-99.99,,,0.00,0,rob ver 1B,2013-04-18 07:50:00,
2013-04-18 00:51:00,61.6,7.7,29.62,NW,306,8.7,10.2,11,-99.99,,,0.00,0,rob ver 1B,2013-04-18 07:51:00,
2013-04-18 00:52:00,61.6,7.6,29.59,NW,304,9.0,10.4,11,-99.99,,,0.00,0,rob ver 1B,2013-04-18 07:52:00,
2013-04-18 00:53:00,61.5,7.6,29.59,NW,306,8.4,9.9,11,-99.99,,,0.00,0,rob ver 1B,2013-04-18 07:53:00,
2013-04-18 00:54:00,58.2,8.3,29.56,WSW,258,5.2,5.8,13,-99.99,,,0.00,0,rob ver 1A,2013-04-18 07:54:00,
2013-04-18 00:55:00,61.4,7.7,29.62,NW,309,8.9,10.2,11,-99.99,,,0.00,0,rob ver 1B,2013-04-18 07:55:00,
2013-04-18 00:56:00,61.4,7.7,29.59,NW,308,8.6,10.8,11,-99.99,,,0.00,0,rob ver 1B,2013-04-18 07:56:00,
2013-04-18 00:57:00,61.4,7.7,29.59,NW,309,8.7,9.8,11,-99.99,,,0.00,0,rob ver 1B,2013-04-18 07:57:00,
2013-04-18 00:58:00,61.3,7.7,29.59,NW,311,8.4,10.3,11,-99.99,,,0.00,0,rob ver 1B,2013-04-18 07:58:00,
2013-04-18 00:59:00,58.5,8.2,29.56,West,276,5.3,6.4,13,-99.99,,,0.00,0,rob ver 1A,2013-04-18 07:59:00,
2013-04-18 01:00:00,61.3,7.8,29.59,NW,312,9.0,10.2,11,-99.99,,,0.00,0,rob ver 1B,2013-04-18 08:00:00,
2013-04-18 01:01:00,61.3,7.8,29.59,NW,310,8.3,10.0,11,-99.99,,,0.00,0,rob ver 1B,2013-04-18 08:01:00,
2013-04-18 01:02:00,61.2,7.8,29.59,NW,311,8.5,9.8,11,-99.99,,,0.00,0,rob ver 1B,2013-04-18 08:02:00,
2013-04-18 01:03:00,61.2,7.8,29.62,NW,311,8.7,10.0,11,-99.99,,,0.00,0,rob ver 1B,2013-04-18 08:03:00,
2013-04-18 01:04:00,59.0,8.5,29.56,West,261,5.5,6.3,13,-99.99,,,0.00,0,rob ver 1A,2013-04-18 08:04:00,
2013-04-18 01:05:00,61.0,7.7,29.62,NW,309,7.4,8.9,11,-99.99,,,0.00,0,rob ver 1B,2013-04-18 08:05:00,
2013-04-18 01:06:00,60.9,7.7,29.62,NW,311,7.9,9.3,11,-99.99,,,0.00,0,rob ver 1B,2013-04-18 08:06:00,
2013-04-18 01:07:00,60.9,7.7,29.62,NW,310,7.5,9.3,11,-99.99,,,0.00,0,rob ver 1B,2013-04-18 08:07:00,
2013-04-18 01:08:00,60.8,7.7,29.62,NW,311,7.7,9.9,11,-99.99,,,0.00,0,rob ver 1B,2013-04-18 08:08:00,
2013-04-18 01:09:00,58.6,8.3,29.56,West,276,4.6,6.0,13,-99.99,,,0.00,0,rob ver 1A,2013-04-18 08:09:00,
2013-04-18 01:10:00,60.9,7.8,29.62,NW,312,8.1,9.8,11,-99.99,,,0.00,0,rob ver 1B,2013-04-18 08:10:00,
2013-04-18 01:11:00,60.9,7.8,29.62,NW,313,8.6,9.9,11,-99.99,,,0.00,0,rob ver 1B,2013-04-18 08:11:00,
2013-04-18 01:12:00,61.0,7.9,29.62,NW,314,8.9,10.1,11,-99.99,,,0.00,0,rob ver 1B,2013-04-18 08:12:00,
2013-04-18 01:13:00,61.0,7.9,29.62,NW,313,8.3,9.9,11,-99.99,,,0.00,0,rob ver 1B,2013-04-18 08:13:00,
2013-04-18 01:14:00,61.0,7.9,29.62,NW,313,8.1,10.1,12,-99.99,,,0.00,0,rob ver 1B,2013-04-18 08:14:00,
2013-04-18 01:15:00,58.3,8.3,29.56,West,269,5.5,6.5,13,-99.99,,,0.00,0,rob ver 1A,2013-04-18 08:15:00,
2013-04-18 01:16:00,61.0,8.0,29.62,NW,312,8.2,10.0,11,-99.99,,,0.00,0,rob ver 1B,2013-04-18 08:16:00,
2013-04-18 01:17:00,61.0,8.0,29.62,NW,310,8.4,9.9,11,-99.99,,,0.00,0,rob ver 1B,2013-04-18 08:17:00,
2013-04-18 01:18:00,60.9,8.0,29.62,NW,311,7.9,9.7,12,-99.99,,,0.00,0,rob ver 1B,2013-04-18 08:18:00,
2013-04-18 01:19:00,60.9,8.0,29.62,NW,312,7.7,9.3,12,-99.99,,,0.00,0,rob ver 1B,2013-04-18 08:19:00,
2013-04-18 01:20:00,57.8,8.1,29.56,West,269,5.7,6.4,13,-99.99,,,0.00,0,rob ver 1A,2013-04-18 08:20:00,
2013-04-18 01:21:00,60.8,8.0,29.59,NW,315,8.6,10.2,12,-99.99,,,0.00,0,rob ver 1B,2013-04-18 08:21:00,
2013-04-18 01:22:00,60.8,8.1,29.62,NW,315,8.7,10.1,12,-99.99,,,0.00,0,rob ver 1B,2013-04-18 08:22:00,
2013-04-18 01:23:00,60.9,8.1,29.62,NW,316,8.5,10.4,12,-99.99,,,0.00,0,rob ver 1B,2013-04-18 08:23:00,
2013-04-18 01:24:00,60.8,8.1,29.59,NW,319,8.1,9.8,12,-99.99,,,0.00,0,rob ver 1B,2013-04-18 08:24:00,
2013-04-18 01:25:00,57.5,8.2,29.56,West,265,5.1,5.8,13,-99.99,,,0.00,0,rob ver 1A,2013-04-18 08:25:00,
2013-04-18 01:26:00,60.9,8.2,29.59,NW,319,8.6,11.0,12,-99.99,,,0.00,0,rob ver 1B,2013-04-18 08:26:00,
2013-04-18 01:27:00,60.9,8.2,29.59,NW,316,8.4,10.0,12,-99.99,,,0.00,0,rob ver 1B,2013-04-18 08:27:00,
2013-04-18 01:28:00,61.0,8.3,29.59,NW,316,9.6,11.5,12,-99.99,,,0.00,0,rob ver 1B,2013-04-18 08:28:00,
2013-04-18 01:29:00,61.1,8.3,29.59,NW,316,9.4,11.0,12,-99.99,,,0.00,0,rob ver 1B,2013-04-18 08:29:00,
2013-04-18 01:30:00,56.6,7.8,29.56,West,278,3.6,4.0,13,-99.99,,,0.00,0,rob ver 1A,2013-04-18 08:30:00,
2013-04-18 01:31:00,61.2,8.4,29.62,NW,314,9.8,11.8,12,-99.99,,,0.00,0,rob ver 1B,2013-04-18 08:31:00,
2013-04-18 01:32:00,61.2,8.4,29.62,NW,315,9.5,11.5,12,-99.99,,,0.00,0,rob ver 1B,2013-04-18 08:32:00,
2013-04-18 01:33:00,61.2,8.4,29.59,NW,314,9.4,10.8,12,-99.99,,,0.00,0,rob ver 1B,2013-04-18 08:33:00,
2013-04-18 01:34:00,61.1,8.4,29.59,NW,316,9.4,11.8,12,-99.99,,,0.00,0,rob ver 1B,2013-04-18 08:34:00,
2013-04-18 01:35:00,56.8,8.0,29.56,West,278,3.9,4.3,13,-99.99,,,0.00,0,rob ver 1A,2013-04-18 08:35:00,
2013-04-18 01:36:00,61.1,8.5,29.59,NW,316,10.0,11.6,12,-99.99,,,0.00,0,rob ver 1B,2013-04-18 08:36:00,
2013-04-18 01:37:00,61.1,8.4,29.59,NW,315,10.3,12.3,12,-99.99,,,0.00,0,rob ver 1B,2013-04-18 08:37:00,
2013-04-18 01:38:00,61.2,8.5,29.59,NW,318,9.7,12.0,12,-99.99,,,0.00,0,rob ver 1B,2013-04-18 08:38:00,
2013-04-18 01:39:00,61.2,8.5,29.59,NW,316,10.1,12.1,12,-99.99,,,0.00,0,rob ver 1B,2013-04-18 08:39:00,
2013-04-18 01:40:00,56.9,7.8,29.56,West,270,5.1,5.9,13,-99.99,,,0.00,0,rob ver 1A,2013-04-18 08:40:00,
2013-04-18 01:41:00,61.0,8.5,29.59,NW,318,9.4,11.1,12,-99.99,,,0.00,0,rob ver 1B,2013-04-18 08:41:00,
2013-04-18 01:42:00,61.0,8.5,29.59,NW,321,7.9,9.8,12,-99.99,,,0.00,0,rob ver 1B,2013-04-18 08:42:00,
2013-04-18 01:43:00,61.0,8.5,29.59,NW,319,8.3,10.9,12,-99.99,,,0.00,0,rob ver 1B,2013-04-18 08:43:00,
2013-04-18 01:44:00,61.1,8.5,29.59,NW,317,9.3,10.7,12,-99.99,,,0.00,0,rob ver 1B,2013-04-18 08:44:00,
2013-04-18 01:45:00,56.4,7.6,29.56,West,272,5.0,5.4,13,-99.99,,,0.00,0,rob ver 1A,2013-04-18 08:45:00,
2013-04-18 01:46:00,61.1,8.5,29.59,NW,318,7.7,9.7,12,-99.99,,,0.00,0,rob ver 1B,2013-04-18 08:46:00,
2013-04-18 01:47:00,60.9,8.5,29.59,NW,316,7.7,8.9,12,-99.99,,,0.00,0,rob ver 1B,2013-04-18 08:47:00,
2013-04-18 01:48:00,60.7,8.4,29.59,NW,318,8.1,10.2,12,-99.99,,,0.00,0,rob ver 1B,2013-04-18 08:48:00,
2013-04-18 01:49:00,60.7,8.5,29.59,NW,321,8.1,10.0,12,-99.99,,,0.00,0,rob ver 1B,2013-04-18 08:49:00,
2013-04-18 01:50:00,56.1,7.4,29.56,West,281,4.8,5.3,13,-99.99,,,0.00,0,rob ver 1A,2013-04-18 08:50:00,
2013-04-18 01:51:00,60.9,8.5,29.59,NW,323,8.8,11.1,12,-99.99,,,0.00,0,rob ver 1B,2013-04-18 08:51:00,
2013-04-18 01:52:00,61.0,8.5,29.59,NW,323,8.4,9.8,12,-99.99,,,0.00,0,rob ver 1B,2013-04-18 08:52:00,
2013-04-18 01:53:00,61.0,8.5,29.59,NW,323,8.0,9.6,12,-99.99,,,0.00,0,rob ver 1B,2013-04-18 08:53:00,
2013-04-18 01:54:00,60.9,8.5,29.59,NW,324,8.5,10.1,12,-99.99,,,0.00,0,rob ver 1B,2013-04-18 08:54:00,
2013-04-18 01:55:00,56.1,7.4,29.56,WNW,287,4.9,5.4,13,-99.99,,,0.00,0,rob ver 1A,2013-04-18 08:55:00,
2013-04-18 01:56:00,60.9,8.6,29.59,NW,322,8.3,10.1,12,-99.99,,,0.00,0,rob ver 1B,2013-04-18 08:56:00,
2013-04-18 01:57:00,60.9,8.6,29.59,NW,321,8.3,10.6,12,-99.99,,,0.00,0,rob ver 1B,2013-04-18 08:57:00,
2013-04-18 01:58:00,60.9,8.6,29.59,NW,320,8.8,10.8,12,-99.99,,,0.00,0,rob ver 1B,2013-04-18 08:58:00,
2013-04-18 01:59:00,61.0,8.7,29.59,NW,319,8.8,10.9,12,-99.99,,,0.00,0,rob ver 1B,2013-04-18 08:59:00,
2013-04-18 02:00:00,55.8,7.2,29.56,West,278,5.0,5.8,13,-99.99,,,0.00,0,rob ver 1A,2013-04-18 09:00:00,
2013-04-18 02:01:00,60.9,8.6,29.59,NW,320,8.1,10.4,12,-99.99,,,0.00,0,rob ver 1B,2013-04-18 09:01:00,
2013-04-18 02:02:00,60.8,8.6,29.59,NW,319,8.6,9.9,12,-99.99,,,0.00,0,rob ver 1B,2013-04-18 09:02:00,
2013-04-18 02:03:00,60.8,8.7,29.59,NW,317,8.8,10.7,12,-99.99,,,0.00,0,rob ver 1B,2013-04-18 09:03:00,
2013-04-18 02:04:00,60.8,8.7,29.59,NW,315,8.6,9.7,12,-99.99,,,0.00,0,rob ver 1B,2013-04-18 09:04:00,
2013-04-18 02:05:00,55.7,7.2,29.56,West,277,5.1,5.8,13,-99.99,,,0.00,0,rob ver 1A,2013-04-18 09:05:00,
2013-04-18 02:06:00,60.8,8.7,29.59,NW,314,8.9,11.5,12,-99.99,,,0.00,0,rob ver 1B,2013-04-18 09:06:00,
2013-04-18 02:07:00,60.9,8.8,29.59,NW,315,8.8,11.3,12,-99.99,,,0.00,0,rob ver 1B,2013-04-18 09:07:00,
2013-04-18 02:08:00,60.9,8.8,29.59,NW,314,9.4,10.6,12,-99.99,,,0.00,0,rob ver 1B,2013-04-18 09:08:00,
2013-04-18 02:09:00,60.8,8.8,29.59,NW,317,8.3,9.6,12,-99.99,,,0.00,0,rob ver 1B,2013-04-18 09:09:00,
2013-04-18 02:10:00,55.7,7.3,29.56,WNW,283,4.7,5.3,14,-99.99,,,0.00,0,rob ver 1A,2013-04-18 09:10:00,
2013-04-18 02:11:00,60.8,8.9,29.59,NW,317,9.5,11.0,12,-99.99,,,0.00,0,rob ver 1B,2013-04-18 09:11:00,
2013-04-18 02:12:00,60.9,8.9,29.59,NW,316,9.1,11.1,12,-99.99,,,0.00,0,rob ver 1B,2013-04-18 09:12:00,
2013-04-18 02:13:00,60.9,8.9,29.59,NW,316,8.8,10.2,12,-99.99,,,0.00,0,rob ver 1B,2013-04-18 09:13:00,
2013-04-18 02:14:00,60.8,8.9,29.59,NW,315,9.1,10.6,12,-99.99,,,0.00,0,rob ver 1B,2013-04-18 09:14:00,
2013-04-18 02:15:00,55.6,7.3,29.56,WNW,288,4.6,5.3,14,-99.99,,,0.00,0,rob ver 1A,2013-04-18 09:15:00,
2013-04-18 02:16:00,60.9,9.0,29.59,NW,313,8.7,10.2,12,-99.99,,,0.00,0,rob ver 1B,2013-04-18 09:16:00,
2013-04-18 02:17:00,60.9,9.0,29.59,NW,313,9.4,11.3,12,-99.99,,,0.00,0,rob ver 1B,2013-04-18 09:17:00,
2013-04-18 02:18:00,60.9,9.0,29.59,NW,312,9.8,12.0,12,-99.99,,,0.00,0,rob ver 1B,2013-04-18 09:18:00,
2013-04-18 02:19:00,61.0,9.1,29.59,NW,315,10.1,12.0,12,-99.99,,,0.00,0,rob ver 1B,2013-04-18 09:19:00,
2013-04-18 02:20:00,55.6,7.2,29.56,WNW,287,4.6,5.1,14,-99.99,,,0.00,0,rob ver 1A,2013-04-18 09:20:00,
2013-04-18 02:21:00,61.2,9.2,29.59,NW,317,10.3,12.7,12,-99.99,,,0.00,0,rob ver 1B,2013-04-18 09:21:00,
2013-04-18 02:22:00,61.2,9.2,29.59,NW,318,10.1,12.5,12,-99.99,,,0.00,0,rob ver 1B,2013-04-18 09:22:00,
2013-04-18 02:23:00,61.1,9.2,29.59,NW,317,9.6,11.3,12,-99.99,,,0.00,0,rob ver 1B,2013-04-18 09:23:00,
2013-04-18 02:24:00,61.1,9.2,29.59,NW,317,9.4,11.7,12,-99.99,,,0.00,0,rob ver 1B,2013-04-18 09:24:00,
2013-04-18 02:25:00,55.3,7.3,29.56,WNW,300,4.3,5.0,14,-99.99,,,0.00,0,rob ver 1A,2013-04-18 09:25:00,
2013-04-18 02:26:00,61.1,9.2,29.59,NW,314,10.5,12.2,12,-99.99,,,0.00,0,rob ver 1B,2013-04-18 09:26:00,
2013-04-18 02:27:00,61.1,9.2,29.59,NW,316,10.2,13.5,12,-99.99,,,0.00,0,rob ver 1B,2013-04-18 09:27:00,
2013-04-18 02:28:00,61.1,9.2,29.59,NW,315,10.1,11.7,12,-99.99,,,0.00,0,rob ver 1B,2013-04-18 09:28:00,
2013-04-18 02:29:00,61.1,9.3,29.59,NW,317,10.5,13.4,12,-99.99,,,0.00,0,rob ver 1B,2013-04-18 09:29:00,
2013-04-18 02:30:00,55.2,7.2,29.56,NW,307,4.3,5.2,14,-99.99,,,0.00,0,rob ver 1A,2013-04-18 09:30:00,
2013-04-18 02:31:00,61.2,9.3,29.59,NW,317,10.3,13.3,12,-99.99,,,0.00,0,rob ver 1B,2013-04-18 09:31:00,
2013-04-18 02:32:00,61.3,9.3,29.59,NW,318,10.0,12.9,12,-99.99,,,0.00,0,rob ver 1B,2013-04-18 09:32:00,
2013-04-18 02:33:00,61.4,9.4,29.59,NW,319,9.8,12.1,12,-99.99,,,0.00,0,rob ver 1B,2013-04-18 09:33:00,
2013-04-18 02:34:00,61.3,9.3,29.59,NW,319,9.6,12.4,12,-99.99,,,0.00,0,rob ver 1B,2013-04-18 09:34:00,
2013-04-18 02:35:00,55.1,7.2,29.56,WNW,298,3.8,4.9,14,-99.99,,,0.00,0,rob ver 1A,2013-04-18 09:35:00,
2013-04-18 02:36:00,61.3,9.4,29.59,NW,319,9.3,12.9,12,-99.99,,,0.00,0,rob ver 1B,2013-04-18 09:36:00,
2013-04-18 02:37:00,61.3,9.4,29.59,NW,320,9.8,12.8,12,-99.99,,,0.00,0,rob ver 1B,2013-04-18 09:37:00,
2013-04-18 02:38:00,61.4,9.4,29.59,NW,322,9.8,11.8,12,-99.99,,,0.00,0,rob ver 1B,2013-04-18 09:38:00,
2013-04-18 02:39:00,61.4,9.4,29.59,NW,320,9.3,11.0,12,-99.99,,,0.00,0,rob ver 1B,2013-04-18 09:39:00,
2013-04-18 02:40:00,54.6,7.3,29.56,West,275,2.7,3.0,14,-99.99,,,0.00,0,rob ver 1A,2013-04-18 09:40:00,
2013-04-18 02:41:00,61.3,9.4,29.59,NW,315,10.8,12.9,12,-99.99,,,0.00,0,rob ver 1B,2013-04-18 09:41:00,
2013-04-18 02:42:00,61.3,9.4,29.59,NW,315,10.9,12.4,12,-99.99,,,0.00,0,rob ver 1B,2013-04-18 09:42:00,
2013-04-18 02:43:00,61.3,9.4,29.59,NW,314,10.7,12.9,12,-99.99,,,0.00,0,rob ver 1B,2013-04-18 09:43:00,
2013-04-18 02:44:00,61.3,9.4,29.59,NW,314,10.8,12.8,12,-99.99,,,0.00,0,rob ver 1B,2013-04-18 09:44:00,
2013-04-18 02:45:00,61.3,9.4,29.59,NW,314,11.1,13.1,12,-99.99,,,0.00,0,rob ver 1B,2013-04-18 09:45:00,
2013-04-18 02:46:00,54.0,7.6,29.56,WNW,293,2.4,3.0,15,-99.99,,,0.00,0,rob ver 1A,2013-04-18 09:46:00,
2013-04-18 02:47:00,61.3,9.4,29.59,NW,313,11.2,13.1,12,-99.99,,,0.00,0,rob ver 1B,2013-04-18 09:47:00,
2013-04-18 02:48:00,61.3,9.4,29.59,NW,314,10.8,13.3,12,-99.99,,,0.00,0,rob ver 1B,2013-04-18 09:48:00,
2013-04-18 02:49:00,61.2,9.4,29.59,NW,314,10.6,12.3,12,-99.99,,,0.00,0,rob ver 1B,2013-04-18 09:49:00,
2013-04-18 02:50:00,61.0,9.3,29.59,NW,312,10.8,13.2,12,-99.99,,,0.00,0,rob ver 1B,2013-04-18 09:50:00,
2013-04-18 02:51:00,53.9,7.6,29.56,NW,309,2.5,2.8,15,-99.99,,,0.00,0,rob ver 1A,2013-04-18 09:51:00,
2013-04-18 02:52:00,61.0,9.3,29.59,NW,310,10.8,12.5,12,-99.99,,,0.00,0,rob ver 1B,2013-04-18 09:52:00,
2013-04-18 02:53:00,61.0,9.3,29.59,NW,310,10.4,13.0,12,-99.99,,,0.00,0,rob ver 1B,2013-04-18 09:53:00,
2013-04-18 02:54:00,61.0,9.3,29.59,NW,310,10.0,12.3,12,-99.99,,,0.00,0,rob ver 1B,2013-04-18 09:54:00,
2013-04-18 02:55:00,61.0,9.4,29.59,NW,312,10.5,12.2,12,-99.99,,,0.00,0,rob ver 1B,2013-04-18 09:55:00,
2013-04-18 02:56:00,53.9,7.6,29.59,WNW,291,2.9,3.3,15,-99.99,,,0.00,0,rob ver 1A,2013-04-18 09:56:00,
2013-04-18 02:57:00,61.0,9.4,29.59,NW,308,10.2,12.2,12,-99.99,,,0.00,0,rob ver 1B,2013-04-18 09:57:00,
2013-04-18 02:58:00,61.0,9.4,29.59,NW,308,10.4,13.1,12,-99.99,,,0.00,0,rob ver 1B,2013-04-18 09:58:00,
2013-04-18 02:59:00,61.0,9.4,29.59,NW,307,10.8,13.8,12,-99.99,,,0.00,0,rob ver 1B,2013-04-18 09:59:00,
2013-04-18 03:00:00,61.1,9.4,29.59,NW,307,10.6,12.8,12,-99.99,,,0.00,0,rob ver 1B,2013-04-18 10:00:00,
2013-04-18 03:01:00,53.7,7.6,29.59,WNW,282,2.9,3.0,15,-99.99,,,0.00,0,rob ver 1A,2013-04-18 10:01:00,
2013-04-18 03:02:00,60.9,9.4,29.59,NW,310,10.1,12.7,12,-99.99,,,0.00,0,rob ver 1B,2013-04-18 10:02:00,
2013-04-18 03:03:00,60.9,9.4,29.59,NW,308,10.6,13.6,12,-99.99,,,0.00,0,rob ver 1B,2013-04-18 10:03:00,
2013-04-18 03:04:00,60.9,9.4,29.59,NW,308,10.8,13.2,12,-99.99,,,0.00,0,rob ver 1B,2013-04-18 10:04:00,
2013-04-18 03:05:00,61.0,9.4,29.59,NW,306,10.1,11.9,12,-99.99,,,0.00,0,rob ver 1B,2013-04-18 10:05:00,
2013-04-18 03:06:00,53.9,7.7,29.59,WNW,289,4.3,4.9,15,-99.99,,,0.00,0,rob ver 1A,2013-04-18 10:06:00,
2013-04-18 03:07:00,60.9,9.4,29.59,NW,304,9.9,11.8,12,-99.99,,,0.00,0,rob ver 1B,2013-04-18 10:07:00,
2013-04-18 03:08:00,60.9,9.4,29.59,NW,305,9.2,10.6,12,-99.99,,,0.00,0,rob ver 1B,2013-04-18 10:08:00,
2013-04-18 03:09:00,60.8,9.4,29.59,NW,306,10.8,14.6,12,-99.99,,,0.00,0,rob ver 1B,2013-04-18 10:09:00,
2013-04-18 03:10:00,61.0,9.5,29.59,NW,305,12.1,15.1,12,-99.99,,,0.00,0,rob ver 1B,2013-04-18 10:10:00,
2013-04-18 03:11:00,53.5,7.5,29.59,West,281,4.9,5.5,15,-99.99,,,0.00,0,rob ver 1A,2013-04-18 10:11:00,
2013-04-18 03:12:00,61.2,9.5,29.59,NW,304,11.7,13.3,12,-99.99,,,0.00,0,rob ver 1B,2013-04-18 10:12:00,
2013-04-18 03:13:00,61.2,9.5,29.59,WNW,302,10.5,12.3,12,-99.99,,,0.00,0,rob ver 1B,2013-04-18 10:13:00,
2013-04-18 03:14:00,61.1,9.4,29.59,WNW,301,11.5,13.4,12,-99.99,,,0.00,0,rob ver 1B,2013-04-18 10:14:00,
2013-04-18 03:15:00,61.1,9.5,29.59,WNW,301,11.8,13.7,12,-99.99,,,0.00,0,rob ver 1B,2013-04-18 10:15:00,
2013-04-18 03:16:00,53.0,7.4,29.59,WNW,283,5.1,6.1,15,-99.99,,,0.00,0,rob ver 1A,2013-04-18 10:16:00,
2013-04-18 03:17:00,61.4,9.6,29.59,NW,304,11.9,14.5,12,-99.99,,,0.00,0,rob ver 1B,2013-04-18 10:17:00,
2013-04-18 03:18:00,61.5,9.6,29.59,WNW,301,11.7,13.5,12,-99.99,,,0.00,0,rob ver 1B,2013-04-18 10:18:00,
2013-04-18 03:19:00,61.6,9.6,29.59,WNW,298,12.9,14.5,12,-99.99,,,0.00,0,rob ver 1B,2013-04-18 10:19:00,
2013-04-18 03:20:00,61.7,9.7,29.59,WNW,298,12.8,15.2,12,-99.99,,,0.00,0,rob ver 1B,2013-04-18 10:20:00,
2013-04-18 03:21:00,61.7,9.7,29.59,WNW,296,12.0,14.6,12,-99.99,,,0.00,0,rob ver 1B,2013-04-18 10:21:00,
2013-04-18 03:22:00,61.6,9.6,29.59,WNW,294,11.3,13.7,12,-99.99,,,0.00,0,rob ver 1B,2013-04-18 10:22:00,
2013-04-18 03:23:00,61.5,9.6,29.59,WNW,293,10.9,12.3,12,-99.99,,,0.00,0,rob ver 1B,2013-04-18 10:23:00,
2013-04-18 03:24:00,61.3,9.6,29.59,WNW,293,10.1,11.6,12,-99.99,,,0.00,0,rob ver 1B,2013-04-18 10:24:00,
2013-04-18 03:25:00,61.2,9.5,29.59,WNW,294,9.6,12.3,12,-99.99,,,0.00,0,rob ver 1B,2013-04-18 10:25:00,
2013-04-18 03:26:00,53.2,7.4,29.59,WNW,293,5.0,5.7,15,-99.99,,,0.00,0,rob ver 1A,2013-04-18 10:26:00,
2013-04-18 03:27:00,60.9,9.5,29.59,WNW,295,9.7,11.4,12,-99.99,,,0.00,0,rob ver 1B,2013-04-18 10:27:00,
2013-04-18 03:28:00,60.9,9.5,29.59,WNW,294,10.0,12.1,12,-99.99,,,0.00,0,rob ver 1B,2013-04-18 10:28:00,
2013-04-18 03:29:00,61.0,9.6,29.59,WNW,294,10.9,12.6,12,-99.99,,,0.00,0,rob ver 1B,2013-04-18 10:29:00,
2013-04-18 03:30:00,61.2,9.7,29.59,WNW,295,10.9,12.5,12,-99.99,,,0.00,0,rob ver 1B,2013-04-18 10:30:00,
2013-04-18 03:31:00,53.9,7.4,29.59,WNW,296,4.4,5.1,15,-99.99,,,0.00,0,rob ver 1A,2013-04-18 10:31:00,
2013-04-18 03:32:00,61.4,9.7,29.59,WNW,299,11.2,12.7,12,-99.99,,,0.00,0,rob ver 1B,2013-04-18 10:32:00,
2013-04-18 03:33:00,61.4,9.6,29.59,WNW,295,10.7,13.2,12,-99.99,,,0.00,0,rob ver 1B,2013-04-18 10:33:00,
2013-04-18 03:34:00,61.3,9.6,29.59,WNW,293,10.8,12.7,12,-99.99,,,0.00,0,rob ver 1B,2013-04-18 10:34:00,
2013-04-18 03:35:00,61.2,9.6,29.59,WNW,292,10.3,12.3,12,-99.99,,,0.00,0,rob ver 1B,2013-04-18 10:35:00,
2013-04-18 03:36:00,53.9,7.4,29.59,WNW,287,4.9,5.5,15,-99.99,,,0.00,0,rob ver 1A,2013-04-18 10:36:00,
2013-04-18 03:37:00,60.9,9.5,29.59,WNW,285,10.5,12.4,12,-99.99,,,0.00,0,rob ver 1B,2013-04-18 10:37:00,
2013-04-18 03:38:00,61.0,9.6,29.59,WNW,287,11.2,13.2,12,-99.99,,,0.00,0,rob ver 1B,2013-04-18 10:38:00,
2013-04-18 03:39:00,61.2,9.7,29.59,WNW,289,11.0,13.6,12,-99.99,,,0.00,0,rob ver 1B,2013-04-18 10:39:00,
2013-04-18 03:40:00,61.5,9.8,29.59,WNW,290,11.3,13.7,12,-99.99,,,0.00,0,rob ver 1B,2013-04-18 10:40:00,
2013-04-18 03:41:00,53.8,7.3,29.59,NW,306,3.2,3.6,15,-99.99,,,0.00,0,rob ver 1A,2013-04-18 10:41:00,
2013-04-18 03:42:00,61.6,9.8,29.59,WNW,289,10.3,11.8,12,-99.99,,,0.00,0,rob ver 1B,2013-04-18 10:42:00,
2013-04-18 03:43:00,61.5,9.8,29.59,WNW,291,10.2,12.2,12,-99.99,,,0.00,0,rob ver 1B,2013-04-18 10:43:00,
2013-04-18 03:44:00,61.4,9.8,29.59,WNW,291,11.0,13.3,12,-99.99,,,0.00,0,rob ver 1B,2013-04-18 10:44:00,
2013-04-18 03:45:00,61.5,9.8,29.59,WNW,288,10.9,13.8,12,-99.99,,,0.00,0,rob ver 1B,2013-04-18 10:45:00,
2013-04-18 03:46:00,53.4,7.4,29.59,West,276,4.1,4.5,15,-99.99,,,0.00,0,rob ver 1A,2013-04-18 10:46:00,
2013-04-18 03:47:00,61.2,9.7,29.59,WNW,292,10.8,12.5,12,-99.99,,,0.00,0,rob ver 1B,2013-04-18 10:47:00,
2013-04-18 03:48:00,61.1,9.7,29.59,WNW,291,10.5,12.3,12,-99.99,,,0.00,0,rob ver 1B,2013-04-18 10:48:00,
2013-04-18 03:49:00,61.0,9.7,29.59,WNW,291,9.6,11.3,12,-99.99,,,0.00,0,rob ver 1B,2013-04-18 10:49:00,
2013-04-18 03:50:00,60.8,9.6,29.59,WNW,292,9.9,11.8,13,-99.99,,,0.00,0,rob ver 1B,2013-04-18 10:50:00,
2013-04-18 03:51:00,53.2,7.5,29.59,WNW,291,5.2,6.1,15,-99.99,,,0.00,0,rob ver 1A,2013-04-18 10:51:00,
2013-04-18 03:52:00,60.7,9.6,29.59,WNW,295,9.6,11.7,13,-99.99,,,0.00,0,rob ver 1B,2013-04-18 10:52:00,
2013-04-18 03:53:00,60.7,9.6,29.59,WNW,299,10.2,12.1,13,-99.99,,,0.00,0,rob ver 1B,2013-04-18 10:53:00,
2013-04-18 03:54:00,60.7,9.6,29.56,WNW,301,9.3,11.5,13,-99.99,,,0.00,0,rob ver 1B,2013-04-18 10:54:00,
2013-04-18 03:55:00,60.5,9.6,29.56,WNW,303,9.6,11.1,13,-99.99,,,0.00,0,rob ver 1B,2013-04-18 10:55:00,
2013-04-18 03:56:00,52.9,7.5,29.59,WNW,291,4.9,5.7,15,-99.99,,,0.00,0,rob ver 1A,2013-04-18 10:56:00,
2013-04-18 03:57:00,60.6,9.6,29.56,NW,307,9.7,11.4,13,-99.99,,,0.00,0,rob ver 1B,2013-04-18 10:57:00,
2013-04-18 03:58:00,60.7,9.7,29.56,NW,310,9.5,11.6,13,-99.99,,,0.00,0,rob ver 1B,2013-04-18 10:58:00,
2013-04-18 03:59:00,60.7,9.7,29.56,NW,310,8.8,9.9,13,-99.99,,,0.00,0,rob ver 1B,2013-04-18 10:59:00,
2013-04-18 04:00:00,60.5,9.7,29.56,NW,310,8.8,10.2,13,-99.99,,,0.00,0,rob ver 1B,2013-04-18 11:00:00,
2013-04-18 04:01:00,53.0,7.5,29.59,NW,310,3.9,5.3,15,-99.99,,,0.00,0,rob ver 1A,2013-04-18 11:01:00,
2013-04-18 04:02:00,60.5,9.7,29.56,NW,309,9.3,11.5,13,-99.99,,,0.00,0,rob ver 1B,2013-04-18 11:02:00,
2013-04-18 04:03:00,60.4,9.7,29.56,NW,306,9.3,10.6,13,-99.99,,,0.00,0,rob ver 1B,2013-04-18 11:03:00,
2013-04-18 04:04:00,60.3,9.6,29.56,NW,306,9.1,10.2,13,-99.99,,,0.00,0,rob ver 1B,2013-04-18 11:04:00,
2013-04-18 04:05:00,60.2,9.6,29.56,NW,306,8.8,10.1,13,-99.99,,,0.00,0,rob ver 1B,2013-04-18 11:05:00,
2013-04-18 04:06:00,52.6,7.6,29.59,WNW,302,3.9,4.4,15,-99.99,,,0.00,0,rob ver 1A,2013-04-18 11:06:00,
2013-04-18 04:07:00,59.9,9.5,29.56,NW,308,8.7,9.7,13,-99.99,,,0.00,0,rob ver 1B,2013-04-18 11:07:00,
2013-04-18 04:08:00,59.8,9.4,29.56,NW,308,8.1,9.2,13,-99.99,,,0.00,0,rob ver 1B,2013-04-18 11:08:00,
2013-04-18 04:09:00,59.5,9.3,29.56,NW,306,7.7,8.8,13,-99.99,,,0.00,0,rob ver 1B,2013-04-18 11:09:00,
2013-04-18 04:10:00,59.3,9.3,29.56,NW,306,7.8,8.8,13,-99.99,,,0.00,0,rob ver 1B,2013-04-18 11:10:00,
2013-04-18 04:11:00,52.6,7.6,29.59,NW,311,2.7,3.2,15,-99.99,,,0.00,0,rob ver 1A,2013-04-18 11:11:00,
2013-04-18 04:12:00,59.1,9.3,29.56,NW,313,7.2,9.2,13,-99.99,,,0.00,0,rob ver 1B,2013-04-18 11:12:00,
2013-04-18 04:13:00,59.0,9.3,29.56,NW,315,6.1,7.1,13,-99.99,,,0.00,0,rob ver 1B,2013-04-18 11:13:00,
2013-04-18 04:14:00,58.8,9.2,29.56,NW,318,5.3,7.2,13,-99.99,,,0.00,0,rob ver 1B,2013-04-18 11:14:00,
2013-04-18 04:15:00,58.6,9.1,29.56,NW,315,5.3,6.3,13,-99.99,,,0.00,0,rob ver 1B,2013-04-18 11:15:00,
2013-04-18 04:16:00,52.6,7.6,29.59,WNW,297,2.8,3.1,15,-99.99,,,0.00,0,rob ver 1A,2013-04-18 11:16:00,
2013-04-18 04:17:00,58.2,9.1,29.56,NW,312,4.8,5.9,13,-99.99,,,0.00,0,rob ver 1B,2013-04-18 11:17:00,
2013-04-18 04:18:00,58.0,9.1,29.56,NW,312,5.1,6.1,13,-99.99,,,0.00,0,rob ver 1B,2013-04-18 11:18:00,
2013-04-18 04:19:00,58.0,9.1,29.56,NW,312,5.1,5.9,14,-99.99,,,0.00,0,rob ver 1B,2013-04-18 11:19:00,
2013-04-18 04:20:00,58.0,9.1,29.56,NW,309,5.5,6.8,13,-99.99,,,0.00,0,rob ver 1B,2013-04-18 11:20:00,
2013-04-18 04:21:00,58.1,9.1,29.56,NW,308,5.7,6.7,14,-99.99,,,0.00,0,rob ver 1B,2013-04-18 11:21:00,
2013-04-18 04:22:00,52.1,7.7,29.59,WNW,284,2.7,3.6,16,-99.99,,,0.00,0,rob ver 1A,2013-04-18 11:22:00,
2013-04-18 04:23:00,58.0,9.1,29.56,WNW,296,6.1,7.4,14,-99.99,,,0.00,0,rob ver 1B,2013-04-18 11:23:00,
2013-04-18 04:24:00,58.0,9.1,29.56,WNW,293,6.3,7.4,14,-99.99,,,0.00,0,rob ver 1B,2013-04-18 11:24:00,
2013-04-18 04:25:00,58.0,9.1,29.56,WNW,296,6.4,7.8,14,-99.99,,,0.00,0,rob ver 1B,2013-04-18 11:25:00,
2013-04-18 04:26:00,58.0,9.1,29.56,WNW,296,6.1,7.2,14,-99.99,,,0.00,0,rob ver 1B,2013-04-18 11:26:00,
2013-04-18 04:27:00,51.9,7.5,29.59,NW,316,3.4,3.6,16,-99.99,,,0.00,0,rob ver 1A,2013-04-18 11:27:00,
2013-04-18 04:28:00,57.7,9.0,29.56,WNW,295,5.4,6.1,14,-99.99,,,0.00,0,rob ver 1B,2013-04-18 11:28:00,
2013-04-18 04:29:00,57.6,9.0,29.56,WNW,293,5.2,6.2,14,-99.99,,,0.00,0,rob ver 1B,2013-04-18 11:29:00,
2013-04-18 04:30:00,57.5,9.1,29.59,WNW,296,5.0,6.1,14,-99.99,,,0.00,0,rob ver 1B,2013-04-18 11:30:00,
2013-04-18 04:31:00,57.4,9.2,29.59,WNW,297,4.5,5.7,14,-99.99,,,0.00,0,rob ver 1B,2013-04-18 11:31:00,
2013-04-18 04:32:00,52.1,7.6,29.59,WNW,289,4.4,5.0,16,-99.99,,,0.00,0,rob ver 1A,2013-04-18 11:32:00,
2013-04-18 04:33:00,57.4,9.4,29.56,WNW,291,3.8,4.5,14,-99.99,,,0.00,0,rob ver 1B,2013-04-18 11:33:00,
2013-04-18 04:34:00,57.3,9.3,29.56,WNW,296,3.2,3.8,14,-99.99,,,0.00,0,rob ver 1B,2013-04-18 11:34:00,
2013-04-18 04:35:00,57.3,9.4,29.59,WNW,302,2.8,3.3,14,-99.99,,,0.00,0,rob ver 1B,2013-04-18 11:35:00,
2013-04-18 04:36:00,57.3,9.5,29.59,WNW,294,2.9,3.2,14,-99.99,,,0.00,0,rob ver 1B,2013-04-18 11:36:00,
2013-04-18 04:37:00,51.9,7.4,29.59,WNW,290,4.0,4.1,16,-99.99,,,0.00,0,rob ver 1A,2013-04-18 11:37:00,
2013-04-18 04:38:00,57.4,9.4,29.59,West,278,3.2,4.1,14,-99.99,,,0.00,0,rob ver 1B,2013-04-18 11:38:00,
2013-04-18 04:39:00,57.4,9.3,29.59,West,265,3.2,4.1,14,-99.99,,,0.00,0,rob ver 1B,2013-04-18 11:39:00,
2013-04-18 04:40:00,57.2,8.9,29.59,SW,227,2.8,3.1,14,-99.99,,,0.00,0,rob ver 1B,2013-04-18 11:40:00,
2013-04-18 04:41:00,56.8,9.1,29.59,SW,228,2.7,3.1,14,-99.99,,,0.00,0,rob ver 1B,2013-04-18 11:41:00,
2013-04-18 04:42:00,51.8,7.6,29.59,West,273,4.0,4.4,16,-99.99,,,0.00,0,rob ver 1A,2013-04-18 11:42:00,
2013-04-18 04:43:00,56.2,9.3,29.59,SW,231,3.0,3.8,15,-99.99,,,0.00,0,rob ver 1B,2013-04-18 11:43:00,
2013-04-18 04:44:00,56.2,9.4,29.59,WSW,239,2.8,3.3,15,-99.99,,,0.00,0,rob ver 1B,2013-04-18 11:44:00,
2013-04-18 04:45:00,56.2,9.6,29.59,WSW,252,2.4,3.2,15,-99.99,,,0.00,0,rob ver 1B,2013-04-18 11:45:00,
2013-04-18 04:46:00,56.4,9.6,29.59,West,260,2.7,3.3,15,-99.99,,,0.00,0,rob ver 1B,2013-04-18 11:46:00,
2013-04-18 04:47:00,51.0,7.4,29.59,West,268,3.4,3.7,17,-99.99,,,0.00,0,rob ver 1A,2013-04-18 11:47:00,
2013-04-18 04:48:00,56.8,9.8,29.59,West,275,3.0,3.5,14,-99.99,,,0.00,0,rob ver 1B,2013-04-18 11:48:00,
2013-04-18 04:49:00,56.9,9.7,29.59,West,279,3.7,4.7,14,-99.99,,,0.00,0,rob ver 1B,2013-04-18 11:49:00,
2013-04-18 04:50:00,57.1,9.7,29.59,WNW,283,4.4,5.2,14,-99.99,,,0.00,0,rob ver 1B,2013-04-18 11:50:00,
2013-04-18 04:51:00,57.2,9.8,29.59,WNW,285,4.3,4.7,14,-99.99,,,0.00,0,rob ver 1B,2013-04-18 11:51:00,
2013-04-18 04:52:00,50.7,7.5,29.59,West,267,4.0,4.2,17,-99.99,,,0.00,0,rob ver 1A,2013-04-18 11:52:00,
2013-04-18 04:53:00,57.3,9.6,29.59,NW,317,3.1,4.0,14,-99.99,,,0.00,0,rob ver 1B,2013-04-18 11:53:00,
2013-04-18 04:54:00,57.3,9.5,29.59,North,3,2.6,3.5,14,-99.99,,,0.00,0,rob ver 1B,2013-04-18 11:54:00,
2013-04-18 04:55:00,57.1,9.3,29.59,NE,41,4.2,5.3,14,-99.99,,,0.00,0,rob ver 1B,2013-04-18 11:55:00,
2013-04-18 04:56:00,56.7,9.0,29.59,NE,55,5.1,6.7,14,-99.99,,,0.00,0,rob ver 1B,2013-04-18 11:56:00,
2013-04-18 04:57:00,50.2,7.4,29.62,West,280,4.3,5.1,17,-99.99,,,0.00,0,rob ver 1A,2013-04-18 11:57:00,
2013-04-18 04:58:00,55.6,9.0,29.59,NE,42,1.8,3.1,15,-99.99,,,0.00,0,rob ver 1B,2013-04-18 11:58:00,
2013-04-18 04:59:00,55.4,9.1,29.59,NNE,14,1.4,1.9,15,-99.99,,,0.00,0,rob ver 1B,2013-04-18 11:59:00,
2013-04-18 05:00:00,55.3,9.4,29.59,NNW,346,1.0,1.4,15,-99.99,,,0.00,0,rob ver 1B,2013-04-18 12:00:00,
2013-04-18 05:01:00,55.3,9.4,29.59,NNW,336,1.4,2.2,15,-99.99,,,0.00,0,rob ver 1B,2013-04-18 12:01:00,
2013-04-18 05:02:00,55.3,9.6,29.59,NNW,329,1.9,3.3,15,-99.99,,,0.00,0,rob ver 1B,2013-04-18 12:02:00,
2013-04-18 05:03:00,50.5,7.5,29.62,West,274,4.5,4.9,17,-99.99,,,0.00,0,rob ver 1A,2013-04-18 12:03:00,
2013-04-18 05:04:00,55.6,9.4,29.59,WNW,299,1.1,2.3,15,-99.99,,,0.00,0,rob ver 1B,2013-04-18 12:04:00,
2013-04-18 05:05:00,55.7,9.5,29.59,NW,310,0.8,1.4,15,-99.99,,,0.00,0,rob ver 1B,2013-04-18 12:05:00,
2013-04-18 05:06:00,55.7,9.6,29.59,North,7,1.4,2.1,15,-99.99,,,0.00,0,rob ver 1B,2013-04-18 12:06:00,
2013-04-18 05:07:00,55.8,9.4,29.59,NNE,30,2.4,2.7,15,-99.99,,,0.00,0,rob ver 1B,2013-04-18 12:07:00,
2013-04-18 05:08:00,49.9,7.5,29.62,West,263,5.1,5.7,17,-99.99,,,0.00,0,rob ver 1A,2013-04-18 12:08:00,
2013-04-18 05:09:00,56.1,9.8,29.59,North,349,3.7,4.2,15,-99.99,,,0.00,0,rob ver 1B,2013-04-18 12:09:00,
2013-04-18 05:10:00,56.3,9.8,29.59,NNW,347,4.7,5.8,15,-99.99,,,0.00,0,rob ver 1B,2013-04-18 12:10:00,
2013-04-18 05:11:00,56.6,9.9,29.59,NNW,340,5.3,7.2,15,-99.99,,,0.00,0,rob ver 1B,2013-04-18 12:11:00,
2013-04-18 05:12:00,56.9,9.9,29.59,NNW,334,4.7,6.0,15,-99.99,,,0.00,0,rob ver 1B,2013-04-18 12:12:00,
2013-04-18 05:13:00,49.9,7.6,29.62,West,276,4.7,5.1,17,-99.99,,,0.00,0,rob ver 1A,2013-04-18 12:13:00,
2013-04-18 05:14:00,57.1,9.9,29.59,NW,324,5.8,6.9,15,-99.99,,,0.00,0,rob ver 1B,2013-04-18 12:14:00,
2013-04-18 05:15:00,57.1,9.8,29.59,NW,322,4.8,5.7,15,-99.99,,,0.00,0,rob ver 1B,2013-04-18 12:15:00,
2013-04-18 05:16:00,57.0,9.9,29.59,NW,323,5.4,6.4,15,-99.99,,,0.00,0,rob ver 1B,2013-04-18 12:16:00,
2013-04-18 05:17:00,57.1,9.9,29.59,NNW,328,5.2,6.2,15,-99.99,,,0.00,0,rob ver 1B,2013-04-18 12:17:00,
2013-04-18 05:18:00,49.7,7.7,29.62,WNW,285,3.7,4.1,17,-99.99,,,0.00,0,rob ver 1A,2013-04-18 12:18:00,
2013-04-18 05:19:00,57.1,9.9,29.59,NNW,333,5.6,6.6,14,-99.99,,,0.00,0,rob ver 1B,2013-04-18 12:19:00,
2013-04-18 05:20:00,57.1,9.9,29.59,NNW,331,5.7,6.7,15,-99.99,,,0.00,0,rob ver 1B,2013-04-18 12:20:00,
2013-04-18 05:21:00,57.0,10.0,29.59,NW,325,5.5,6.5,15,-99.99,,,0.00,0,rob ver 1B,2013-04-18 12:21:00,
2013-04-18 05:22:00,57.0,10.0,29.59,NW,325,5.5,6.4,15,-99.99,,,0.00,0,rob ver 1B,2013-04-18 12:22:00,
2013-04-18 05:23:00,49.5,7.6,29.62,West,277,2.8,3.3,17,-99.99,,,0.00,0,rob ver 1A,2013-04-18 12:23:00,
2013-04-18 05:24:00,56.8,9.9,29.59,NNW,337,5.2,6.1,15,-99.99,,,0.00,0,rob ver 1B,2013-04-18 12:24:00,
2013-04-18 05:25:00,56.6,9.9,29.59,NNW,347,5.3,6.5,15,-99.99,,,0.00,0,rob ver 1B,2013-04-18 12:25:00,
2013-04-18 05:26:00,56.5,9.9,29.59,North,355,6.0,6.5,15,-99.99,,,0.00,0,rob ver 1B,2013-04-18 12:26:00,
2013-04-18 05:27:00,56.6,9.9,29.59,North,355,5.5,6.5,15,-99.99,,,0.00,0,rob ver 1B,2013-04-18 12:27:00,
2013-04-18 05:28:00,48.9,7.4,29.62,WSW,244,3.3,3.4,18,-99.99,,,0.00,0,rob ver 1A,2013-04-18 12:28:00,
2013-04-18 05:29:00,56.3,9.7,29.59,West,267,4.4,5.2,15,-99.99,,,0.00,0,rob ver 1B,2013-04-18 12:29:00,
2013-04-18 05:30:00,55.7,9.6,29.59,WSW,252,5.7,6.1,15,-99.99,,,0.00,0,rob ver 1B,2013-04-18 12:30:00,
2013-04-18 05:31:00,55.3,9.6,29.59,WSW,254,5.7,6.4,15,-99.99,,,0.00,0,rob ver 1B,2013-04-18 12:31:00,
2013-04-18 05:32:00,55.1,9.8,29.59,WSW,256,6.3,8.0,16,-99.99,,,0.00,0,rob ver 1B,2013-04-18 12:32:00,
2013-04-18 05:33:00,49.3,7.7,29.62,WSW,246,4.2,4.7,17,-99.99,,,0.00,0,rob ver 1A,2013-04-18 12:33:00,
2013-04-18 05:34:00,56.1,10.0,29.59,WNW,291,6.0,7.2,15,-99.99,,,0.00,0,rob ver 1B,2013-04-18 12:34:00,
2013-04-18 05:35:00,56.1,9.8,29.59,WNW,285,5.6,6.2,15,-99.99,,,0.00,0,rob ver 1B,2013-04-18 12:35:00,
2013-04-18 05:36:00,55.7,9.7,29.59,WNW,284,5.3,6.1,15,-99.99,,,0.00,0,rob ver 1B,2013-04-18 12:36:00,
2013-04-18 05:37:00,55.4,9.8,29.59,WNW,286,6.3,6.7,15,-99.99,,,0.00,0,rob ver 1B,2013-04-18 12:37:00,
2013-04-18 05:38:00,49.2,8.1,29.62,WSW,252,5.1,5.6,18,-99.99,,,0.00,0,rob ver 1A,2013-04-18 12:38:00,
2013-04-18 05:39:00,55.3,10.0,29.59,WNW,295,7.6,9.1,16,-99.99,,,0.00,0,rob ver 1B,2013-04-18 12:39:00,
2013-04-18 05:40:00,55.5,10.1,29.59,WNW,298,7.8,8.9,15,-99.99,,,0.00,0,rob ver 1B,2013-04-18 12:40:00,
2013-04-18 05:41:00,55.8,10.1,29.59,WNW,296,6.9,7.8,15,-99.99,,,0.00,0,rob ver 1B,2013-04-18 12:41:00,
2013-04-18 05:42:00,56.0,10.1,29.59,WNW,296,5.8,7.0,15,-99.99,,,0.00,0,rob ver 1B,2013-04-18 12:42:00,
2013-04-18 05:43:00,49.5,8.4,29.62,WSW,251,4.9,5.5,18,-99.99,,,0.00,0,rob ver 1A,2013-04-18 12:43:00,
2013-04-18 05:44:00,55.9,10.0,29.59,NW,305,7.5,8.6,15,-99.99,,,0.00,.329,rob ver 1B,2013-04-18 12:44:00,
2013-04-18 05:45:00,55.7,10.1,29.59,WNW,301,7.0,7.7,15,-99.99,,,0.00,.329,rob ver 1B,2013-04-18 12:45:00,
2013-04-18 05:46:00,55.8,10.1,29.59,WNW,294,6.9,7.7,15,-99.99,,,0.00,.329,rob ver 1B,2013-04-18 12:46:00,
2013-04-18 05:47:00,56.0,10.1,29.59,WNW,287,6.6,7.7,15,-99.99,,,0.00,.329,rob ver 1B,2013-04-18 12:47:00,
2013-04-18 05:48:00,49.9,8.5,29.62,WSW,249,5.8,6.0,18,-99.99,,,0.00,.329,rob ver 1A,2013-04-18 12:48:00,
2013-04-18 05:49:00,55.8,10.1,29.62,West,264,6.1,6.9,15,-99.99,,,0.00,.329,rob ver 1B,2013-04-18 12:49:00,
2013-04-18 05:50:00,55.5,9.7,29.62,WSW,249,6.9,8.1,15,-99.99,,,0.00,.493,rob ver 1B,2013-04-18 12:50:00,
2013-04-18 05:51:00,54.6,9.4,29.62,WSW,252,7.7,9.5,16,-99.99,,,0.00,.986,rob ver 1B,2013-04-18 12:51:00,
2013-04-18 05:52:00,54.3,9.8,29.62,West,271,8.0,9.1,16,-99.99,,,0.00,.986,rob ver 1B,2013-04-18 12:52:00,
2013-04-18 05:53:00,49.7,8.5,29.62,WSW,254,5.6,6.0,18,-99.99,,,0.00,.986,rob ver 1A,2013-04-18 12:53:00,
2013-04-18 05:54:00,54.2,9.7,29.62,West,268,7.8,8.6,16,-99.99,,,0.00,1.643,rob ver 1B,2013-04-18 12:54:00,
2013-04-18 05:55:00,54.0,9.8,29.62,West,271,7.9,8.6,16,-99.99,,,0.00,1.643,rob ver 1B,2013-04-18 12:55:00,
2013-04-18 05:56:00,54.0,10.0,29.62,West,276,7.8,8.7,16,-99.99,,,0.00,2.135,rob ver 1B,2013-04-18 12:56:00,
2013-04-18 05:57:00,54.3,10.1,29.62,WNW,286,7.3,8.2,16,-99.99,,,0.00,2.3,rob ver 1B,2013-04-18 12:57:00,
2013-04-18 05:58:00,54.6,10.2,29.62,WNW,295,7.4,8.7,16,-99.99,,,0.00,2.957,rob ver 1B,2013-04-18 12:58:00,
2013-04-18 05:59:00,49.4,8.3,29.62,West,264,5.0,5.3,18,-99.99,,,0.00,2.958,rob ver 1A,2013-04-18 12:59:00,
2013-04-18 06:00:00,55.1,10.2,29.62,NW,305,9.2,10.3,16,-99.99,,,0.00,3.285,rob ver 1B,2013-04-18 13:00:00,
2013-04-18 06:01:00,55.3,10.4,29.62,NW,307,7.4,8.4,16,-99.99,,,0.00,3.942,rob ver 1B,2013-04-18 13:01:00,
2013-04-18 06:02:00,55.8,10.5,29.62,NW,307,5.6,6.6,15,-99.99,,,0.00,4.599,rob ver 1B,2013-04-18 13:02:00,
2013-04-18 06:03:00,56.2,10.4,29.62,WNW,303,5.0,6.3,15,-99.99,,,0.00,5.257,rob ver 1B,2013-04-18 13:03:00,
2013-04-18 06:04:00,48.7,8.0,29.62,West,271,3.3,3.6,18,-99.99,,,0.00,5.259,rob ver 1A,2013-04-18 13:04:00,
2013-04-18 06:05:00,55.8,10.1,29.62,WNW,288,6.7,7.3,16,-99.99,,,0.00,6.571,rob ver 1B,2013-04-18 13:05:00,
2013-04-18 06:06:00,55.6,10.3,29.62,WNW,296,7.3,7.9,16,-99.99,,,0.00,7.23,rob ver 1B,2013-04-18 13:06:00,
2013-04-18 06:07:00,55.9,10.5,29.62,WNW,290,7.3,9.1,15,-99.99,,,0.00,7.88,rob ver 1B,2013-04-18 13:07:00,
2013-04-18 06:08:00,56.4,10.5,29.62,West,279,6.8,7.8,15,-99.99,,,0.00,8.54,rob ver 1B,2013-04-18 13:08:00,
2013-04-18 06:09:00,49.0,8.2,29.62,West,270,4.5,4.7,18,-99.99,,,0.00,8.05,rob ver 1A,2013-04-18 13:09:00,
2013-04-18 06:10:00,56.3,10.3,29.62,WNW,283,6.0,6.7,15,-99.99,,,0.00,13.47,rob ver 1B,2013-04-18 13:10:00,
2013-04-18 06:11:00,56.1,10.3,29.62,WNW,288,6.5,7.1,15,-99.99,,,0.00,17.08,rob ver 1B,2013-04-18 13:11:00,
2013-04-18 06:12:00,56.0,10.3,29.62,WNW,287,6.8,7.9,15,-99.99,,,0.00,19.71,rob ver 1B,2013-04-18 13:12:00,
2013-04-18 06:13:00,55.9,10.3,29.62,WNW,283,6.8,7.8,15,-99.99,,,0.00,21.03,rob ver 1B,2013-04-18 13:13:00,
2013-04-18 06:14:00,48.9,8.1,29.65,WNW,286,4.0,4.4,18,-99.99,,,0.00,23.01,rob ver 1A,2013-04-18 13:14:00,
2013-04-18 06:15:00,55.9,10.4,29.62,WNW,297,6.8,7.8,16,-99.99,,,0.00,25.46,rob ver 1B,2013-04-18 13:15:00,
2013-04-18 06:16:00,56.1,10.5,29.62,NW,304,6.5,7.6,15,-99.99,,,0.00,27.6,rob ver 1B,2013-04-18 13:16:00,
2013-04-18 06:17:00,56.2,10.4,29.62,NW,312,6.3,7.3,15,-99.99,,,0.00,29.57,rob ver 1B,2013-04-18 13:17:00,
2013-04-18 06:18:00,56.2,10.5,29.62,NW,313,6.1,6.8,15,-99.99,,,0.00,31.54,rob ver 1B,2013-04-18 13:18:00,
2013-04-18 06:19:00,49.4,8.0,29.65,WNW,293,3.3,3.9,18,-99.99,,,0.00,33.86,rob ver 1A,2013-04-18 13:19:00,
2013-04-18 06:20:00,56.2,10.6,29.62,NW,314,8.3,9.2,15,-99.99,,,0.00,36.14,rob ver 1B,2013-04-18 13:20:00,
2013-04-18 06:21:00,56.3,10.6,29.62,NW,316,7.2,8.4,15,-99.99,,,0.00,38.6,rob ver 1B,2013-04-18 13:21:00,
2013-04-18 06:22:00,56.7,10.7,29.62,NW,310,6.9,9.3,15,-99.99,,,0.00,40.74,rob ver 1B,2013-04-18 13:22:00,
2013-04-18 06:23:00,56.9,10.6,29.62,NW,306,10.0,12.1,15,-99.99,,,0.00,43.37,rob ver 1B,2013-04-18 13:23:00,
2013-04-18 06:24:00,50.3,8.8,29.65,WNW,289,4.8,5.6,18,-99.99,,,0.00,45.04,rob ver 1A,2013-04-18 13:24:00,
2013-04-18 06:25:00,57.5,10.5,29.62,NW,309,8.1,10.1,15,-99.99,,,0.00,48.29,rob ver 1B,2013-04-18 13:25:00,
2013-04-18 06:26:00,57.6,10.5,29.62,NW,306,7.5,8.8,15,-99.99,,,0.00,50.59,rob ver 1B,2013-04-18 13:26:00,
2013-04-18 06:27:00,57.5,10.4,29.62,NW,305,8.5,9.8,15,-99.99,,,0.00,53.22,rob ver 1B,2013-04-18 13:27:00,
2013-04-18 06:28:00,57.4,10.4,29.62,NW,308,9.5,11.4,15,-99.99,,,0.00,55.19,rob ver 1B,2013-04-18 13:28:00,
2013-04-18 06:29:00,51.1,8.9,29.65,WNW,297,3.4,4.5,17,-99.99,,,0.00,57.53,rob ver 1A,2013-04-18 13:29:00,
2013-04-18 06:30:00,57.4,10.5,29.62,NW,319,7.0,9.1,15,-99.99,,,0.00,60.45,rob ver 1B,2013-04-18 13:30:00,
2013-04-18 06:31:00,57.6,10.5,29.62,NW,319,6.0,7.8,15,-99.99,,,0.00,63.08,rob ver 1B,2013-04-18 13:31:00,
2013-04-18 06:32:00,57.6,10.5,29.62,NW,317,7.6,9.4,15,-99.99,,,0.00,65.71,rob ver 1B,2013-04-18 13:32:00,
2013-04-18 06:33:00,57.5,10.6,29.62,NW,313,7.9,9.9,15,-99.99,,,0.00,68.66,rob ver 1B,2013-04-18 13:33:00,
2013-04-18 06:34:00,51.6,9.3,29.65,NW,310,3.8,4.7,17,-99.99,,,0.00,72.7,rob ver 1A,2013-04-18 13:34:00,
2013-04-18 06:35:00,57.8,10.7,29.62,NW,313,9.5,10.8,15,-99.99,,,0.00,74.2,rob ver 1B,2013-04-18 13:35:00,
2013-04-18 06:36:00,58.0,10.5,29.62,NW,316,8.5,9.7,14,-99.99,,,0.00,76.9,rob ver 1B,2013-04-18 13:36:00,
2013-04-18 06:37:00,58.0,10.5,29.62,NW,318,7.4,9.4,14,-99.99,,,0.00,79.7,rob ver 1B,2013-04-18 13:37:00,
2013-04-18 06:38:00,57.9,10.5,29.62,NW,313,7.4,9.1,14,-99.99,,,0.00,82.1,rob ver 1B,2013-04-18 13:38:00,
2013-04-18 06:39:00,52.2,9.6,29.65,West,278,4.9,5.4,17,-99.99,,,0.00,86.8,rob ver 1A,2013-04-18 13:39:00,
2013-04-18 06:40:00,57.8,10.3,29.62,NW,311,9.4,10.4,14,-99.99,,,0.00,88,rob ver 1B,2013-04-18 13:40:00,
2013-04-18 06:41:00,58.0,10.3,29.62,NW,312,10.1,11.4,14,-99.99,,,0.00,90.8,rob ver 1B,2013-04-18 13:41:00,
2013-04-18 06:42:00,58.3,10.1,29.62,NW,311,8.6,10.3,14,-99.99,,,0.00,94,rob ver 1B,2013-04-18 13:42:00,
2013-04-18 06:43:00,58.5,9.9,29.62,NW,311,7.0,8.9,14,-99.99,,,0.00,96.6,rob ver 1B,2013-04-18 13:43:00,
2013-04-18 06:44:00,52.6,9.9,29.65,West,274,5.4,6.0,17,-99.99,,,0.00,100.6,rob ver 1A,2013-04-18 13:44:00,
2013-04-18 06:45:00,58.5,9.9,29.65,NW,312,8.2,10.3,14,-99.99,,,0.00,102.5,rob ver 1B,2013-04-18 13:45:00,
2013-04-18 06:46:00,58.6,9.8,29.65,NW,312,8.4,11.2,14,-99.99,,,0.00,105.1,rob ver 1B,2013-04-18 13:46:00,
2013-04-18 06:47:00,58.7,9.7,29.65,NW,309,7.4,10.3,14,-99.99,,,0.00,108.4,rob ver 1B,2013-04-18 13:47:00,
2013-04-18 06:48:00,58.9,9.8,29.65,NW,307,5.6,7.3,13,-99.99,,,0.00,111,rob ver 1B,2013-04-18 13:48:00,
2013-04-18 06:49:00,53.0,10.3,29.65,West,268,6.4,7.2,17,-99.99,,,0.00,115.7,rob ver 1A,2013-04-18 13:49:00,
2013-04-18 06:50:00,59.1,9.8,29.65,WNW,294,5.0,6.2,13,-99.99,,,0.00,117.3,rob ver 1B,2013-04-18 13:50:00,
2013-04-18 06:51:00,59.1,9.8,29.65,WNW,290,5.3,6.1,13,-99.99,,,0.00,120.2,rob ver 1B,2013-04-18 13:51:00,
2013-04-18 06:52:00,58.9,9.8,29.65,West,281,5.9,7.1,13,-99.99,,,0.00,123.5,rob ver 1B,2013-04-18 13:52:00,
2013-04-18 06:53:00,58.8,9.7,29.65,West,275,6.1,7.2,14,-99.99,,,0.00,126.8,rob ver 1B,2013-04-18 13:53:00,
2013-04-18 06:54:00,58.8,9.7,29.65,West,269,6.2,7.3,13,-99.99,,,0.00,130.1,rob ver 1B,2013-04-18 13:54:00,
2013-04-18 06:55:00,53.3,10.6,29.65,West,272,7.2,9.4,18,-99.99,,,0.00,131.5,rob ver 1A,2013-04-18 13:55:00,
2013-04-18 06:56:00,58.7,9.7,29.65,WSW,257,6.3,7.7,14,-99.99,,,0.00,136,rob ver 1B,2013-04-18 13:56:00,
2013-04-18 06:57:00,58.6,9.7,29.65,West,260,6.4,7.3,14,-99.99,,,0.00,139.5,rob ver 1B,2013-04-18 13:57:00,
2013-04-18 06:58:00,58.6,9.7,29.65,West,261,6.4,7.3,14,-99.99,,,0.00,142.9,rob ver 1B,2013-04-18 13:58:00,
2013-04-18 06:59:00,58.6,9.7,29.65,West,263,6.0,7.0,14,-99.99,,,0.00,146.5,rob ver 1B,2013-04-18 13:59:00,
2013-04-18 07:00:00,54.4,10.9,29.65,West,262,6.7,7.8,17,-99.99,,,0.00,146.6,rob ver 1A,2013-04-18 14:00:00,
2013-04-18 07:01:00,58.6,9.8,29.65,West,268,6.2,7.4,14,-99.99,,,0.00,152.8,rob ver 1B,2013-04-18 14:01:00,
2013-04-18 07:02:00,58.7,9.8,29.65,West,272,6.0,7.2,14,-99.99,,,0.00,156.1,rob ver 1B,2013-04-18 14:02:00,
2013-04-18 07:03:00,58.8,9.8,29.65,West,276,6.2,7.4,14,-99.99,,,0.00,159.7,rob ver 1B,2013-04-18 14:03:00,
2013-04-18 07:04:00,58.9,9.8,29.65,West,278,6.0,6.8,14,-99.99,,,0.00,163.1,rob ver 1B,2013-04-18 14:04:00,
2013-04-18 07:05:00,55.1,11.4,29.65,West,269,6.6,8.0,17,-99.99,,,0.00,163.7,rob ver 1A,2013-04-18 14:05:00,
2013-04-18 07:06:00,59.1,9.9,29.65,WNW,282,5.5,6.3,13,-99.99,,,0.00,170.2,rob ver 1B,2013-04-18 14:06:00,
2013-04-18 07:07:00,59.3,10.0,29.65,WNW,284,5.5,6.6,13,-99.99,,,0.00,174.1,rob ver 1B,2013-04-18 14:07:00,
2013-04-18 07:08:00,59.4,10.0,29.65,WNW,286,5.5,7.0,13,-99.99,,,0.00,177.7,rob ver 1B,2013-04-18 14:08:00,
2013-04-18 07:09:00,59.5,10.1,29.65,WNW,291,5.4,6.6,13,-99.99,,,0.00,180.7,rob ver 1B,2013-04-18 14:09:00,
2013-04-18 07:10:00,56.2,11.8,29.68,West,275,6.1,7.6,16,-99.99,,,0.00,180.5,rob ver 1A,2013-04-18 14:10:00,
2013-04-18 07:11:00,59.9,10.2,29.65,WNW,291,4.8,5.6,13,-99.99,,,0.00,187.9,rob ver 1B,2013-04-18 14:11:00,
2013-04-18 07:12:00,60.0,10.3,29.65,WNW,290,4.6,5.9,13,-99.99,,,0.00,191.2,rob ver 1B,2013-04-18 14:12:00,
2013-04-18 07:13:00,60.1,10.4,29.65,WNW,291,4.0,5.0,13,-99.99,,,0.00,194.5,rob ver 1B,2013-04-18 14:13:00,
2013-04-18 07:14:00,60.3,10.4,29.65,WNW,302,3.7,4.5,13,-99.99,,,0.00,197.8,rob ver 1B,2013-04-18 14:14:00,
2013-04-18 07:15:00,57.2,12.4,29.68,West,278,6.9,7.9,16,-99.99,,,0.00,198.2,rob ver 1A,2013-04-18 14:15:00,
2013-04-18 07:16:00,60.8,10.5,29.65,North,5,3.0,4.4,13,-99.99,,,0.00,204.3,rob ver 1B,2013-04-18 14:16:00,
2013-04-18 07:17:00,61.0,10.5,29.65,NNE,33,2.2,2.7,13,-99.99,,,0.00,208.3,rob ver 1B,2013-04-18 14:17:00,
2013-04-18 07:18:00,61.3,10.7,29.65,North,3,1.6,2.3,13,-99.99,,,0.00,211.6,rob ver 1B,2013-04-18 14:18:00,
2013-04-18 07:19:00,61.6,10.8,29.65,NW,326,1.5,2.1,13,-99.99,,,0.00,214.9,rob ver 1B,2013-04-18 14:19:00,
2013-04-18 07:20:00,57.8,12.8,29.68,West,273,7.2,9.0,16,-99.99,,,0.00,215.9,rob ver 1A,2013-04-18 14:20:00,
2013-04-18 07:21:00,61.8,10.7,29.65,WNW,291,3.0,3.9,13,-99.99,,,0.00,222.1,rob ver 1B,2013-04-18 14:21:00,
2013-04-18 07:22:00,61.6,10.6,29.65,NW,306,3.1,3.6,13,-99.99,,,0.00,225.4,rob ver 1B,2013-04-18 14:22:00,
2013-04-18 07:23:00,61.5,10.8,29.65,NW,325,3.3,4.1,13,-99.99,,,0.00,229.3,rob ver 1B,2013-04-18 14:23:00,
2013-04-18 07:24:00,61.5,10.6,29.65,NNW,346,4.3,5.5,13,-99.99,,,0.00,232.6,rob ver 1B,2013-04-18 14:24:00,
2013-04-18 07:25:00,58.5,13.3,29.68,West,276,7.4,8.5,16,-99.99,,,0.00,234,rob ver 1A,2013-04-18 14:25:00,
2013-04-18 07:26:00,61.3,10.5,29.65,NNW,346,3.4,4.2,13,-99.99,,,0.00,239.8,rob ver 1B,2013-04-18 14:26:00,
2013-04-18 07:27:00,61.4,10.6,29.65,NNW,341,3.0,4.1,13,-99.99,,,0.00,243.1,rob ver 1B,2013-04-18 14:27:00,
2013-04-18 07:28:00,61.5,10.7,29.65,NNW,333,2.8,3.8,13,-99.99,,,0.00,247,rob ver 1B,2013-04-18 14:28:00,
2013-04-18 07:29:00,61.6,10.8,29.65,NW,314,3.0,3.9,13,-99.99,,,0.00,250.3,rob ver 1B,2013-04-18 14:29:00,
2013-04-18 07:30:00,58.7,13.1,29.68,West,263,7.4,8.5,16,-99.99,,,0.00,252.4,rob ver 1A,2013-04-18 14:30:00,
2013-04-18 07:31:00,61.7,10.7,29.65,NW,322,2.6,4.0,13,-99.99,,,0.00,256.9,rob ver 1B,2013-04-18 14:31:00,
2013-04-18 07:32:00,61.8,10.7,29.65,NNE,12,3.6,5.3,13,-99.99,,,0.00,261.1,rob ver 1B,2013-04-18 14:32:00,
2013-04-18 07:33:00,61.7,10.6,29.65,North,352,3.5,4.6,13,-99.99,,,0.00,265.4,rob ver 1B,2013-04-18 14:33:00,
2013-04-18 07:34:00,61.7,10.6,29.65,NNW,338,3.7,4.4,13,-99.99,,,0.00,268.7,rob ver 1B,2013-04-18 14:34:00,
2013-04-18 07:35:00,58.7,13.2,29.68,West,265,7.4,8.3,16,-99.99,,,0.00,270.8,rob ver 1A,2013-04-18 14:35:00,
2013-04-18 07:36:00,61.7,10.8,29.65,NNW,345,3.7,5.1,13,-99.99,,,0.00,275.9,rob ver 1B,2013-04-18 14:36:00,
2013-04-18 07:37:00,61.6,10.7,29.65,NNW,341,4.9,5.6,13,-99.99,,,0.00,279.7,rob ver 1B,2013-04-18 14:37:00,
2013-04-18 07:38:00,61.5,10.8,29.65,NNW,334,5.2,7.0,13,-99.99,,,0.00,283.1,rob ver 1B,2013-04-18 14:38:00,
2013-04-18 07:39:00,61.4,10.7,29.65,NNW,333,5.8,6.7,13,-99.99,,,0.00,286.4,rob ver 1B,2013-04-18 14:39:00,
2013-04-18 07:40:00,59.1,13.5,29.68,West,276,5.9,7.0,16,-99.99,,,0.00,292.5,rob ver 1A,2013-04-18 14:40:00,
2013-04-18 07:41:00,61.4,10.7,29.65,NNW,335,6.3,7.7,13,-99.99,,,0.00,294.3,rob ver 1B,2013-04-18 14:41:00,
2013-04-18 07:42:00,61.3,10.7,29.65,NNW,335,6.0,7.2,13,-99.99,,,0.00,298.2,rob ver 1B,2013-04-18 14:42:00,
2013-04-18 07:43:00,61.3,10.6,29.65,NNW,339,6.4,7.2,13,-99.99,,,0.00,302.2,rob ver 1B,2013-04-18 14:43:00,
2013-04-18 07:44:00,61.2,10.6,29.65,NNW,345,6.3,7.6,13,-99.99,,,0.00,305.3,rob ver 1B,2013-04-18 14:44:00,
2013-04-18 07:45:00,59.6,13.9,29.68,West,272,7.7,9.9,16,-99.99,,,0.00,311,rob ver 1A,2013-04-18 14:45:00,
2013-04-18 07:46:00,61.4,10.8,29.65,North,355,5.1,5.9,13,-99.99,,,0.00,313.3,rob ver 1B,2013-04-18 14:46:00,
2013-04-18 07:47:00,61.6,10.9,29.65,North,356,5.4,6.5,13,-99.99,,,0.00,317.2,rob ver 1B,2013-04-18 14:47:00,
2013-04-18 07:48:00,61.7,10.7,29.65,North,3,5.4,6.5,13,-99.99,,,0.00,321.2,rob ver 1B,2013-04-18 14:48:00,
2013-04-18 07:49:00,61.7,10.7,29.65,North,2,5.2,6.0,13,-99.99,,,0.00,324.6,rob ver 1B,2013-04-18 14:49:00,
2013-04-18 07:50:00,60.0,14.4,29.68,West,274,8.9,10.6,16,-99.99,,,0.00,328.9,rob ver 1A,2013-04-18 14:50:00,
2013-04-18 07:51:00,61.9,10.8,29.65,North,4,4.9,6.3,13,-99.99,,,0.00,331.7,rob ver 1B,2013-04-18 14:51:00,
2013-04-18 07:52:00,62.0,10.9,29.65,North,349,4.2,5.8,13,-99.99,,,0.00,336,rob ver 1B,2013-04-18 14:52:00,
2013-04-18 07:53:00,62.2,11.0,29.65,NNW,344,4.4,5.4,13,-99.99,,,0.00,339.6,rob ver 1B,2013-04-18 14:53:00,
2013-04-18 07:54:00,62.3,10.9,29.65,NW,314,5.0,5.6,13,-99.99,,,0.00,343.7,rob ver 1B,2013-04-18 14:54:00,
2013-04-18 07:55:00,62.3,11.1,29.65,NW,309,4.7,5.7,13,-99.99,,,0.00,347.4,rob ver 1B,2013-04-18 14:55:00,
2013-04-18 07:56:00,60.5,14.5,29.68,West,276,10.1,11.8,16,-99.99,,,0.00,347.6,rob ver 1A,2013-04-18 14:56:00,
2013-04-18 07:57:00,62.4,10.9,29.65,WNW,297,5.7,6.5,13,-99.99,,,0.00,355.2,rob ver 1B,2013-04-18 14:57:00,
2013-04-18 07:58:00,62.4,11.0,29.65,WNW,288,5.8,6.8,12,-99.99,,,0.00,358.6,rob ver 1B,2013-04-18 14:58:00,
2013-04-18 07:59:00,62.5,11.0,29.65,WNW,293,5.8,6.7,13,-99.99,,,0.00,362.5,rob ver 1B,2013-04-18 14:59:00,
2013-04-18 08:00:00,62.5,11.0,29.65,WNW,294,5.9,7.4,13,-99.99,,,0.00,366.5,rob ver 1B,2013-04-18 15:00:00,
2013-04-18 08:01:00,60.7,14.6,29.68,West,277,9.4,11.2,16,-99.99,,,0.00,365.5,rob ver 1A,2013-04-18 15:01:00,
2013-04-18 08:02:00,62.5,11.1,29.65,WNW,289,5.9,7.3,13,-99.99,,,0.00,373.7,rob ver 1B,2013-04-18 15:02:00,
2013-04-18 08:03:00,62.7,11.1,29.65,WNW,286,6.4,7.3,13,-99.99,,,0.00,377.6,rob ver 1B,2013-04-18 15:03:00,
2013-04-18 08:04:00,62.8,11.2,29.65,WNW,293,5.3,6.4,12,-99.99,,,0.00,380.9,rob ver 1B,2013-04-18 15:04:00,
2013-04-18 08:05:00,63.1,11.4,29.65,WNW,294,5.5,7.8,12,-99.99,,,0.00,384.9,rob ver 1B,2013-04-18 15:05:00,
2013-04-18 08:06:00,61.3,14.9,29.68,WNW,290,8.1,9.3,16,-99.99,,,0.00,384.5,rob ver 1A,2013-04-18 15:06:00,
2013-04-18 08:07:00,63.3,11.5,29.65,NW,305,5.6,7.0,12,-99.99,,,0.00,392.1,rob ver 1B,2013-04-18 15:07:00,
2013-04-18 08:08:00,63.6,11.6,29.65,WNW,299,4.0,5.2,12,-99.99,,,0.00,396,rob ver 1B,2013-04-18 15:08:00,
2013-04-18 08:09:00,63.9,11.7,29.65,WNW,292,4.1,5.0,12,-99.99,,,0.00,399.1,rob ver 1B,2013-04-18 15:09:00,
2013-04-18 08:10:00,64.2,11.8,29.65,WNW,302,4.2,5.4,12,-99.99,,,0.00,402.9,rob ver 1B,2013-04-18 15:10:00,
2013-04-18 08:11:00,61.5,14.9,29.68,WNW,284,10.4,14.3,16,-99.99,,,0.00,402.4,rob ver 1A,2013-04-18 15:11:00,
2013-04-18 08:12:00,64.6,11.9,29.65,WNW,299,4.8,5.9,12,-99.99,,,0.00,411.1,rob ver 1B,2013-04-18 15:12:00,
2013-04-18 08:13:00,64.7,11.9,29.65,WNW,282,4.4,6.1,12,-99.99,,,0.00,414.1,rob ver 1B,2013-04-18 15:13:00,
2013-04-18 08:14:00,64.9,11.7,29.65,West,280,4.6,5.6,12,-99.99,,,0.00,418,rob ver 1B,2013-04-18 15:14:00,
2013-04-18 08:15:00,64.9,11.8,29.65,WNW,287,4.4,5.6,12,-99.99,,,0.00,421.6,rob ver 1B,2013-04-18 15:15:00,
2013-04-18 08:16:00,62.0,15.3,29.68,WNW,283,10.9,15.4,15,-99.99,,,0.00,421.1,rob ver 1A,2013-04-18 15:16:00,
2013-04-18 08:17:00,65.2,11.7,29.65,WNW,286,4.5,6.0,12,-99.99,,,0.00,428.8,rob ver 1B,2013-04-18 15:17:00,
2013-04-18 08:18:00,65.2,11.7,29.65,WNW,282,5.2,7.3,12,-99.99,,,0.00,432.8,rob ver 1B,2013-04-18 15:18:00,
2013-04-18 08:19:00,65.2,11.8,29.65,WNW,288,5.8,6.6,12,-99.99,,,0.00,436.7,rob ver 1B,2013-04-18 15:19:00,
2013-04-18 08:20:00,65.3,11.8,29.65,WNW,283,6.2,7.0,12,-99.99,,,0.00,440.7,rob ver 1B,2013-04-18 15:20:00,
2013-04-18 08:21:00,62.6,15.5,29.68,NW,306,8.7,10.9,16,-99.99,,,0.00,442.9,rob ver 1A,2013-04-18 15:21:00,
2013-04-18 08:22:00,65.5,12.0,29.65,West,276,6.2,8.4,12,-99.99,,,0.00,447.2,rob ver 1B,2013-04-18 15:22:00,
2013-04-18 08:23:00,65.5,11.9,29.65,West,276,7.0,8.6,12,-99.99,,,0.00,451.2,rob ver 1B,2013-04-18 15:23:00,
2013-04-18 08:24:00,65.4,11.9,29.65,WNW,288,6.8,8.2,12,-99.99,,,0.00,454.4,rob ver 1B,2013-04-18 15:24:00,
2013-04-18 08:25:00,65.4,12.0,29.65,West,272,7.3,8.9,12,-99.99,,,0.00,458.2,rob ver 1B,2013-04-18 15:25:00,
2013-04-18 08:26:00,63.2,15.9,29.68,NW,313,10.1,13.8,15,-99.99,,,0.00,461.4,rob ver 1A,2013-04-18 15:26:00,
2013-04-18 08:27:00,65.4,12.0,29.65,West,275,7.9,10.0,12,-99.99,,,0.00,466.1,rob ver 1B,2013-04-18 15:27:00,
2013-04-18 08:28:00,65.6,12.0,29.65,West,279,6.4,7.7,12,-99.99,,,0.00,469.5,rob ver 1B,2013-04-18 15:28:00,
2013-04-18 08:29:00,65.9,12.1,29.65,WNW,282,7.3,9.4,12,-99.99,,,0.00,473.5,rob ver 1B,2013-04-18 15:29:00,
2013-04-18 08:30:00,65.8,12.0,29.65,West,275,7.5,8.4,12,-99.99,,,0.00,477.4,rob ver 1B,2013-04-18 15:30:00,
2013-04-18 08:31:00,63.4,15.9,29.68,NW,326,10.5,13.2,15,-99.99,,,0.00,478.6,rob ver 1A,2013-04-18 15:31:00,
2013-04-18 08:32:00,66.1,12.3,29.65,WNW,291,6.5,8.1,12,-99.99,,,0.00,483.9,rob ver 1B,2013-04-18 15:32:00,
2013-04-18 08:33:00,66.5,12.4,29.65,WNW,287,7.4,9.0,12,-99.99,,,0.00,488.2,rob ver 1B,2013-04-18 15:33:00,
2013-04-18 08:34:00,66.6,12.2,29.65,WNW,285,8.3,9.2,11,-99.99,,,0.00,491,rob ver 1B,2013-04-18 15:34:00,
2013-04-18 08:35:00,66.4,12.1,29.65,WNW,282,7.7,8.9,12,-99.99,,,0.00,494.4,rob ver 1B,2013-04-18 15:35:00,
2013-04-18 08:36:00,66.4,12.2,29.65,West,281,8.5,10.2,11,-99.99,,,0.00,498.4,rob ver 1B,2013-04-18 15:36:00,
2013-04-18 08:37:00,63.3,15.9,29.68,NW,307,11.3,13.1,15,-99.99,,,0.00,496.2,rob ver 1A,2013-04-18 15:37:00,
2013-04-18 08:38:00,66.4,12.1,29.65,WNW,296,6.2,8.0,11,-99.99,,,0.00,505.3,rob ver 1B,2013-04-18 15:38:00,
2013-04-18 08:39:00,66.6,12.4,29.65,WNW,290,6.1,7.8,11,-99.99,,,0.00,508.5,rob ver 1B,2013-04-18 15:39:00,
2013-04-18 08:40:00,67.0,12.3,29.65,NW,309,5.3,6.8,11,-99.99,,,0.00,511.5,rob ver 1B,2013-04-18 15:40:00,
2013-04-18 08:41:00,67.2,12.5,29.65,NW,310,4.0,5.6,12,-99.99,,,0.00,515.1,rob ver 1B,2013-04-18 15:41:00,
2013-04-18 08:42:00,63.6,15.6,29.68,WNW,301,13.8,17.6,15,-99.99,,,0.00,514.6,rob ver 1A,2013-04-18 15:42:00,
2013-04-18 08:43:00,67.6,12.5,29.65,WNW,286,4.1,5.8,11,-99.99,,,0.00,522,rob ver 1B,2013-04-18 15:43:00,
2013-04-18 08:44:00,67.6,12.6,29.65,West,275,4.6,5.9,11,-99.99,,,0.00,525.4,rob ver 1B,2013-04-18 15:44:00,
2013-04-18 08:45:00,67.7,12.4,29.65,West,269,4.9,5.9,11,-99.99,,,0.00,530.2,rob ver 1B,2013-04-18 15:45:00,
2013-04-18 08:46:00,67.6,12.5,29.65,West,276,3.7,5.1,11,-99.99,,,0.00,533.1,rob ver 1B,2013-04-18 15:46:00,
2013-04-18 08:47:00,64.2,15.2,29.68,NW,307,10.2,13.3,14,-99.99,,,0.00,532.6,rob ver 1A,2013-04-18 15:47:00,
2013-04-18 08:48:00,67.8,12.6,29.65,WNW,283,5.6,6.5,11,-99.99,,,0.00,540.3,rob ver 1B,2013-04-18 15:48:00,
2013-04-18 08:49:00,67.7,12.4,29.65,WNW,296,3.9,5.3,11,-99.99,,,0.00,543.3,rob ver 1B,2013-04-18 15:49:00,
2013-04-18 08:50:00,67.7,12.5,29.65,WNW,298,3.2,4.6,11,-99.99,,,0.00,546.2,rob ver 1B,2013-04-18 15:50:00,
2013-04-18 08:51:00,67.9,12.6,29.65,WNW,290,4.3,5.5,11,-99.99,,,0.00,550.5,rob ver 1B,2013-04-18 15:51:00,
2013-04-18 08:52:00,64.2,15.6,29.68,WNW,289,10.8,12.9,14,-99.99,,,0.00,548.4,rob ver 1A,2013-04-18 15:52:00,
2013-04-18 08:53:00,68.0,12.5,29.65,West,278,2.9,4.4,11,-99.99,,,0.00,557.4,rob ver 1B,2013-04-18 15:53:00,
2013-04-18 08:54:00,68.2,12.8,29.65,WNW,290,2.5,4.8,11,-99.99,,,0.00,560.6,rob ver 1B,2013-04-18 15:54:00,
2013-04-18 08:55:00,68.6,12.7,29.65,WNW,288,4.7,6.5,11,-99.99,,,0.00,564.1,rob ver 1B,2013-04-18 15:55:00,
2013-04-18 08:56:00,68.6,12.8,29.65,NW,310,3.7,5.5,11,-99.99,,,0.00,567.5,rob ver 1B,2013-04-18 15:56:00,
2013-04-18 08:57:00,64.1,15.8,29.68,WNW,299,8.4,10.3,15,-99.99,,,0.00,569.3,rob ver 1A,2013-04-18 15:57:00,
2013-04-18 08:58:00,69.3,12.9,29.65,WNW,296,1.8,4.4,11,-99.99,,,0.00,574.7,rob ver 1B,2013-04-18 15:58:00,
2013-04-18 08:59:00,69.6,13.0,29.65,NW,310,3.2,4.2,11,-99.99,,,0.00,578,rob ver 1B,2013-04-18 15:59:00,
2013-04-18 09:00:00,69.6,12.7,29.65,West,270,2.7,3.7,10,-99.99,,,0.00,582,rob ver 1B,2013-04-18 16:00:00,
2013-04-18 09:01:00,69.5,12.8,29.65,West,260,1.1,1.8,11,-99.99,,,0.00,584.3,rob ver 1B,2013-04-18 16:01:00,
2013-04-18 09:02:00,65.0,15.6,29.68,NNW,328,7.2,10.5,15,-99.99,,,0.00,585.4,rob ver 1A,2013-04-18 16:02:00,
2013-04-18 09:03:00,69.5,12.6,29.65,WNW,293,2.4,5.3,10,-99.99,,,0.00,591.1,rob ver 1B,2013-04-18 16:03:00,
2013-04-18 09:04:00,69.7,12.7,29.65,WNW,286,0.8,1.7,10,-99.99,,,0.00,593.8,rob ver 1B,2013-04-18 16:04:00,
2013-04-18 09:05:00,70.1,12.8,29.65,SW,227,1.9,3.2,10,-99.99,,,0.00,597.4,rob ver 1B,2013-04-18 16:05:00,
2013-04-18 09:06:00,70.1,12.6,29.65,SSW,201,1.6,2.5,10,-99.99,,,0.00,600.6,rob ver 1B,2013-04-18 16:06:00,
2013-04-18 09:07:00,65.3,14.7,29.68,NW,307,12.8,15.2,13,-99.99,,,0.00,600.5,rob ver 1A,2013-04-18 16:07:00,
2013-04-18 09:08:00,70.5,12.8,29.65,SW,220,2.3,3.4,10,-99.99,,,0.00,608,rob ver 1B,2013-04-18 16:08:00,
2013-04-18 09:09:00,70.4,12.6,29.65,SW,229,2.7,4.0,10,-99.99,,,0.00,610.6,rob ver 1B,2013-04-18 16:09:00,
2013-04-18 09:10:00,70.2,12.8,29.65,SSW,200,1.8,2.7,10,-99.99,,,0.00,613.6,rob ver 1B,2013-04-18 16:10:00,
2013-04-18 09:11:00,70.4,12.7,29.65,West,279,2.2,3.0,10,-99.99,,,0.00,617,rob ver 1B,2013-04-18 16:11:00,
2013-04-18 09:12:00,70.7,13.1,29.65,WNW,293,1.7,2.7,10,-99.99,,,0.00,621.6,rob ver 1B,2013-04-18 16:12:00,
2013-04-18 09:13:00,65.4,14.7,29.68,NW,307,15.3,18.1,13,-99.99,,,0.00,615.2,rob ver 1A,2013-04-18 16:13:00,
2013-04-18 09:14:00,71.3,13.2,29.65,SW,223,1.0,2.0,10,-99.99,,,0.00,626.8,rob ver 1B,2013-04-18 16:14:00,
2013-04-18 09:15:00,71.5,13.0,29.65,South,187,0.8,1.3,10,-99.99,,,0.00,630.3,rob ver 1B,2013-04-18 16:15:00,
2013-04-18 09:16:00,71.6,13.1,29.65,West,268,2.4,4.4,10,-99.99,,,0.00,633.1,rob ver 1B,2013-04-18 16:16:00,
2013-04-18 09:17:00,71.5,13.0,29.65,West,278,3.0,5.3,10,-99.99,,,0.00,636.2,rob ver 1B,2013-04-18 16:17:00,
2013-04-18 09:18:00,65.3,14.7,29.68,NW,315,10.7,17.4,14,-99.99,,,0.00,631.5,rob ver 1A,2013-04-18 16:18:00,
2013-04-18 09:19:00,71.7,13.2,29.65,West,281,0.6,1.3,10,-99.99,,,0.00,642.7,rob ver 1B,2013-04-18 16:19:00,
2013-04-18 09:20:00,72.1,13.2,29.65,SSE,162,0.4,1.1,10,-99.99,,,0.00,646.3,rob ver 1B,2013-04-18 16:20:00,
2013-04-18 09:21:00,72.4,13.2,29.65,West,263,1.6,3.8,10,-99.99,,,0.00,649.8,rob ver 1B,2013-04-18 16:21:00,
2013-04-18 09:22:00,72.6,13.3,29.65,WNW,290,2.1,4.2,10,-99.99,,,0.00,651.7,rob ver 1B,2013-04-18 16:22:00,
2013-04-18 09:23:00,65.3,14.4,29.68,WNW,293,16.6,19.9,13,-99.99,,,0.00,650.6,rob ver 1A,2013-04-18 16:23:00,
2013-04-18 09:24:00,71.7,13.0,29.65,West,263,2.0,2.7,10,-99.99,,,0.00,658.3,rob ver 1B,2013-04-18 16:24:00,
2013-04-18 09:25:00,71.6,13.0,29.65,West,267,2.4,4.0,10,-99.99,,,0.00,660.7,rob ver 1B,2013-04-18 16:25:00,
2013-04-18 09:26:00,71.5,12.9,29.65,WNW,282,3.7,5.5,10,-99.99,,,0.00,664.3,rob ver 1B,2013-04-18 16:26:00,
2013-04-18 09:27:00,71.4,13.0,29.65,WNW,299,2.7,4.0,10,-99.99,,,0.00,667,rob ver 1B,2013-04-18 16:27:00,
2013-04-18 09:28:00,65.6,14.6,29.68,NW,309,16.2,19.6,13,-99.99,,,0.00,665.5,rob ver 1A,2013-04-18 16:28:00,
2013-04-18 09:29:00,71.8,13.2,29.65,NW,309,3.0,6.0,10,-99.99,,,0.00,673.2,rob ver 1B,2013-04-18 16:29:00,
2013-04-18 09:30:00,71.7,12.9,29.65,WSW,247,3.7,5.0,10,-99.99,,,0.00,676.8,rob ver 1B,2013-04-18 16:30:00,
2013-04-18 09:31:00,71.3,13.0,29.65,WSW,241,4.7,6.4,10,-99.99,,,0.00,678.6,rob ver 1B,2013-04-18 16:31:00,
2013-04-18 09:32:00,71.1,12.8,29.65,WSW,239,4.1,6.1,10,-99.99,,,0.00,680.8,rob ver 1B,2013-04-18 16:32:00,
2013-04-18 09:33:00,65.7,14.8,29.68,NW,314,10.7,13.5,13,-99.99,,,0.00,678.8,rob ver 1A,2013-04-18 16:33:00,
2013-04-18 09:34:00,71.5,13.3,29.65,West,272,2.9,6.4,10,-99.99,,,0.00,687.2,rob ver 1B,2013-04-18 16:34:00,
2013-04-18 09:35:00,72.1,13.2,29.65,West,264,2.7,4.0,10,-99.99,,,0.00,691,rob ver 1B,2013-04-18 16:35:00,
2013-04-18 09:36:00,72.2,13.1,29.65,WSW,253,1.3,2.2,10,-99.99,,,0.00,693.9,rob ver 1B,2013-04-18 16:36:00,
2013-04-18 09:37:00,72.4,13.3,29.65,SW,215,2.9,4.5,10,-99.99,,,0.00,696.9,rob ver 1B,2013-04-18 16:37:00,
2013-04-18 09:38:00,65.9,14.6,29.68,NW,310,15.4,18.2,13,-99.99,,,0.00,698,rob ver 1A,2013-04-18 16:38:00,
2013-04-18 09:39:00,72.2,13.0,29.65,SW,232,4.0,6.2,10,-99.99,,,0.00,704,rob ver 1B,2013-04-18 16:39:00,
2013-04-18 09:40:00,72.5,13.1,29.65,WSW,250,2.7,4.1,10,-99.99,,,0.00,705,rob ver 1B,2013-04-18 16:40:00,
2013-04-18 09:41:00,72.5,13.2,29.65,WSW,252,3.1,5.2,10,-99.99,,,0.00,710,rob ver 1B,2013-04-18 16:41:00,
2013-04-18 09:42:00,72.6,13.3,29.65,West,278,4.1,6.1,9,-99.99,,,0.00,711,rob ver 1B,2013-04-18 16:42:00,
2013-04-18 09:43:00,66.1,14.8,29.68,NW,309,12.7,16.1,13,-99.99,,,0.00,711,rob ver 1A,2013-04-18 16:43:00,
2013-04-18 09:44:00,72.4,13.0,29.65,WNW,292,4.2,5.8,10,-99.99,,,0.00,717,rob ver 1B,2013-04-18 16:44:00,
2013-04-18 09:45:00,72.5,13.0,29.65,NNW,330,3.6,5.6,10,-99.99,,,0.00,721,rob ver 1B,2013-04-18 16:45:00,
2013-04-18 09:46:00,72.6,13.2,29.65,NNW,331,3.4,5.6,10,-99.99,,,0.00,723,rob ver 1B,2013-04-18 16:46:00,
2013-04-18 09:47:00,72.7,12.9,29.65,NW,305,4.8,5.7,9,-99.99,,,0.00,726,rob ver 1B,2013-04-18 16:47:00,
2013-04-18 09:48:00,72.5,12.9,29.65,NW,310,1.8,3.7,9,-99.99,,,0.00,729,rob ver 1B,2013-04-18 16:48:00,
2013-04-18 09:49:00,65.6,15.0,29.68,WNW,296,8.4,11.9,13,-99.99,,,0.00,725,rob ver 1A,2013-04-18 16:49:00,
2013-04-18 09:50:00,73.1,12.8,29.65,North,355,2.0,4.7,9,-99.99,,,0.00,735,rob ver 1B,2013-04-18 16:50:00,
2013-04-18 09:51:00,73.5,12.9,29.65,NNE,32,1.6,3.2,9,-99.99,,,0.00,738,rob ver 1B,2013-04-18 16:51:00,
2013-04-18 09:52:00,73.8,12.6,29.65,NE,45,4.4,5.6,9,-99.99,,,0.00,740,rob ver 1B,2013-04-18 16:52:00,
2013-04-18 09:53:00,73.3,12.3,29.65,NE,49,3.4,4.7,9,-99.99,,,0.00,744,rob ver 1B,2013-04-18 16:53:00,
2013-04-18 09:54:00,66.1,15.0,29.68,WNW,303,13.3,16.8,13,-99.99,,,0.00,741,rob ver 1A,2013-04-18 16:54:00,
2013-04-18 09:55:00,73.4,12.3,29.65,NNE,12,4.0,6.0,9,-99.99,,,0.00,749,rob ver 1B,2013-04-18 16:55:00,
2013-04-18 09:56:00,73.4,12.3,29.65,North,7,2.4,3.9,9,-99.99,,,0.00,751,rob ver 1B,2013-04-18 16:56:00,
2013-04-18 09:57:00,73.7,12.6,29.65,NE,42,0.9,1.5,9,-99.99,,,0.00,753,rob ver 1B,2013-04-18 16:57:00,
2013-04-18 09:58:00,74.2,12.5,29.65,ENE,61,2.6,3.9,9,-99.99,,,0.00,756,rob ver 1B,2013-04-18 16:58:00,
2013-04-18 09:59:00,67.5,14.6,29.68,West,280,12.2,17.2,13,-99.99,,,0.00,752,rob ver 1A,2013-04-18 16:59:00,
2013-04-18 10:00:00,73.5,11.9,29.65,South,188,2.3,3.3,9,-99.99,,,0.00,762,rob ver 1B,2013-04-18 17:00:00,
2013-04-18 10:01:00,73.6,11.8,29.65,South,187,1.8,2.6,9,-99.99,,,0.00,765,rob ver 1B,2013-04-18 17:01:00,
2013-04-18 10:02:00,73.9,12.0,29.65,SW,222,2.3,3.5,9,-99.99,,,0.00,767,rob ver 1B,2013-04-18 17:02:00,
2013-04-18 10:03:00,74.0,12.1,29.65,SW,224,1.8,2.6,9,-99.99,,,0.00,771,rob ver 1B,2013-04-18 17:03:00,
2013-04-18 10:04:00,67.6,11.0,29.68,NNW,340,17.5,21.9,11,-99.99,,,0.00,771,rob ver 1A,2013-04-18 17:04:00,
2013-04-18 10:05:00,74.0,11.9,29.65,East,89,1.1,2.2,9,-99.99,,,0.00,776,rob ver 1B,2013-04-18 17:05:00,
2013-04-18 10:06:00,74.6,12.3,29.65,West,275,0.8,1.8,9,-99.99,,,0.00,778,rob ver 1B,2013-04-18 17:06:00,
2013-04-18 10:07:00,75.5,12.5,29.65,North,359,0.8,1.5,8,-99.99,,,0.00,780,rob ver 1B,2013-04-18 17:07:00,
2013-04-18 10:08:00,76.2,12.7,29.65,ENE,78,1.6,3.3,8,-99.99,,,0.00,783,rob ver 1B,2013-04-18 17:08:00,
2013-04-18 10:09:00,67.8,11.6,29.68,NW,318,12.6,15.5,11,-99.99,,,0.00,780,rob ver 1A,2013-04-18 17:09:00,
2013-04-18 10:10:00,76.2,12.2,29.65,ENE,57,3.3,4.6,8,-99.99,,,0.00,788,rob ver 1B,2013-04-18 17:10:00,
2013-04-18 10:11:00,75.8,11.8,29.65,NNE,30,5.4,8.4,8,-99.99,,,0.00,790,rob ver 1B,2013-04-18 17:11:00,
2013-04-18 10:12:00,75.2,11.8,29.65,NNE,20,2.0,4.5,8,-99.99,,,0.00,793,rob ver 1B,2013-04-18 17:12:00,
2013-04-18 10:13:00,75.2,11.7,29.65,NNE,15,4.2,6.5,8,-99.99,,,0.00,795,rob ver 1B,2013-04-18 17:13:00,
2013-04-18 10:14:00,67.7,12.7,29.68,WNW,299,16.6,20.1,11,-99.99,,,0.00,795,rob ver 1A,2013-04-18 17:14:00,
2013-04-18 10:15:00,74.2,11.2,29.65,SE,133,2.2,3.2,8,-99.99,,,0.00,800,rob ver 1B,2013-04-18 17:15:00,
2013-04-18 10:16:00,74.0,11.4,29.65,WNW,285,1.8,3.5,8,-99.99,,,0.00,802,rob ver 1B,2013-04-18 17:16:00,
2013-04-18 10:17:00,74.6,11.8,29.65,WNW,291,2.3,3.9,9,-99.99,,,0.00,805,rob ver 1B,2013-04-18 17:17:00,
2013-04-18 10:18:00,75.0,12.4,29.65,NW,315,1.8,2.8,9,-99.99,,,0.00,806,rob ver 1B,2013-04-18 17:18:00,
2013-04-18 10:19:00,68.3,11.0,29.68,North,349,16.8,21.5,10,-99.99,,,0.00,810,rob ver 1A,2013-04-18 17:19:00,
2013-04-18 10:20:00,75.3,12.1,29.65,East,97,5.1,6.4,8,-99.99,,,0.00,813,rob ver 1B,2013-04-18 17:20:00,
2013-04-18 10:21:00,74.4,11.6,29.65,ESE,103,5.7,7.2,8,-99.99,,,0.00,815,rob ver 1B,2013-04-18 17:21:00,
2013-04-18 10:22:00,73.7,11.4,29.65,East,98,3.0,4.6,9,-99.99,,,0.00,818,rob ver 1B,2013-04-18 17:22:00,
2013-04-18 10:23:00,73.7,11.4,29.65,ESE,108,3.0,4.4,9,-99.99,,,0.00,821,rob ver 1B,2013-04-18 17:23:00,
2013-04-18 10:24:00,68.3,10.4,29.68,NNW,340,19.4,24.0,10,-99.99,,,0.00,822,rob ver 1A,2013-04-18 17:24:00,
2013-04-18 10:25:00,74.0,11.2,29.65,ESE,123,1.9,3.7,8,-99.99,,,0.00,825,rob ver 1B,2013-04-18 17:25:00,
2013-04-18 10:26:00,74.4,11.5,29.65,East,85,2.3,5.4,8,-99.99,,,0.00,827,rob ver 1B,2013-04-18 17:26:00,
2013-04-18 10:27:00,74.8,11.7,29.65,NE,54,3.3,4.5,8,-99.99,,,0.00,831,rob ver 1B,2013-04-18 17:27:00,
2013-04-18 10:28:00,75.0,11.8,29.65,NE,34,6.0,8.4,8,-99.99,,,0.00,831,rob ver 1B,2013-04-18 17:28:00,
2013-04-18 10:29:00,68.4,10.5,29.68,NNW,344,15.6,22.4,10,-99.99,,,0.00,833,rob ver 1A,2013-04-18 17:29:00,
2013-04-18 10:30:00,75.0,12.1,29.65,NNW,340,4.1,6.2,8,-99.99,,,0.00,836,rob ver 1B,2013-04-18 17:30:00,
2013-04-18 10:31:00,75.2,11.9,29.65,NNW,336,3.4,5.0,9,-99.99,,,0.00,839,rob ver 1B,2013-04-18 17:31:00,
2013-04-18 10:32:00,75.3,12.0,29.65,NNW,346,3.6,5.0,8,-99.99,,,0.00,841,rob ver 1B,2013-04-18 17:32:00,
2013-04-18 10:33:00,75.5,11.9,29.65,North,8,4.8,7.6,8,-99.99,,,0.00,842,rob ver 1B,2013-04-18 17:33:00,
2013-04-18 10:34:00,75.4,11.5,29.65,NNE,23,3.3,5.4,8,-99.99,,,0.00,845,rob ver 1B,2013-04-18 17:34:00,
2013-04-18 10:35:00,68.6,10.0,29.68,North,353,17.6,21.8,10,-99.99,,,0.00,843,rob ver 1A,2013-04-18 17:35:00,
2013-04-18 10:36:00,75.8,11.9,29.65,NNE,30,4.4,5.3,8,-99.99,,,0.00,851,rob ver 1B,2013-04-18 17:36:00,
2013-04-18 10:37:00,76.1,12.0,29.65,NE,49,4.9,7.7,8,-99.99,,,0.00,851,rob ver 1B,2013-04-18 17:37:00,
2013-04-18 10:38:00,75.8,11.6,29.65,NE,53,3.0,4.9,8,-99.99,,,0.00,853,rob ver 1B,2013-04-18 17:38:00,
2013-04-18 10:39:00,76.0,11.8,29.65,North,8,1.4,3.5,8,-99.99,,,0.00,856,rob ver 1B,2013-04-18 17:39:00,
2013-04-18 10:40:00,69.7,10.5,29.68,NW,305,15.4,19.3,9,-99.99,,,0.00,853,rob ver 1A,2013-04-18 17:40:00,
2013-04-18 10:41:00,75.9,11.8,29.65,ENE,78,3.6,7.4,8,-99.99,,,0.00,859,rob ver 1B,2013-04-18 17:41:00,
2013-04-18 10:42:00,75.3,11.5,29.65,ESE,122,4.2,8.8,8,-99.99,,,0.00,862,rob ver 1B,2013-04-18 17:42:00,
2013-04-18 10:43:00,74.9,11.4,29.65,ESE,117,3.2,4.5,8,-99.99,,,0.00,863,rob ver 1B,2013-04-18 17:43:00,
2013-04-18 10:44:00,75.0,11.7,29.65,East,89,3.7,5.3,8,-99.99,,,0.00,866,rob ver 1B,2013-04-18 17:44:00,
2013-04-18 10:45:00,68.3,10.5,29.68,North,2,11.2,15.6,10,-99.99,,,0.00,863,rob ver 1A,2013-04-18 17:45:00,
2013-04-18 10:46:00,75.5,11.6,29.65,NE,55,4.3,6.4,8,-99.99,,,0.00,869,rob ver 1B,2013-04-18 17:46:00,
2013-04-18 10:47:00,75.4,11.6,29.65,East,80,4.1,5.9,8,-99.99,,,0.00,872,rob ver 1B,2013-04-18 17:47:00,
2013-04-18 10:48:00,75.2,11.6,29.65,ENE,68,3.3,4.6,8,-99.99,,,0.00,873,rob ver 1B,2013-04-18 17:48:00,
2013-04-18 10:49:00,75.2,11.4,29.65,East,81,3.1,5.6,8,-99.99,,,0.00,875,rob ver 1B,2013-04-18 17:49:00,
2013-04-18 10:50:00,69.1,10.0,29.68,NNW,339,17.0,22.4,9,-99.99,,,0.00,875,rob ver 1A,2013-04-18 17:50:00,
2013-04-18 10:51:00,75.4,11.4,29.65,SE,143,0.5,1.5,8,-99.99,,,0.00,880,rob ver 1B,2013-04-18 17:51:00,
2013-04-18 10:52:00,76.2,11.8,29.65,SE,140,1.2,2.5,8,-99.99,,,0.00,881,rob ver 1B,2013-04-18 17:52:00,
2013-04-18 10:53:00,76.5,11.8,29.65,ESE,115,2.4,3.3,8,-99.99,,,0.00,884,rob ver 1B,2013-04-18 17:53:00,
2013-04-18 10:54:00,76.1,11.5,29.65,ESE,119,2.6,4.0,8,-99.99,,,0.00,886,rob ver 1B,2013-04-18 17:54:00,
2013-04-18 10:55:00,69.2,10.3,29.68,NW,317,19.9,27.2,10,-99.99,,,0.00,888,rob ver 1A,2013-04-18 17:55:00,
2013-04-18 10:56:00,76.7,12.1,29.65,North,4,5.7,7.8,8,-99.99,,,0.00,889,rob ver 1B,2013-04-18 17:56:00,
2013-04-18 10:57:00,76.7,12.3,29.65,NNW,339,5.3,6.8,8,-99.99,,,0.00,889,rob ver 1B,2013-04-18 17:57:00,
2013-04-18 10:58:00,76.5,11.9,29.65,NW,324,5.6,7.6,8,-99.99,,,0.00,892,rob ver 1B,2013-04-18 17:58:00,
2013-04-18 10:59:00,76.1,11.7,29.65,NNW,348,3.4,5.7,8,-99.99,,,0.00,894,rob ver 1B,2013-04-18 17:59:00,
2013-04-18 11:00:00,69.0,8.2,29.68,NW,319,14.6,20.4,9,-99.99,,,0.00,895,rob ver 1A,2013-04-18 18:00:00,
2013-04-18 11:01:00,76.3,11.3,29.65,ENE,71,3.6,5.9,8,-99.99,,,0.00,897,rob ver 1B,2013-04-18 18:01:00,
2013-04-18 11:02:00,75.9,10.9,29.65,East,88,3.9,8.4,8,-99.99,,,0.00,900,rob ver 1B,2013-04-18 18:02:00,
2013-04-18 11:03:00,75.7,11.1,29.65,East,97,3.4,7.2,8,-99.99,,,0.00,901,rob ver 1B,2013-04-18 18:03:00,
2013-04-18 11:04:00,75.9,11.0,29.65,ENE,60,3.7,6.4,8,-99.99,,,0.00,902,rob ver 1B,2013-04-18 18:04:00,
2013-04-18 11:05:00,69.5,9.9,29.68,North,349,18.8,24.9,9,-99.99,,,0.00,904,rob ver 1A,2013-04-18 18:05:00,
2013-04-18 11:06:00,77.0,11.4,29.65,NE,48,3.2,4.7,8,-99.99,,,0.00,908,rob ver 1B,2013-04-18 18:06:00,
2013-04-18 11:07:00,77.4,11.6,29.65,ENE,62,3.2,5.1,8,-99.99,,,0.00,907,rob ver 1B,2013-04-18 18:07:00,
2013-04-18 11:08:00,77.6,11.6,29.65,East,101,1.8,3.8,7,-99.99,,,0.00,910,rob ver 1B,2013-04-18 18:08:00,
2013-04-18 11:09:00,77.9,11.6,29.65,NNE,30,4.2,7.8,7,-99.99,,,0.00,909,rob ver 1B,2013-04-18 18:09:00,
2013-04-18 11:10:00,69.0,11.0,29.68,NNW,346,13.8,17.8,10,-99.99,,,0.00,910,rob ver 1A,2013-04-18 18:10:00,
2013-04-18 11:11:00,77.3,11.1,29.65,ENE,59,2.4,4.0,7,-99.99,,,0.00,915,rob ver 1B,2013-04-18 18:11:00,
2013-04-18 11:12:00,77.1,11.0,29.65,SSE,147,1.6,3.1,8,-99.99,,,0.00,916,rob ver 1B,2013-04-18 18:12:00,
2013-04-18 11:13:00,77.3,11.3,29.65,East,97,1.5,3.0,7,-99.99,,,0.00,919,rob ver 1B,2013-04-18 18:13:00,
2013-04-18 11:14:00,77.6,11.2,29.65,NNE,26,1.9,3.9,7,-99.99,,,0.00,922,rob ver 1B,2013-04-18 18:14:00,
2013-04-18 11:15:00,69.8,11.2,29.68,NW,321,13.4,17.1,10,-99.99,,,0.00,916,rob ver 1A,2013-04-18 18:15:00,
2013-04-18 11:16:00,77.8,11.1,29.65,NE,53,7.7,9.5,7,-99.99,,,0.00,923,rob ver 1B,2013-04-18 18:16:00,
2013-04-18 11:17:00,77.3,10.8,29.65,North,9,2.7,5.0,7,-99.99,,,0.00,924,rob ver 1B,2013-04-18 18:17:00,
2013-04-18 11:18:00,77.4,11.1,29.65,NE,45,2.9,5.1,7,-99.99,,,0.00,926,rob ver 1B,2013-04-18 18:18:00,
2013-04-18 11:19:00,77.4,11.2,29.65,North,359,3.5,5.7,8,-99.99,,,0.00,927,rob ver 1B,2013-04-18 18:19:00,
2013-04-18 11:20:00,70.3,10.0,29.68,North,352,12.5,16.3,9,-99.99,,,0.00,926,rob ver 1A,2013-04-18 18:20:00,
2013-04-18 11:21:00,77.8,11.1,29.65,NE,54,4.2,6.8,7,-99.99,,,0.00,931,rob ver 1B,2013-04-18 18:21:00,
2013-04-18 11:22:00,77.6,11.1,29.65,NE,49,5.3,7.2,7,-99.99,,,0.00,932,rob ver 1B,2013-04-18 18:22:00,
2013-04-18 11:23:00,77.3,11.0,29.65,NE,44,4.0,7.4,7,-99.99,,,0.00,932,rob ver 1B,2013-04-18 18:23:00,
2013-04-18 11:24:00,77.3,11.4,29.65,NW,325,1.4,2.7,7,-99.99,,,0.00,934,rob ver 1B,2013-04-18 18:24:00,
2013-04-18 11:25:00,77.9,11.4,29.65,West,275,1.1,2.3,7,-99.99,,,0.00,937,rob ver 1B,2013-04-18 18:25:00,
2013-04-18 11:26:00,69.5,10.5,29.68,NW,312,12.0,15.1,10,-99.99,,,0.00,929,rob ver 1A,2013-04-18 18:26:00,
2013-04-18 11:27:00,77.9,10.9,29.62,SE,131,2.3,3.5,7,-99.99,,,0.00,939,rob ver 1B,2013-04-18 18:27:00,
2013-04-18 11:28:00,77.6,11.0,29.62,South,173,2.7,6.2,7,-99.99,,,0.00,941,rob ver 1B,2013-04-18 18:28:00,
2013-04-18 11:29:00,77.9,11.2,29.62,South,179,4.8,5.8,7,-99.99,,,0.00,942,rob ver 1B,2013-04-18 18:29:00,
2013-04-18 11:30:00,78.1,11.0,29.62,SSW,194,5.7,9.5,7,-99.99,,,0.00,943,rob ver 1B,2013-04-18 18:30:00,
2013-04-18 11:31:00,69.2,10.7,29.68,WNW,300,14.3,17.4,10,-99.99,,,0.00,936,rob ver 1A,2013-04-18 18:31:00,
2013-04-18 11:32:00,77.2,10.7,29.62,SSW,198,3.8,4.8,7,-99.99,,,0.00,945,rob ver 1B,2013-04-18 18:32:00,
2013-04-18 11:33:00,77.3,10.7,29.62,SSW,202,4.0,5.9,7,-99.99,,,0.00,945,rob ver 1B,2013-04-18 18:33:00,
2013-04-18 11:34:00,77.4,10.9,29.62,SE,144,2.4,4.4,7,-99.99,,,0.00,948,rob ver 1B,2013-04-18 18:34:00,
2013-04-18 11:35:00,77.7,10.9,29.62,NNE,22,2.9,6.4,7,-99.99,,,0.00,949,rob ver 1B,2013-04-18 18:35:00,
2013-04-18 11:36:00,70.1,11.2,29.65,WNW,288,16.8,23.8,10,-99.99,,,0.00,944,rob ver 1A,2013-04-18 18:36:00,
2013-04-18 11:37:00,78.2,10.2,29.62,ENE,69,2.6,4.3,7,-99.99,,,0.00,951,rob ver 1B,2013-04-18 18:37:00,
2013-04-18 11:38:00,78.1,9.9,29.62,ESE,119,2.9,4.2,7,-99.99,,,0.00,953,rob ver 1B,2013-04-18 18:38:00,
2013-04-18 11:39:00,77.8,10.2,29.62,NE,37,1.9,3.7,7,-99.99,,,0.00,954,rob ver 1B,2013-04-18 18:39:00,
2013-04-18 11:40:00,78.4,10.5,29.62,NNE,28,4.7,6.7,7,-99.99,,,0.00,953,rob ver 1B,2013-04-18 18:40:00,
2013-04-18 11:41:00,70.7,10.5,29.65,NW,320,12.3,20.2,9,-99.99,,,0.00,949,rob ver 1A,2013-04-18 18:41:00,
2013-04-18 11:42:00,79.1,10.6,29.62,NNE,27,3.2,5.4,7,-99.99,,,0.00,956,rob ver 1B,2013-04-18 18:42:00,
2013-04-18 11:43:00,79.2,10.7,29.62,NNE,18,7.7,11.9,7,-99.99,,,0.00,958,rob ver 1B,2013-04-18 18:43:00,
2013-04-18 11:44:00,78.7,10.2,29.62,NE,50,5.4,8.0,7,-99.99,,,0.00,959,rob ver 1B,2013-04-18 18:44:00,
2013-04-18 11:45:00,78.2,10.0,29.62,SW,226,1.6,3.4,7,-99.99,,,0.00,960,rob ver 1B,2013-04-18 18:45:00,
2013-04-18 11:46:00,70.2,9.6,29.65,NNW,337,12.4,18.4,9,-99.99,,,0.00,955,rob ver 1A,2013-04-18 18:46:00,
2013-04-18 11:47:00,79.0,10.6,29.62,NE,46,3.5,5.9,7,-99.99,,,0.00,961,rob ver 1B,2013-04-18 18:47:00,
2013-04-18 11:48:00,79.2,10.8,29.62,North,10,6.1,10.6,7,-99.99,,,0.00,963,rob ver 1B,2013-04-18 18:48:00,
2013-04-18 11:49:00,78.9,10.5,29.62,NNE,32,4.7,7.9,7,-99.99,,,0.00,964,rob ver 1B,2013-04-18 18:49:00,
2013-04-18 11:50:00,78.6,10.7,29.62,NE,41,2.8,5.7,7,-99.99,,,0.00,965,rob ver 1B,2013-04-18 18:50:00,
2013-04-18 11:51:00,70.6,8.8,29.65,NW,308,18.3,22.8,9,-99.99,,,0.00,958,rob ver 1A,2013-04-18 18:51:00,
2013-04-18 11:52:00,78.9,10.7,29.62,NNE,28,4.7,6.3,7,-99.99,,,0.00,966,rob ver 1B,2013-04-18 18:52:00,
2013-04-18 11:53:00,78.9,10.6,29.62,NE,37,3.4,4.8,7,-99.99,,,0.00,967,rob ver 1B,2013-04-18 18:53:00,
2013-04-18 11:54:00,79.0,10.6,29.62,North,5,2.2,4.2,7,-99.99,,,0.00,967,rob ver 1B,2013-04-18 18:54:00,
2013-04-18 11:55:00,79.3,10.7,29.62,NNE,24,4.8,8.7,7,-99.99,,,0.00,967,rob ver 1B,2013-04-18 18:55:00,
2013-04-18 11:56:00,70.0,9.1,29.68,NNW,334,14.4,18.1,9,-99.99,,,0.00,968,rob ver 1A,2013-04-18 18:56:00,
2013-04-18 11:57:00,79.3,10.7,29.62,NE,43,6.5,10.2,7,-99.99,,,0.00,970,rob ver 1B,2013-04-18 18:57:00,
2013-04-18 11:58:00,78.7,10.6,29.62,NE,43,4.1,7.4,7,-99.99,,,0.00,971,rob ver 1B,2013-04-18 18:58:00,
2013-04-18 11:59:00,78.6,10.7,29.62,SE,144,0.9,2.1,7,-99.99,,,0.00,971,rob ver 1B,2013-04-18 18:59:00,
2013-04-18 12:00:00,79.2,11.1,29.62,NNE,25,6.0,11.0,7,-99.99,,,0.00,974,rob ver 1B,2013-04-18 19:00:00,
2013-04-18 12:01:00,70.7,9.0,29.65,NW,309,17.2,24.5,8,-99.99,,,0.00,972,rob ver 1A,2013-04-18 19:01:00,
2013-04-18 12:02:00,79.2,11.0,29.62,NNE,24,4.1,6.1,7,-99.99,,,0.00,972,rob ver 1B,2013-04-18 19:02:00,
2013-04-18 12:03:00,79.3,11.0,29.62,NNE,33,5.0,7.5,7,-99.99,,,0.00,975,rob ver 1B,2013-04-18 19:03:00,
2013-04-18 12:04:00,79.1,10.8,29.62,NE,55,4.2,6.4,7,-99.99,,,0.00,976,rob ver 1B,2013-04-18 19:04:00,
2013-04-18 12:05:00,78.7,10.7,29.62,ENE,66,5.2,6.7,7,-99.99,,,0.00,976,rob ver 1B,2013-04-18 19:05:00,
2013-04-18 12:06:00,70.3,9.2,29.65,NNW,335,12.6,17.8,9,-99.99,,,0.00,974,rob ver 1A,2013-04-18 19:06:00,
2013-04-18 12:07:00,78.7,10.8,29.62,ENE,75,3.9,5.9,7,-99.99,,,0.00,976,rob ver 1B,2013-04-18 19:07:00,
2013-04-18 12:08:00,79.3,11.0,29.62,NE,34,5.8,8.3,7,-99.99,,,0.00,979,rob ver 1B,2013-04-18 19:08:00,
2013-04-18 12:09:00,79.5,10.9,29.62,NE,37,6.0,8.5,7,-99.99,,,0.00,981,rob ver 1B,2013-04-18 19:09:00,
2013-04-18 12:10:00,79.1,10.7,29.62,NE,38,7.0,9.5,7,-99.99,,,0.00,981,rob ver 1B,2013-04-18 19:10:00,
2013-04-18 12:11:00,71.3,8.7,29.65,NNW,335,15.7,18.3,8,-99.99,,,0.00,977,rob ver 1A,2013-04-18 19:11:00,
2013-04-18 12:12:00,78.6,10.6,29.59,NE,53,6.8,9.8,7,-99.99,,,0.00,982,rob ver 1B,2013-04-18 19:12:00,
2013-04-18 12:13:00,78.4,10.6,29.59,East,86,5.5,6.8,7,-99.99,,,0.00,982,rob ver 1B,2013-04-18 19:13:00,
2013-04-18 12:14:00,78.3,10.7,29.59,ENE,67,5.6,7.8,7,-99.99,,,0.00,981,rob ver 1B,2013-04-18 19:14:00,
2013-04-18 12:15:00,78.9,10.9,29.59,NE,56,6.1,9.7,7,-99.99,,,0.00,983,rob ver 1B,2013-04-18 19:15:00,
2013-04-18 12:16:00,79.1,11.1,29.59,ENE,66,7.5,10.7,7,-99.99,,,0.00,982,rob ver 1B,2013-04-18 19:16:00,
2013-04-18 12:17:00,70.9,9.2,29.65,North,357,12.8,18.5,9,-99.99,,,0.00,978,rob ver 1A,2013-04-18 19:17:00,
2013-04-18 12:18:00,79.2,11.0,29.59,NE,54,7.1,9.3,7,-99.99,,,0.00,984,rob ver 1B,2013-04-18 19:18:00,
2013-04-18 12:19:00,78.9,10.9,29.59,ENE,68,4.0,6.5,7,-99.99,,,0.00,984,rob ver 1B,2013-04-18 19:19:00,
2013-04-18 12:20:00,79.1,11.1,29.59,ENE,64,5.8,7.1,7,-99.99,,,0.00,983,rob ver 1B,2013-04-18 19:20:00,
2013-04-18 12:21:00,79.1,11.0,29.59,North,11,2.0,5.7,7,-99.99,,,0.00,984,rob ver 1B,2013-04-18 19:21:00,
2013-04-18 12:22:00,71.0,9.6,29.65,NW,317,14.5,19.1,9,-99.99,,,0.00,982,rob ver 1A,2013-04-18 19:22:00,
2013-04-18 12:23:00,80.4,11.6,29.59,WNW,298,3.6,6.9,7,-99.99,,,0.00,986,rob ver 1B,2013-04-18 19:23:00,
2013-04-18 12:24:00,80.6,11.5,29.59,WNW,299,6.2,8.1,7,-99.99,,,0.00,986,rob ver 1B,2013-04-18 19:24:00,
2013-04-18 12:25:00,80.3,11.1,29.59,NW,313,4.0,6.4,7,-99.99,,,0.00,986,rob ver 1B,2013-04-18 19:25:00,
2013-04-18 12:26:00,80.0,11.3,29.59,NW,317,4.6,6.5,7,-99.99,,,0.00,986,rob ver 1B,2013-04-18 19:26:00,
2013-04-18 12:27:00,71.8,11.8,29.65,NW,304,12.7,17.8,10,-99.99,,,0.00,983,rob ver 1A,2013-04-18 19:27:00,
2013-04-18 12:28:00,79.8,11.2,29.59,NW,311,3.6,5.9,7,-99.99,,,0.00,987,rob ver 1B,2013-04-18 19:28:00,
2013-04-18 12:29:00,79.9,11.2,29.59,WNW,286,4.4,7.2,7,-99.99,,,0.00,987,rob ver 1B,2013-04-18 19:29:00,
2013-04-18 12:30:00,80.0,11.8,29.59,WNW,301,6.7,9.1,7,-99.99,,,0.00,985,rob ver 1B,2013-04-18 19:30:00,
2013-04-18 12:31:00,80.4,11.6,29.59,West,280,7.4,9.6,7,-99.99,,,0.00,988,rob ver 1B,2013-04-18 19:31:00,
2013-04-18 12:32:00,71.0,11.6,29.65,NNW,328,11.8,14.3,10,-99.99,,,0.00,983,rob ver 1A,2013-04-18 19:32:00,
2013-04-18 12:33:00,79.8,11.5,29.59,WNW,292,4.6,7.3,7,-99.99,,,0.00,986,rob ver 1B,2013-04-18 19:33:00,
2013-04-18 12:34:00,80.1,11.4,29.59,West,264,5.7,9.2,7,-99.99,,,0.00,990,rob ver 1B,2013-04-18 19:34:00,
2013-04-18 12:35:00,80.2,11.5,29.59,WNW,302,3.4,6.5,7,-99.99,,,0.00,989,rob ver 1B,2013-04-18 19:35:00,
2013-04-18 12:36:00,80.8,11.8,29.59,WNW,283,7.6,9.5,7,-99.99,,,0.00,986,rob ver 1B,2013-04-18 19:36:00,
2013-04-18 12:37:00,70.9,12.6,29.65,NW,309,10.6,12.7,10,-99.99,,,0.00,980,rob ver 1A,2013-04-18 19:37:00,
2013-04-18 12:38:00,79.9,11.2,29.59,West,271,3.4,5.2,7,-99.99,,,0.00,987,rob ver 1B,2013-04-18 19:38:00,
2013-04-18 12:39:00,80.1,11.3,29.59,West,275,7.4,11.6,7,-99.99,,,0.00,988,rob ver 1B,2013-04-18 19:39:00,
2013-04-18 12:40:00,79.9,11.0,29.59,WSW,255,8.0,9.9,7,-99.99,,,0.00,986,rob ver 1B,2013-04-18 19:40:00,
2013-04-18 12:41:00,79.5,10.9,29.59,WSW,242,6.1,8.5,7,-99.99,,,0.00,986,rob ver 1B,2013-04-18 19:41:00,
2013-04-18 12:42:00,71.4,13.0,29.65,NW,313,13.2,20.4,10,-99.99,,,0.00,981,rob ver 1A,2013-04-18 19:42:00,
2013-04-18 12:43:00,79.7,11.0,29.59,SW,234,6.3,12.5,7,-99.99,,,0.00,987,rob ver 1B,2013-04-18 19:43:00,
2013-04-18 12:44:00,79.6,10.7,29.59,SW,224,5.7,8.3,7,-99.99,,,0.00,987,rob ver 1B,2013-04-18 19:44:00,
2013-04-18 12:45:00,79.6,10.9,29.59,WSW,257,4.7,6.7,7,-99.99,,,0.00,987,rob ver 1B,2013-04-18 19:45:00,
2013-04-18 12:46:00,79.9,10.9,29.59,NW,306,6.8,9.2,7,-99.99,,,0.00,989,rob ver 1B,2013-04-18 19:46:00,
2013-04-18 12:47:00,71.1,12.7,29.65,NW,309,14.1,18.6,10,-99.99,,,0.00,982,rob ver 1A,2013-04-18 19:47:00,
2013-04-18 12:48:00,80.3,10.7,29.59,NNW,335,9.8,14.4,7,-99.99,,,0.00,989,rob ver 1B,2013-04-18 19:48:00,
2013-04-18 12:49:00,80.3,10.9,29.59,NNW,337,4.4,7.6,6,-99.99,,,0.00,990,rob ver 1B,2013-04-18 19:49:00,
2013-04-18 12:50:00,80.9,10.9,29.59,NNW,336,6.1,9.7,6,-99.99,,,0.00,989,rob ver 1B,2013-04-18 19:50:00,
2013-04-18 12:51:00,80.8,10.9,29.59,North,357,7.2,9.8,6,-99.99,,,0.00,988,rob ver 1B,2013-04-18 19:51:00,
2013-04-18 12:52:00,71.4,12.4,29.65,West,259,9.9,12.9,10,-99.99,,,0.00,979,rob ver 1A,2013-04-18 19:52:00,
2013-04-18 12:53:00,81.0,11.0,29.59,NNE,25,5.3,8.2,6,-99.99,,,0.00,986,rob ver 1B,2013-04-18 19:53:00,
2013-04-18 12:54:00,81.4,11.1,29.59,NNE,16,5.2,7.9,6,-99.99,,,0.00,987,rob ver 1B,2013-04-18 19:54:00,
2013-04-18 12:55:00,81.4,11.0,29.59,NNE,12,7.8,10.5,6,-99.99,,,0.00,986,rob ver 1B,2013-04-18 19:55:00,
2013-04-18 12:56:00,80.8,10.5,29.59,NNE,24,5.3,9.2,6,-99.99,,,0.00,986,rob ver 1B,2013-04-18 19:56:00,
2013-04-18 12:57:00,71.9,12.7,29.65,WNW,303,17.7,20.0,10,-99.99,,,0.00,978,rob ver 1A,2013-04-18 19:57:00,
2013-04-18 12:58:00,80.7,10.7,29.59,NNE,19,2.7,4.1,6,-99.99,,,0.00,984,rob ver 1B,2013-04-18 19:58:00,
2013-04-18 12:59:00,80.9,10.8,29.59,NE,41,1.7,3.1,6,-99.99,,,0.00,985,rob ver 1B,2013-04-18 19:59:00,
2013-04-18 13:00:00,81.1,11.0,29.59,WSW,247,1.9,4.7,6,-99.99,,,0.00,984,rob ver 1B,2013-04-18 20:00:00,
2013-04-18 13:01:00,81.2,10.8,29.59,SE,124,1.4,2.8,6,-99.99,,,0.00,985,rob ver 1B,2013-04-18 20:01:00,
2013-04-18 13:02:00,73.0,12.7,29.62,WNW,293,17.6,21.8,9,-99.99,,,0.00,978,rob ver 1A,2013-04-18 20:02:00,
2013-04-18 13:03:00,81.4,11.2,29.59,WNW,300,3.8,7.2,6,-99.99,,,0.00,981,rob ver 1B,2013-04-18 20:03:00,
2013-04-18 13:04:00,81.8,10.9,29.59,NW,310,6.2,9.6,6,-99.99,,,0.00,985,rob ver 1B,2013-04-18 20:04:00,
2013-04-18 13:05:00,81.8,11.0,29.59,NNW,345,9.4,14.5,6,-99.99,,,0.00,983,rob ver 1B,2013-04-18 20:05:00,
2013-04-18 13:06:00,81.6,10.9,29.56,North,0,8.9,14.8,6,-99.99,,,0.00,984,rob ver 1B,2013-04-18 20:06:00,
2013-04-18 13:07:00,72.0,12.3,29.65,WNW,296,17.1,21.7,9,-99.99,,,0.00,976,rob ver 1A,2013-04-18 20:07:00,
2013-04-18 13:08:00,82.0,11.1,29.56,North,9,7.7,10.3,6,-99.99,,,0.00,982,rob ver 1B,2013-04-18 20:08:00,
2013-04-18 13:09:00,82.0,10.9,29.56,North,3,6.8,9.0,6,-99.99,,,0.00,982,rob ver 1B,2013-04-18 20:09:00,
2013-04-18 13:10:00,81.9,10.9,29.59,NNW,343,4.5,6.4,6,-99.99,,,0.00,981,rob ver 1B,2013-04-18 20:10:00,
2013-04-18 13:11:00,82.0,11.0,29.59,NW,318,4.5,8.6,6,-99.99,,,0.00,981,rob ver 1B,2013-04-18 20:11:00,
2013-04-18 13:12:00,71.6,12.2,29.65,WNW,282,7.7,10.2,10,-99.99,,,0.00,973,rob ver 1A,2013-04-18 20:12:00,
2013-04-18 13:13:00,81.6,11.0,29.56,West,279,6.0,9.8,6,-99.99,,,0.00,979,rob ver 1B,2013-04-18 20:13:00,
2013-04-18 13:14:00,81.4,11.0,29.56,WNW,290,7.6,12.2,7,-99.99,,,0.00,976,rob ver 1B,2013-04-18 20:14:00,
2013-04-18 13:15:00,81.5,11.2,29.56,NW,316,8.3,10.4,6,-99.99,,,0.00,979,rob ver 1B,2013-04-18 20:15:00,
2013-04-18 13:16:00,81.6,11.0,29.56,WNW,299,9.5,11.1,6,-99.99,,,0.00,977,rob ver 1B,2013-04-18 20:16:00,
2013-04-18 13:17:00,72.1,12.2,29.62,NW,326,12.6,16.6,9,-99.99,,,0.00,970,rob ver 1A,2013-04-18 20:17:00,
2013-04-18 13:18:00,81.3,10.6,29.56,NW,309,5.2,8.1,6,-99.99,,,0.00,976,rob ver 1B,2013-04-18 20:18:00,
2013-04-18 13:19:00,81.3,10.6,29.56,WNW,298,4.6,6.8,6,-99.99,,,0.00,975,rob ver 1B,2013-04-18 20:19:00,
2013-04-18 13:20:00,81.3,10.5,29.56,NW,305,4.4,6.7,6,-99.99,,,0.00,975,rob ver 1B,2013-04-18 20:20:00,
2013-04-18 13:21:00,81.2,10.5,29.56,West,276,4.4,6.1,6,-99.99,,,0.00,974,rob ver 1B,2013-04-18 20:21:00,
2013-04-18 13:22:00,71.8,12.0,29.65,West,278,11.7,14.5,9,-99.99,,,0.00,967,rob ver 1A,2013-04-18 20:22:00,
2013-04-18 13:23:00,81.1,11.0,29.56,NNW,331,3.0,5.1,6,-99.99,,,0.00,972,rob ver 1B,2013-04-18 20:23:00,
2013-04-18 13:24:00,81.6,10.6,29.56,NE,56,3.7,5.4,6,-99.99,,,0.00,972,rob ver 1B,2013-04-18 20:24:00,
2013-04-18 13:25:00,81.1,10.0,29.56,ESE,104,3.7,5.8,6,-99.99,,,0.00,971,rob ver 1B,2013-04-18 20:25:00,
2013-04-18 13:26:00,80.5,9.9,29.56,SE,127,2.5,3.7,6,-99.99,,,0.00,969,rob ver 1B,2013-04-18 20:26:00,
2013-04-18 13:27:00,72.9,11.9,29.62,NW,307,19.3,23.8,9,-99.99,,,0.00,961,rob ver 1A,2013-04-18 20:27:00,
2013-04-18 13:28:00,81.3,10.6,29.56,SW,218,3.0,5.1,6,-99.99,,,0.00,972,rob ver 1B,2013-04-18 20:28:00,
2013-04-18 13:29:00,81.8,10.3,29.56,SW,215,3.2,5.1,6,-99.99,,,0.00,968,rob ver 1B,2013-04-18 20:29:00,
2013-04-18 13:30:00,81.8,10.2,29.56,West,266,6.5,10.6,6,-99.99,,,0.00,970,rob ver 1B,2013-04-18 20:30:00,
2013-04-18 13:31:00,82.0,10.3,29.56,WNW,282,7.6,11.5,6,-99.99,,,0.00,968,rob ver 1B,2013-04-18 20:31:00,
2013-04-18 13:32:00,81.9,10.1,29.56,WNW,288,5.3,8.4,6,-99.99,,,0.00,965,rob ver 1B,2013-04-18 20:32:00,
2013-04-18 13:33:00,73.1,11.9,29.62,NW,311,15.3,20.3,9,-99.99,,,0.00,962,rob ver 1A,2013-04-18 20:33:00,
2013-04-18 13:34:00,81.4,9.8,29.56,WSW,251,9.5,11.9,6,-99.99,,,0.00,966,rob ver 1B,2013-04-18 20:34:00,
2013-04-18 13:35:00,81.6,10.0,29.56,WSW,255,10.5,13.0,6,-99.99,,,0.00,963,rob ver 1B,2013-04-18 20:35:00,
2013-04-18 13:36:00,81.3,9.7,29.56,WSW,246,10.1,13.1,6,-99.99,,,0.00,962,rob ver 1B,2013-04-18 20:36:00,
2013-04-18 13:37:00,81.0,9.7,29.56,WSW,243,7.7,10.4,6,-99.99,,,0.00,961,rob ver 1B,2013-04-18 20:37:00,
2013-04-18 13:38:00,72.6,11.1,29.62,WNW,285,14.6,18.4,9,-99.99,,,0.00,956,rob ver 1A,2013-04-18 20:38:00,
2013-04-18 13:39:00,81.4,9.9,29.56,WNW,289,3.8,6.3,6,-99.99,,,0.00,959,rob ver 1B,2013-04-18 20:39:00,
2013-04-18 13:40:00,81.8,10.1,29.56,NW,313,3.1,5.9,6,-99.99,,,0.00,958,rob ver 1B,2013-04-18 20:40:00,
2013-04-18 13:41:00,82.2,10.1,29.56,West,276,1.2,3.1,6,-99.99,,,0.00,956,rob ver 1B,2013-04-18 20:41:00,
2013-04-18 13:42:00,82.6,10.3,29.56,WNW,295,6.1,12.0,6,-99.99,,,0.00,956,rob ver 1B,2013-04-18 20:42:00,
2013-04-18 13:43:00,73.3,11.3,29.62,NW,308,17.4,21.7,8,-99.99,,,0.00,950,rob ver 1A,2013-04-18 20:43:00,
2013-04-18 13:44:00,82.2,9.8,29.56,West,278,10.2,15.5,6,-99.99,,,0.00,952,rob ver 1B,2013-04-18 20:44:00,
2013-04-18 13:45:00,82.1,10.1,29.56,NW,309,10.5,14.7,6,-99.99,,,0.00,954,rob ver 1B,2013-04-18 20:45:00,
2013-04-18 13:46:00,82.5,10.2,29.56,NW,313,9.2,12.3,6,-99.99,,,0.00,952,rob ver 1B,2013-04-18 20:46:00,
2013-04-18 13:47:00,82.4,9.8,29.56,WNW,294,10.8,14.4,6,-99.99,,,0.00,951,rob ver 1B,2013-04-18 20:47:00,
2013-04-18 13:48:00,73.8,11.2,29.62,NW,312,16.4,22.5,8,-99.99,,,0.00,946,rob ver 1A,2013-04-18 20:48:00,
2013-04-18 13:49:00,81.8,9.5,29.53,WNW,297,8.7,12.1,6,-99.99,,,0.00,948,rob ver 1B,2013-04-18 20:49:00,
2013-04-18 13:50:00,81.4,9.5,29.56,West,275,8.9,11.9,6,-99.99,,,0.00,947,rob ver 1B,2013-04-18 20:50:00,
2013-04-18 13:51:00,81.2,9.4,29.56,West,280,8.3,10.6,6,-99.99,,,0.00,946,rob ver 1B,2013-04-18 20:51:00,
2013-04-18 13:52:00,81.0,9.4,29.56,West,260,6.5,8.1,6,-99.99,,,0.00,944,rob ver 1B,2013-04-18 20:52:00,
2013-04-18 13:53:00,73.0,11.2,29.62,NW,318,18.4,22.1,9,-99.99,,,0.00,939,rob ver 1A,2013-04-18 20:53:00,
2013-04-18 13:54:00,81.5,9.5,29.56,WSW,247,4.9,7.4,6,-99.99,,,0.00,943,rob ver 1B,2013-04-18 20:54:00,
2013-04-18 13:55:00,81.7,9.3,29.53,SW,229,7.0,10.7,6,-99.99,,,0.00,942,rob ver 1B,2013-04-18 20:55:00,
2013-04-18 13:56:00,81.5,9.3,29.53,SW,223,5.1,8.0,6,-99.99,,,0.00,939,rob ver 1B,2013-04-18 20:56:00,
2013-04-18 13:57:00,81.4,8.9,29.53,South,176,4.2,7.8,6,-99.99,,,0.00,938,rob ver 1B,2013-04-18 20:57:00,
2013-04-18 13:58:00,72.8,11.2,29.62,NW,323,13.7,17.9,9,-99.99,,,0.00,932,rob ver 1A,2013-04-18 20:58:00,
2013-04-18 13:59:00,81.4,9.0,29.53,SW,217,5.0,8.7,6,-99.99,,,0.00,936,rob ver 1B,2013-04-18 20:59:00,
2013-04-18 14:00:00,81.8,9.3,29.53,WSW,244,8.4,11.0,6,-99.99,,,0.00,934,rob ver 1B,2013-04-18 21:00:00,
2013-04-18 14:01:00,81.9,9.5,29.53,WSW,253,8.5,10.6,6,-99.99,,,0.00,933,rob ver 1B,2013-04-18 21:01:00,
2013-04-18 14:02:00,81.6,9.6,29.53,WSW,251,5.8,8.1,6,-99.99,,,0.00,930,rob ver 1B,2013-04-18 21:02:00,
2013-04-18 14:03:00,73.6,11.2,29.62,NW,307,12.9,18.4,9,-99.99,,,0.00,923,rob ver 1A,2013-04-18 21:03:00,
2013-04-18 14:04:00,81.8,10.1,29.53,West,275,6.3,8.7,6,-99.99,,,0.00,926,rob ver 1B,2013-04-18 21:04:00,
2013-04-18 14:05:00,82.3,10.3,29.53,West,280,6.6,8.5,6,-99.99,,,0.00,926,rob ver 1B,2013-04-18 21:05:00,
2013-04-18 14:06:00,82.2,10.5,29.53,WNW,294,2.5,4.5,6,-99.99,,,0.00,926,rob ver 1B,2013-04-18 21:06:00,
2013-04-18 14:07:00,82.3,10.6,29.53,SSW,206,2.8,4.3,6,-99.99,,,0.00,923,rob ver 1B,2013-04-18 21:07:00,
2013-04-18 14:08:00,72.7,10.8,29.62,West,280,13.0,33.4,8,-99.99,,,0.00,918,rob ver 1A,2013-04-18 21:08:00,
2013-04-18 14:09:00,82.0,9.9,29.53,SSE,160,5.1,6.8,6,-99.99,,,0.00,920,rob ver 1B,2013-04-18 21:09:00,
2013-04-18 14:10:00,81.6,9.9,29.53,SE,138,4.0,6.9,6,-99.99,,,0.00,918,rob ver 1B,2013-04-18 21:10:00,
2013-04-18 14:11:00,81.7,9.8,29.53,SSE,162,3.4,5.1,6,-99.99,,,0.00,918,rob ver 1B,2013-04-18 21:11:00,
2013-04-18 14:12:00,81.9,9.8,29.53,SE,141,1.8,3.1,6,-99.99,,,0.00,916,rob ver 1B,2013-04-18 21:12:00,
2013-04-18 14:13:00,73.9,11.1,29.62,NW,306,19.6,26.3,8,-99.99,,,0.00,910,rob ver 1A,2013-04-18 21:13:00,
2013-04-18 14:14:00,83.1,10.4,29.53,NW,309,2.4,3.2,6,-99.99,,,0.00,910,rob ver 1B,2013-04-18 21:14:00,
2013-04-18 14:15:00,83.5,11.2,29.53,SW,214,5.5,8.0,6,-99.99,,,0.00,910,rob ver 1B,2013-04-18 21:15:00,
2013-04-18 14:16:00,83.2,11.4,29.53,SW,223,6.0,7.5,6,-99.99,,,0.00,908,rob ver 1B,2013-04-18 21:16:00,
2013-04-18 14:17:00,83.2,10.9,29.53,WSW,244,5.9,8.3,6,-99.99,,,0.00,907,rob ver 1B,2013-04-18 21:17:00,
2013-04-18 14:18:00,73.0,10.6,29.62,NW,306,14.6,19.9,8,-99.99,,,0.00,902,rob ver 1A,2013-04-18 21:18:00,
2013-04-18 14:19:00,83.4,9.7,29.53,West,267,9.3,12.3,6,-99.99,,,0.00,905,rob ver 1B,2013-04-18 21:19:00,
2013-04-18 14:20:00,83.2,9.4,29.53,WSW,258,9.8,13.8,6,-99.99,,,0.00,902,rob ver 1B,2013-04-18 21:20:00,
2013-04-18 14:21:00,82.5,9.1,29.53,West,272,10.4,13.4,6,-99.99,,,0.00,900,rob ver 1B,2013-04-18 21:21:00,
2013-04-18 14:22:00,82.6,9.3,29.53,WSW,256,8.6,12.0,6,-99.99,,,0.00,900,rob ver 1B,2013-04-18 21:22:00,
2013-04-18 14:23:00,73.1,10.3,29.62,WNW,285,16.3,22.5,8,-99.99,,,0.00,892,rob ver 1A,2013-04-18 21:23:00,
2013-04-18 14:24:00,82.7,9.4,29.53,West,275,9.4,11.5,6,-99.99,,,0.00,896,rob ver 1B,2013-04-18 21:24:00,
2013-04-18 14:25:00,82.7,9.4,29.53,WSW,250,6.3,8.6,6,-99.99,,,0.00,892,rob ver 1B,2013-04-18 21:25:00,
2013-04-18 14:26:00,82.5,9.1,29.53,WSW,255,8.0,10.8,6,-99.99,,,0.00,892,rob ver 1B,2013-04-18 21:26:00,
2013-04-18 14:27:00,82.1,9.2,29.53,WSW,253,6.6,11.0,6,-99.99,,,0.00,890,rob ver 1B,2013-04-18 21:27:00,
2013-04-18 14:28:00,73.3,10.6,29.62,WNW,293,16.9,23.0,8,-99.99,,,0.00,882,rob ver 1A,2013-04-18 21:28:00,
2013-04-18 14:29:00,82.1,9.1,29.53,SW,232,8.5,13.2,6,-99.99,,,0.00,888,rob ver 1B,2013-04-18 21:29:00,
2013-04-18 14:30:00,81.9,8.7,29.53,SW,229,5.2,10.0,6,-99.99,,,0.00,886,rob ver 1B,2013-04-18 21:30:00,
2013-04-18 14:31:00,81.9,8.5,29.53,South,187,5.2,8.8,6,-99.99,,,0.00,884,rob ver 1B,2013-04-18 21:31:00,
2013-04-18 14:32:00,81.8,8.4,29.53,South,182,7.4,10.4,6,-99.99,,,0.00,881,rob ver 1B,2013-04-18 21:32:00,
2013-04-18 14:33:00,73.2,10.5,29.62,WNW,303,17.9,22.5,8,-99.99,,,0.00,873,rob ver 1A,2013-04-18 21:33:00,
2013-04-18 14:34:00,81.8,8.7,29.50,South,184,8.9,12.0,6,-99.99,,,0.00,876,rob ver 1B,2013-04-18 21:34:00,
2013-04-18 14:35:00,82.1,8.9,29.50,SW,226,7.4,8.8,6,-99.99,,,0.00,876,rob ver 1B,2013-04-18 21:35:00,
2013-04-18 14:36:00,82.5,9.1,29.50,SW,230,5.9,8.3,6,-99.99,,,0.00,873,rob ver 1B,2013-04-18 21:36:00,
2013-04-18 14:37:00,82.5,9.0,29.50,SW,235,4.3,5.9,6,-99.99,,,0.00,872,rob ver 1B,2013-04-18 21:37:00,
2013-04-18 14:38:00,73.8,10.4,29.62,NW,318,12.5,17.8,8,-99.99,,,0.00,863,rob ver 1A,2013-04-18 21:38:00,
2013-04-18 14:39:00,82.7,9.3,29.50,SSW,201,4.2,7.2,6,-99.99,,,0.00,865,rob ver 1B,2013-04-18 21:39:00,
2013-04-18 14:40:00,83.0,9.4,29.50,SW,223,5.0,11.6,5,-99.99,,,0.00,863,rob ver 1B,2013-04-18 21:40:00,
2013-04-18 14:41:00,83.2,9.4,29.50,SW,230,6.6,8.9,6,-99.99,,,0.00,862,rob ver 1B,2013-04-18 21:41:00,
2013-04-18 14:42:00,83.0,9.5,29.50,WSW,241,5.7,7.8,6,-99.99,,,0.00,859,rob ver 1B,2013-04-18 21:42:00,
2013-04-18 14:43:00,73.0,10.3,29.62,NW,326,14.9,19.8,8,-99.99,,,0.00,853,rob ver 1A,2013-04-18 21:43:00,
2013-04-18 14:44:00,82.8,9.5,29.50,SSW,200,3.8,7.2,6,-99.99,,,0.00,854,rob ver 1B,2013-04-18 21:44:00,
2013-04-18 14:45:00,83.1,9.7,29.50,South,190,2.0,4.1,6,-99.99,,,0.00,853,rob ver 1B,2013-04-18 21:45:00,
2013-04-18 14:46:00,83.6,9.7,29.50,WNW,286,0.9,1.5,5,-99.99,,,0.00,842,rob ver 1B,2013-04-18 21:46:00,
2013-04-18 14:47:00,84.3,10.2,29.50,WNW,285,2.4,4.9,6,-99.99,,,0.00,847,rob ver 1B,2013-04-18 21:47:00,
2013-04-18 14:48:00,73.9,10.6,29.59,WNW,287,19.0,24.4,8,-99.99,,,0.00,843,rob ver 1A,2013-04-18 21:48:00,
2013-04-18 14:49:00,84.5,11.1,29.50,WSW,245,8.0,11.8,6,-99.99,,,0.00,843,rob ver 1B,2013-04-18 21:49:00,
2013-04-18 14:50:00,84.4,11.4,29.50,WNW,283,9.1,13.0,6,-99.99,,,0.00,841,rob ver 1B,2013-04-18 21:50:00,
2013-04-18 14:51:00,83.8,11.2,29.50,West,272,8.4,13.6,6,-99.99,,,0.00,840,rob ver 1B,2013-04-18 21:51:00,
2013-04-18 14:52:00,83.4,11.0,29.50,West,277,11.0,14.4,6,-99.99,,,0.00,838,rob ver 1B,2013-04-18 21:52:00,
2013-04-18 14:53:00,83.0,10.9,29.50,WNW,288,9.0,13.8,6,-99.99,,,0.00,835,rob ver 1B,2013-04-18 21:53:00,
2013-04-18 14:54:00,73.9,10.6,29.59,NW,305,21.4,27.1,8,-99.99,,,0.00,830,rob ver 1A,2013-04-18 21:54:00,
2013-04-18 14:55:00,83.0,11.0,29.50,West,264,10.1,14.3,6,-99.99,,,0.00,829,rob ver 1B,2013-04-18 21:55:00,
2013-04-18 14:56:00,83.0,10.7,29.50,West,264,12.3,19.4,6,-99.99,,,0.00,827,rob ver 1B,2013-04-18 21:56:00,
2013-04-18 14:57:00,82.6,10.8,29.50,WSW,237,5.6,7.9,6,-99.99,,,0.00,825,rob ver 1B,2013-04-18 21:57:00,
2013-04-18 14:58:00,82.8,10.9,29.50,WSW,249,4.9,6.7,6,-99.99,,,0.00,821,rob ver 1B,2013-04-18 21:58:00,
2013-04-18 14:59:00,73.8,10.5,29.59,WNW,284,13.2,19.0,8,-99.99,,,0.00,816,rob ver 1A,2013-04-18 21:59:00,
2013-04-18 15:00:00,83.2,10.7,29.50,SW,219,2.5,5.6,6,-99.99,,,0.00,817,rob ver 1B,2013-04-18 22:00:00,
2013-04-18 15:01:00,83.1,10.7,29.50,SSW,199,2.7,4.2,6,-99.99,,,0.00,818,rob ver 1B,2013-04-18 22:01:00,
2013-04-18 15:02:00,83.4,10.8,29.50,WSW,238,3.7,5.9,6,-99.99,,,0.00,817,rob ver 1B,2013-04-18 22:02:00,
2013-04-18 15:03:00,83.7,11.0,29.50,WNW,288,3.9,6.0,6,-99.99,,,0.00,812,rob ver 1B,2013-04-18 22:03:00,
2013-04-18 15:04:00,74.4,10.7,29.59,NW,304,18.6,24.5,8,-99.99,,,0.00,805,rob ver 1A,2013-04-18 22:04:00,
2013-04-18 15:05:00,83.7,11.2,29.50,WSW,258,7.4,12.0,6,-99.99,,,0.00,806,rob ver 1B,2013-04-18 22:05:00,
2013-04-18 15:06:00,83.4,10.9,29.50,SSW,200,8.0,11.2,6,-99.99,,,0.00,804,rob ver 1B,2013-04-18 22:06:00,
2013-04-18 15:07:00,83.1,10.8,29.50,SSW,206,7.3,8.7,6,-99.99,,,0.00,801,rob ver 1B,2013-04-18 22:07:00,
2013-04-18 15:08:00,83.0,10.9,29.50,SSE,166,3.8,6.6,6,-99.99,,,0.00,799,rob ver 1B,2013-04-18 22:08:00,
2013-04-18 15:09:00,74.2,10.4,29.59,NW,304,18.4,22.5,8,-99.99,,,0.00,796,rob ver 1A,2013-04-18 22:09:00,
2013-04-18 15:10:00,83.2,10.8,29.50,South,181,3.8,6.4,6,-99.99,,,0.00,796,rob ver 1B,2013-04-18 22:10:00,
2013-04-18 15:11:00,83.0,10.8,29.50,SE,146,5.3,8.3,6,-99.99,,,0.00,792,rob ver 1B,2013-04-18 22:11:00,
2013-04-18 15:12:00,82.9,10.8,29.50,SSE,154,6.8,8.8,6,-99.99,,,0.00,790,rob ver 1B,2013-04-18 22:12:00,
2013-04-18 15:13:00,83.0,10.8,29.50,South,173,8.0,11.3,6,-99.99,,,0.00,787,rob ver 1B,2013-04-18 22:13:00,
2013-04-18 15:14:00,74.8,10.3,29.59,WNW,298,15.4,22.8,8,-99.99,,,0.00,783,rob ver 1A,2013-04-18 22:14:00,
2013-04-18 15:15:00,83.3,10.7,29.50,South,180,8.2,10.6,6,-99.99,,,0.00,782,rob ver 1B,2013-04-18 22:15:00,
2013-04-18 15:16:00,83.2,10.5,29.50,South,181,5.1,8.5,6,-99.99,,,0.00,779,rob ver 1B,2013-04-18 22:16:00,
2013-04-18 15:17:00,83.2,10.5,29.50,SW,217,2.2,4.3,6,-99.99,,,0.00,778,rob ver 1B,2013-04-18 22:17:00,
2013-04-18 15:18:00,83.6,10.9,29.50,SW,214,6.6,9.5,6,-99.99,,,0.00,774,rob ver 1B,2013-04-18 22:18:00,
2013-04-18 15:19:00,74.4,10.5,29.59,WNW,299,15.5,20.0,8,-99.99,,,0.00,770,rob ver 1A,2013-04-18 22:19:00,
2013-04-18 15:20:00,83.9,10.7,29.47,WSW,251,8.3,10.2,6,-99.99,,,0.00,768,rob ver 1B,2013-04-18 22:20:00,
2013-04-18 15:21:00,84.2,10.9,29.47,WSW,255,7.4,10.8,6,-99.99,,,0.00,768,rob ver 1B,2013-04-18 22:21:00,
2013-04-18 15:22:00,84.5,10.9,29.47,West,277,8.7,11.6,6,-99.99,,,0.00,764,rob ver 1B,2013-04-18 22:22:00,
2013-04-18 15:23:00,84.1,10.9,29.47,West,278,9.5,11.6,6,-99.99,,,0.00,761,rob ver 1B,2013-04-18 22:23:00,
2013-04-18 15:24:00,74.6,10.7,29.59,WNW,293,14.0,19.3,8,-99.99,,,0.00,757,rob ver 1A,2013-04-18 22:24:00,
2013-04-18 15:25:00,83.3,10.9,29.47,WNW,286,7.3,10.9,6,-99.99,,,0.00,756,rob ver 1B,2013-04-18 22:25:00,
2013-04-18 15:26:00,83.2,10.9,29.47,West,269,4.1,6.5,6,-99.99,,,0.00,753,rob ver 1B,2013-04-18 22:26:00,
2013-04-18 15:27:00,83.4,10.9,29.47,SW,226,3.6,6.6,6,-99.99,,,0.00,751,rob ver 1B,2013-04-18 22:27:00,
2013-04-18 15:28:00,83.3,10.4,29.47,WSW,237,4.8,7.9,6,-99.99,,,0.00,749,rob ver 1B,2013-04-18 22:28:00,
2013-04-18 15:29:00,74.4,10.4,29.59,West,279,15.9,18.4,8,-99.99,,,0.00,743,rob ver 1A,2013-04-18 22:29:00,
2013-04-18 15:30:00,83.1,10.3,29.47,SE,133,3.1,5.9,6,-99.99,,,0.00,745,rob ver 1B,2013-04-18 22:30:00,
2013-04-18 15:31:00,83.1,10.3,29.47,SW,232,2.0,5.6,6,-99.99,,,0.00,742,rob ver 1B,2013-04-18 22:31:00,
2013-04-18 15:32:00,83.7,10.3,29.47,WSW,254,9.2,13.4,6,-99.99,,,0.00,737,rob ver 1B,2013-04-18 22:32:00,
2013-04-18 15:33:00,83.8,10.0,29.47,West,272,6.9,9.1,6,-99.99,,,0.00,736,rob ver 1B,2013-04-18 22:33:00,
2013-04-18 15:34:00,74.1,10.1,29.59,NW,309,14.4,20.3,8,-99.99,,,0.00,728,rob ver 1A,2013-04-18 22:34:00,
2013-04-18 15:35:00,84.2,10.4,29.47,West,280,9.9,12.4,6,-99.99,,,0.00,730,rob ver 1B,2013-04-18 22:35:00,
2013-04-18 15:36:00,84.1,10.2,29.47,WNW,285,8.3,11.2,6,-99.99,,,0.00,727,rob ver 1B,2013-04-18 22:36:00,
2013-04-18 15:37:00,83.8,10.1,29.47,West,275,7.3,9.6,6,-99.99,,,0.00,725,rob ver 1B,2013-04-18 22:37:00,
2013-04-18 15:38:00,83.8,10.1,29.47,WSW,248,10.3,13.6,6,-99.99,,,0.00,721,rob ver 1B,2013-04-18 22:38:00,
2013-04-18 15:39:00,74.5,10.3,29.59,NW,313,17.0,20.8,8,-99.99,,,0.00,715,rob ver 1A,2013-04-18 22:39:00,
2013-04-18 15:40:00,83.7,10.0,29.47,SW,219,6.5,8.9,6,-99.99,,,0.00,714,rob ver 1B,2013-04-18 22:40:00,
2013-04-18 15:41:00,83.7,9.9,29.47,SSW,211,5.5,7.5,6,-99.99,,,0.00,711,rob ver 1B,2013-04-18 22:41:00,
2013-04-18 15:42:00,83.8,10.2,29.47,SW,228,7.6,11.4,6,-99.99,,,0.00,708,rob ver 1B,2013-04-18 22:42:00,
2013-04-18 15:43:00,83.6,10.1,29.47,SW,232,7.8,11.1,6,-99.99,,,0.00,706,rob ver 1B,2013-04-18 22:43:00,
2013-04-18 15:44:00,74.2,10.2,29.59,NW,314,12.5,14.5,8,-99.99,,,0.00,699.6,rob ver 1A,2013-04-18 22:44:00,
2013-04-18 15:45:00,84.0,10.4,29.47,West,262,11.6,14.4,6,-99.99,,,0.00,699.4,rob ver 1B,2013-04-18 22:45:00,
2013-04-18 15:46:00,83.5,10.4,29.47,West,263,8.7,10.4,6,-99.99,,,0.00,696,rob ver 1B,2013-04-18 22:46:00,
2013-04-18 15:47:00,83.7,10.6,29.47,WSW,257,7.3,10.6,6,-99.99,,,0.00,690.4,rob ver 1B,2013-04-18 22:47:00,
2013-04-18 15:48:00,83.8,10.6,29.47,WNW,285,9.9,13.3,6,-99.99,,,0.00,690.3,rob ver 1B,2013-04-18 22:48:00,
2013-04-18 15:49:00,75.1,10.7,29.59,NW,323,13.4,16.2,8,-99.99,,,0.00,685,rob ver 1A,2013-04-18 22:49:00,
2013-04-18 15:50:00,83.6,10.7,29.47,WNW,286,10.1,13.8,6,-99.99,,,0.00,683.9,rob ver 1B,2013-04-18 22:50:00,
2013-04-18 15:51:00,83.5,10.5,29.47,West,279,7.4,10.9,6,-99.99,,,0.00,679.6,rob ver 1B,2013-04-18 22:51:00,
2013-04-18 15:52:00,83.5,10.4,29.47,WNW,286,8.3,12.1,6,-99.99,,,0.00,678.3,rob ver 1B,2013-04-18 22:52:00,
2013-04-18 15:53:00,83.3,10.4,29.47,WNW,294,5.7,8.5,6,-99.99,,,0.00,674.9,rob ver 1B,2013-04-18 22:53:00,
2013-04-18 15:54:00,74.4,10.1,29.59,WNW,283,17.7,24.7,8,-99.99,,,0.00,670.5,rob ver 1A,2013-04-18 22:54:00,
2013-04-18 15:55:00,83.8,10.7,29.47,SW,236,3.4,5.3,6,-99.99,,,0.00,668,rob ver 1B,2013-04-18 22:55:00,
2013-04-18 15:56:00,84.0,10.7,29.47,West,273,8.2,11.5,6,-99.99,,,0.00,666.4,rob ver 1B,2013-04-18 22:56:00,
2013-04-18 15:57:00,83.8,10.5,29.47,West,260,8.1,10.8,6,-99.99,,,0.00,662.1,rob ver 1B,2013-04-18 22:57:00,
2013-04-18 15:58:00,83.8,10.6,29.47,West,267,8.5,12.5,6,-99.99,,,0.00,660,rob ver 1B,2013-04-18 22:58:00,
2013-04-18 15:59:00,74.3,10.4,29.59,WNW,298,13.6,16.4,8,-99.99,,,0.00,655.2,rob ver 1A,2013-04-18 22:59:00,
2013-04-18 16:00:00,83.6,10.5,29.47,WNW,285,4.5,12.3,6,-99.99,,,0.00,653.4,rob ver 1B,2013-04-18 23:00:00,
2013-04-18 16:01:00,83.9,10.7,29.47,WNW,301,7.9,10.8,6,-99.99,,,0.00,650.6,rob ver 1B,2013-04-18 23:01:00,
2013-04-18 16:02:00,84.2,10.7,29.47,NW,318,7.1,9.7,6,-99.99,,,0.00,646.7,rob ver 1B,2013-04-18 23:02:00,
2013-04-18 16:03:00,84.2,10.7,29.47,WNW,299,4.3,5.9,6,-99.99,,,0.00,644.2,rob ver 1B,2013-04-18 23:03:00,
2013-04-18 16:04:00,74.7,10.4,29.59,WNW,294,16.7,20.8,8,-99.99,,,0.00,639.3,rob ver 1A,2013-04-18 23:04:00,
2013-04-18 16:05:00,84.7,10.6,29.47,SW,227,1.0,2.9,6,-99.99,,,0.00,637.5,rob ver 1B,2013-04-18 23:05:00,
2013-04-18 16:06:00,85.2,10.9,29.47,SSW,209,0.9,1.9,5,-99.99,,,0.00,635.1,rob ver 1B,2013-04-18 23:06:00,
2013-04-18 16:07:00,85.7,10.8,29.47,South,170,2.7,4.0,5,-99.99,,,0.00,631,rob ver 1B,2013-04-18 23:07:00,
2013-04-18 16:08:00,85.4,11.0,29.47,South,177,7.0,10.5,6,-99.99,,,0.00,628,rob ver 1B,2013-04-18 23:08:00,
2013-04-18 16:09:00,74.7,10.2,29.59,WNW,284,16.1,22.8,8,-99.99,,,0.00,622.2,rob ver 1A,2013-04-18 23:09:00,
2013-04-18 16:10:00,84.3,10.8,29.47,South,178,8.0,10.2,6,-99.99,,,0.00,622,rob ver 1B,2013-04-18 23:10:00,
2013-04-18 16:11:00,83.9,11.0,29.47,SSW,194,8.8,13.0,6,-99.99,,,0.00,618.2,rob ver 1B,2013-04-18 23:11:00,
2013-04-18 16:12:00,84.0,11.3,29.47,SW,221,6.9,9.1,6,-99.99,,,0.00,614.6,rob ver 1B,2013-04-18 23:12:00,
2013-04-18 16:13:00,84.0,11.4,29.47,SW,226,3.4,5.5,6,-99.99,,,0.00,611,rob ver 1B,2013-04-18 23:13:00,
2013-04-18 16:14:00,74.6,10.4,29.59,NW,318,16.2,22.5,8,-99.99,,,0.00,605,rob ver 1A,2013-04-18 23:14:00,
2013-04-18 16:15:00,84.2,11.4,29.47,SW,234,5.2,8.7,6,-99.99,,,0.00,604.3,rob ver 1B,2013-04-18 23:15:00,
2013-04-18 16:16:00,84.1,11.0,29.47,WSW,248,11.3,14.3,6,-99.99,,,0.00,601.6,rob ver 1B,2013-04-18 23:16:00,
2013-04-18 16:17:00,83.7,10.9,29.47,WSW,247,8.1,14.1,6,-99.99,,,0.00,598.2,rob ver 1B,2013-04-18 23:17:00,
2013-04-18 16:18:00,83.3,10.9,29.47,South,189,3.4,7.0,6,-99.99,,,0.00,595.3,rob ver 1B,2013-04-18 23:18:00,
2013-04-18 16:19:00,73.8,9.9,29.59,West,281,14.2,19.6,8,-99.99,,,0.00,591.1,rob ver 1A,2013-04-18 23:19:00,
2013-04-18 16:20:00,83.1,10.9,29.47,SSE,150,5.3,7.2,6,-99.99,,,0.00,588.2,rob ver 1B,2013-04-18 23:20:00,
2013-04-18 16:21:00,83.1,10.9,29.44,SSE,154,6.1,8.5,6,-99.99,,,0.00,584.8,rob ver 1B,2013-04-18 23:21:00,
2013-04-18 16:22:00,83.2,11.0,29.44,SSE,162,4.7,7.5,6,-99.99,,,0.00,581.5,rob ver 1B,2013-04-18 23:22:00,
2013-04-18 16:23:00,83.5,10.9,29.44,SE,130,2.4,3.5,6,-99.99,,,0.00,578.4,rob ver 1B,2013-04-18 23:23:00,
2013-04-18 16:24:00,74.6,9.6,29.59,NW,311,16.3,19.8,8,-99.99,,,0.00,573.7,rob ver 1A,2013-04-18 23:24:00,
2013-04-18 16:25:00,84.3,11.6,29.44,WNW,285,6.8,8.8,6,-99.99,,,0.00,572.3,rob ver 1B,2013-04-18 23:25:00,
2013-04-18 16:26:00,84.6,12.0,29.44,West,276,11.4,15.0,6,-99.99,,,0.00,568.4,rob ver 1B,2013-04-18 23:26:00,
2013-04-18 16:27:00,84.6,11.9,29.44,West,259,15.3,18.9,6,-99.99,,,0.00,565,rob ver 1B,2013-04-18 23:27:00,
2013-04-18 16:28:00,84.1,11.7,29.44,WSW,245,10.7,14.0,6,-99.99,,,0.00,561.7,rob ver 1B,2013-04-18 23:28:00,
2013-04-18 16:29:00,74.6,9.7,29.59,WNW,301,20.6,23.2,8,-99.99,,,0.00,558,rob ver 1A,2013-04-18 23:29:00,
2013-04-18 16:30:00,83.8,11.8,29.44,WSW,243,7.8,11.9,6,-99.99,,,0.00,555.3,rob ver 1B,2013-04-18 23:30:00,
2013-04-18 16:31:00,83.9,11.8,29.44,WSW,256,13.4,16.6,6,-99.99,,,0.00,551.9,rob ver 1B,2013-04-18 23:31:00,
2013-04-18 16:32:00,83.7,11.8,29.44,WSW,257,11.5,14.5,6,-99.99,,,0.00,547.8,rob ver 1B,2013-04-18 23:32:00,
2013-04-18 16:33:00,83.7,11.8,29.44,WSW,254,12.2,14.6,6,-99.99,,,0.00,544.2,rob ver 1B,2013-04-18 23:33:00,
2013-04-18 16:34:00,74.6,10.2,29.59,WNW,286,16.0,19.2,8,-99.99,,,0.00,539.3,rob ver 1A,2013-04-18 23:34:00,
2013-04-18 16:35:00,83.8,11.9,29.44,WSW,254,8.7,13.9,6,-99.99,,,0.00,537.1,rob ver 1B,2013-04-18 23:35:00,
2013-04-18 16:36:00,83.8,11.9,29.44,West,264,11.5,14.3,6,-99.99,,,0.00,534,rob ver 1B,2013-04-18 23:36:00,
2013-04-18 16:37:00,83.8,11.8,29.44,WNW,287,14.0,17.3,6,-99.99,,,0.00,530.9,rob ver 1B,2013-04-18 23:37:00,
2013-04-18 16:38:00,83.8,11.9,29.44,WNW,285,12.7,21.0,6,-99.99,,,0.00,527.1,rob ver 1B,2013-04-18 23:38:00,
2013-04-18 16:39:00,74.1,10.5,29.59,WNW,296,16.2,22.0,8,-99.99,,,0.00,518.3,rob ver 1A,2013-04-18 23:39:00,
2013-04-18 16:40:00,83.3,11.7,29.44,WNW,285,5.8,7.6,6,-99.99,,,0.00,520.2,rob ver 1B,2013-04-18 23:40:00,
2013-04-18 16:41:00,83.6,11.9,29.44,WNW,291,4.9,6.4,6,-99.99,,,0.00,516.6,rob ver 1B,2013-04-18 23:41:00,
2013-04-18 16:42:00,83.9,11.9,29.44,West,275,4.0,6.4,6,-99.99,,,0.00,513,rob ver 1B,2013-04-18 23:42:00,
2013-04-18 16:43:00,84.0,12.0,29.44,WSW,255,9.9,15.9,6,-99.99,,,0.00,510.1,rob ver 1B,2013-04-18 23:43:00,
2013-04-18 16:44:00,74.3,10.4,29.59,WNW,286,15.7,21.5,8,-99.99,,,0.00,499.8,rob ver 1A,2013-04-18 23:44:00,
2013-04-18 16:45:00,84.1,11.8,29.44,WNW,283,11.9,14.1,6,-99.99,,,0.00,502.9,rob ver 1B,2013-04-18 23:45:00,
2013-04-18 16:46:00,83.9,11.5,29.44,West,275,9.3,14.6,6,-99.99,,,0.00,499.3,rob ver 1B,2013-04-18 23:46:00,
2013-04-18 16:47:00,83.6,11.7,29.44,WSW,247,6.5,8.9,6,-99.99,,,0.00,496.2,rob ver 1B,2013-04-18 23:47:00,
2013-04-18 16:48:00,83.9,11.6,29.44,West,272,10.4,14.8,6,-99.99,,,0.00,492.9,rob ver 1B,2013-04-18 23:48:00,
2013-04-18 16:49:00,74.6,10.6,29.59,NW,305,19.1,22.2,8,-99.99,,,0.00,483.6,rob ver 1A,2013-04-18 23:49:00,
2013-04-18 16:50:00,83.5,11.3,29.44,WSW,247,7.0,12.0,6,-99.99,,,0.00,485.1,rob ver 1B,2013-04-18 23:50:00,
2013-04-18 16:51:00,83.6,11.3,29.44,WNW,302,7.2,11.1,6,-99.99,,,0.00,481.9,rob ver 1B,2013-04-18 23:51:00,
2013-04-18 16:52:00,83.6,11.4,29.44,WNW,296,6.4,9.9,6,-99.99,,,0.00,478.3,rob ver 1B,2013-04-18 23:52:00,
2013-04-18 16:53:00,83.7,11.3,29.44,WNW,290,2.6,4.5,6,-99.99,,,0.00,474.1,rob ver 1B,2013-04-18 23:53:00,
2013-04-18 16:54:00,74.2,10.8,29.59,NW,312,18.1,20.9,8,-99.99,,,0.00,464.6,rob ver 1A,2013-04-18 23:54:00,
2013-04-18 16:55:00,84.6,11.4,29.44,WSW,252,2.9,4.9,6,-99.99,,,0.00,467.5,rob ver 1B,2013-04-18 23:55:00,
2013-04-18 16:56:00,84.4,11.5,29.44,West,269,4.2,5.7,6,-99.99,,,0.00,463.6,rob ver 1B,2013-04-18 23:56:00,
2013-04-18 16:57:00,84.2,11.5,29.44,West,259,7.5,12.4,6,-99.99,,,0.00,459.5,rob ver 1B,2013-04-18 23:57:00,
2013-04-18 16:58:00,84.0,11.4,29.44,West,266,9.8,12.0,6,-99.99,,,0.00,456.4,rob ver 1B,2013-04-18 23:58:00,
2013-04-18 16:59:00,74.0,11.0,29.59,WNW,295,13.5,17.3,8,-99.99,,,0.00,446.7,rob ver 1A,2013-04-18 23:59:00,
2013-04-18 17:00:00,84.0,11.4,29.44,West,268,13.0,17.2,6,-99.99,,,0.00,448.1,rob ver 1B,2013-04-19 00:00:00,
2013-04-18 17:01:00,83.8,11.4,29.44,WSW,256,8.8,10.3,6,-99.99,,,0.00,444.9,rob ver 1B,2013-04-19 00:01:00,
2013-04-18 17:02:00,83.7,11.3,29.44,WSW,243,7.8,8.9,6,-99.99,,,0.00,441.3,rob ver 1B,2013-04-19 00:02:00,
2013-04-18 17:03:00,83.5,11.2,29.44,WSW,240,9.1,12.7,6,-99.99,,,0.00,437.6,rob ver 1B,2013-04-19 00:03:00,
2013-04-18 17:04:00,74.8,10.9,29.59,NW,306,15.3,20.4,8,-99.99,,,0.00,428.8,rob ver 1A,2013-04-19 00:04:00,
2013-04-18 17:05:00,83.5,11.3,29.44,WSW,253,9.2,13.0,6,-99.99,,,0.00,430.2,rob ver 1B,2013-04-19 00:05:00,
2013-04-18 17:06:00,83.3,11.2,29.44,WSW,241,8.7,14.6,6,-99.99,,,0.00,426.6,rob ver 1B,2013-04-19 00:06:00,
2013-04-18 17:07:00,83.4,11.4,29.44,WSW,237,7.7,11.7,6,-99.99,,,0.00,423,rob ver 1B,2013-04-19 00:07:00,
2013-04-18 17:08:00,83.6,11.4,29.44,WSW,242,10.5,15.8,6,-99.99,,,0.00,420.4,rob ver 1B,2013-04-19 00:08:00,
2013-04-18 17:09:00,74.4,11.2,29.59,WNW,301,13.5,17.2,8,-99.99,,,0.00,409.3,rob ver 1A,2013-04-19 00:09:00,
2013-04-18 17:10:00,83.6,11.4,29.44,West,266,10.2,12.2,6,-99.99,,,0.00,412.7,rob ver 1B,2013-04-19 00:10:00,
2013-04-18 17:11:00,83.6,11.4,29.44,West,273,9.9,11.5,6,-99.99,,,0.00,408.2,rob ver 1B,2013-04-19 00:11:00,
2013-04-18 17:12:00,83.8,11.6,29.44,West,278,9.1,11.3,6,-99.99,,,0.00,405.1,rob ver 1B,2013-04-19 00:12:00,
2013-04-18 17:13:00,83.9,11.6,29.44,WNW,293,9.0,12.9,6,-99.99,,,0.00,400.9,rob ver 1B,2013-04-19 00:13:00,
2013-04-18 17:14:00,83.8,11.6,29.44,WNW,286,10.7,13.4,6,-99.99,,,0.00,397.1,rob ver 1B,2013-04-19 00:14:00,
2013-04-18 17:15:00,74.2,11.0,29.59,WNW,297,16.4,21.0,8,-99.99,,,0.00,391.1,rob ver 1A,2013-04-19 00:15:00,
2013-04-18 17:16:00,83.8,11.6,29.44,WSW,242,10.3,13.3,6,-99.99,,,0.00,390.2,rob ver 1B,2013-04-19 00:16:00,
2013-04-18 17:17:00,83.8,11.6,29.44,WSW,250,10.3,12.7,6,-99.99,,,0.00,386.6,rob ver 1B,2013-04-19 00:17:00,
2013-04-18 17:18:00,83.7,11.5,29.44,WSW,246,11.1,14.0,6,-99.99,,,0.00,383,rob ver 1B,2013-04-19 00:18:00,
2013-04-18 17:19:00,83.4,11.5,29.44,WSW,254,7.5,10.0,6,-99.99,,,0.00,379.3,rob ver 1B,2013-04-19 00:19:00,
2013-04-18 17:20:00,74.2,11.4,29.59,NW,319,10.8,13.9,8,-99.99,,,0.00,371.6,rob ver 1A,2013-04-19 00:20:00,
2013-04-18 17:21:00,83.8,11.4,29.44,West,259,12.2,13.8,6,-99.99,,,0.00,372.1,rob ver 1B,2013-04-19 00:21:00,
2013-04-18 17:22:00,83.7,11.3,29.44,West,263,12.1,15.7,6,-99.99,,,0.00,368.8,rob ver 1B,2013-04-19 00:22:00,
2013-04-18 17:23:00,83.6,11.3,29.44,WSW,246,10.0,11.3,6,-99.99,,,0.00,363.9,rob ver 1B,2013-04-19 00:23:00,
2013-04-18 17:24:00,83.7,11.2,29.44,West,265,12.1,15.0,6,-99.99,,,0.00,360.6,rob ver 1B,2013-04-19 00:24:00,
2013-04-18 17:25:00,74.3,11.5,29.59,WNW,301,17.0,19.5,8,-99.99,,,0.00,352.1,rob ver 1A,2013-04-19 00:25:00,
2013-04-18 17:26:00,83.4,11.5,29.44,WSW,247,11.4,15.6,6,-99.99,,,0.00,353.5,rob ver 1B,2013-04-19 00:26:00,
2013-04-18 17:27:00,83.3,11.5,29.44,WSW,244,13.3,17.0,6,-99.99,,,0.00,349.9,rob ver 1B,2013-04-19 00:27:00,
2013-04-18 17:28:00,83.3,11.3,29.44,WSW,253,12.5,15.0,6,-99.99,,,0.00,345.4,rob ver 1B,2013-04-19 00:28:00,
2013-04-18 17:29:00,83.2,11.1,29.44,WSW,251,10.6,12.8,6,-99.99,,,0.00,341.1,rob ver 1B,2013-04-19 00:29:00,
2013-04-18 17:30:00,73.8,11.4,29.59,NW,305,12.3,16.3,9,-99.99,,,0.00,333.9,rob ver 1A,2013-04-19 00:30:00,
2013-04-18 17:31:00,83.2,11.5,29.44,WSW,249,8.5,10.1,6,-99.99,,,0.00,334.4,rob ver 1B,2013-04-19 00:31:00,
2013-04-18 17:32:00,83.4,11.4,29.44,WSW,257,10.7,15.2,6,-99.99,,,0.00,330.6,rob ver 1B,2013-04-19 00:32:00,
2013-04-18 17:33:00,83.5,10.9,29.44,West,275,14.6,17.9,6,-99.99,,,0.00,326.7,rob ver 1B,2013-04-19 00:33:00,
2013-04-18 17:34:00,83.5,10.9,29.44,West,269,14.8,16.9,6,-99.99,,,0.00,323.4,rob ver 1B,2013-04-19 00:34:00,
2013-04-18 17:35:00,74.1,11.7,29.59,WNW,294,13.3,20.0,9,-99.99,,,0.00,313.6,rob ver 1A,2013-04-19 00:35:00,
2013-04-18 17:36:00,83.1,10.9,29.44,West,267,11.0,13.6,6,-99.99,,,0.00,315.7,rob ver 1B,2013-04-19 00:36:00,
2013-04-18 17:37:00,83.2,11.0,29.44,West,279,13.5,16.8,6,-99.99,,,0.00,312.4,rob ver 1B,2013-04-19 00:37:00,
2013-04-18 17:38:00,83.2,11.0,29.44,WNW,282,14.2,16.2,6,-99.99,,,0.00,309,rob ver 1B,2013-04-19 00:38:00,
2013-04-18 17:39:00,83.0,10.9,29.44,West,269,11.8,13.8,6,-99.99,,,0.00,305.2,rob ver 1B,2013-04-19 00:39:00,
2013-04-18 17:40:00,74.2,11.4,29.59,NW,308,16.5,21.5,8,-99.99,,,0.00,294.9,rob ver 1A,2013-04-19 00:40:00,
2013-04-18 17:41:00,83.0,11.0,29.44,West,261,8.1,10.7,6,-99.99,,,0.00,297.5,rob ver 1B,2013-04-19 00:41:00,
2013-04-18 17:42:00,83.2,11.5,29.44,West,259,12.8,15.1,6,-99.99,,,0.00,293.3,rob ver 1B,2013-04-19 00:42:00,
2013-04-18 17:43:00,83.2,11.5,29.44,West,265,10.6,14.2,6,-99.99,,,0.00,289.8,rob ver 1B,2013-04-19 00:43:00,
2013-04-18 17:44:00,83.2,11.2,29.44,WNW,284,10.4,14.8,6,-99.99,,,0.00,286.1,rob ver 1B,2013-04-19 00:44:00,
2013-04-18 17:45:00,73.9,11.3,29.59,NW,305,13.6,19.0,8,-99.99,,,0.00,276.3,rob ver 1A,2013-04-19 00:45:00,
2013-04-18 17:46:00,83.5,11.1,29.44,West,268,11.5,15.3,6,-99.99,,,0.00,278.7,rob ver 1B,2013-04-19 00:46:00,
2013-04-18 17:47:00,83.3,11.0,29.44,WNW,282,12.3,14.7,6,-99.99,,,0.00,274.7,rob ver 1B,2013-04-19 00:47:00,
2013-04-18 17:48:00,83.2,11.0,29.44,West,261,11.4,14.5,6,-99.99,,,0.00,270.7,rob ver 1B,2013-04-19 00:48:00,
2013-04-18 17:49:00,83.2,11.0,29.44,West,271,9.2,13.4,6,-99.99,,,0.00,267.1,rob ver 1B,2013-04-19 00:49:00,
2013-04-18 17:50:00,73.7,11.5,29.59,NW,317,11.4,13.6,9,-99.99,,,0.00,258.9,rob ver 1A,2013-04-19 00:50:00,
2013-04-18 17:51:00,83.1,10.9,29.44,West,259,11.7,14.8,6,-99.99,,,0.00,259.8,rob ver 1B,2013-04-19 00:51:00,
2013-04-18 17:52:00,83.0,11.0,29.44,WSW,248,10.3,11.7,6,-99.99,,,0.00,255.4,rob ver 1B,2013-04-19 00:52:00,
2013-04-18 17:53:00,83.2,10.9,29.44,WSW,250,14.2,18.1,6,-99.99,,,0.00,252,rob ver 1B,2013-04-19 00:53:00,
2013-04-18 17:54:00,83.1,10.8,29.44,West,266,11.6,14.7,6,-99.99,,,0.00,248.5,rob ver 1B,2013-04-19 00:54:00,
2013-04-18 17:55:00,73.6,11.4,29.59,NW,320,12.0,15.6,9,-99.99,,,0.00,237.9,rob ver 1A,2013-04-19 00:55:00,
2013-04-18 17:56:00,83.0,10.7,29.44,WSW,256,11.2,13.6,6,-99.99,,,0.00,241.5,rob ver 1B,2013-04-19 00:56:00,
2013-04-18 17:57:00,82.9,10.9,29.44,West,262,9.4,11.5,6,-99.99,,,0.00,237.6,rob ver 1B,2013-04-19 00:57:00,
2013-04-18 17:58:00,82.9,10.8,29.44,West,261,8.5,10.9,6,-99.99,,,0.00,234,rob ver 1B,2013-04-19 00:58:00,
2013-04-18 17:59:00,82.9,10.9,29.44,WSW,252,10.6,13.5,6,-99.99,,,0.00,230,rob ver 1B,2013-04-19 00:59:00,
2013-04-18 18:00:00,73.5,11.4,29.59,NW,319,12.2,16.2,9,-99.99,,,0.00,220.4,rob ver 1A,2013-04-19 01:00:00,
2013-04-18 18:01:00,82.8,10.8,29.44,West,260,13.4,17.3,6,-99.99,,,0.00,221.8,rob ver 1B,2013-04-19 01:01:00,
2013-04-18 18:02:00,82.6,10.8,29.44,WSW,253,9.4,10.9,6,-99.99,,,0.00,218.4,rob ver 1B,2013-04-19 01:02:00,
2013-04-18 18:03:00,82.8,10.8,29.41,WSW,241,9.9,11.7,6,-99.99,,,0.00,214.3,rob ver 1B,2013-04-19 01:03:00,
2013-04-18 18:04:00,82.9,10.9,29.44,West,262,12.2,15.0,6,-99.99,,,0.00,210.7,rob ver 1B,2013-04-19 01:04:00,
2013-04-18 18:05:00,74.2,11.7,29.59,NW,319,10.9,14.0,8,-99.99,,,0.00,203.3,rob ver 1A,2013-04-19 01:05:00,
2013-04-18 18:06:00,82.8,11.0,29.44,West,263,11.3,14.3,6,-99.99,,,0.00,201.5,rob ver 1B,2013-04-19 01:06:00,
2013-04-18 18:07:00,82.9,10.9,29.44,West,259,13.7,16.2,6,-99.99,,,0.00,200.2,rob ver 1B,2013-04-19 01:07:00,
2013-04-18 18:08:00,82.7,10.7,29.44,West,265,14.0,18.1,6,-99.99,,,0.00,196.3,rob ver 1B,2013-04-19 01:08:00,
2013-04-18 18:09:00,82.5,10.7,29.44,West,268,9.8,13.0,6,-99.99,,,0.00,192.7,rob ver 1B,2013-04-19 01:09:00,
2013-04-18 18:10:00,73.7,11.4,29.59,NW,318,17.3,20.6,9,-99.99,,,0.00,185.6,rob ver 1A,2013-04-19 01:10:00,
2013-04-18 18:11:00,82.8,10.7,29.41,WSW,256,10.1,12.3,6,-99.99,,,0.00,185.3,rob ver 1B,2013-04-19 01:11:00,
2013-04-18 18:12:00,82.9,10.7,29.41,WSW,253,10.7,13.9,6,-99.99,,,0.00,181.9,rob ver 1B,2013-04-19 01:12:00,
2013-04-18 18:13:00,82.8,10.6,29.41,West,264,9.6,13.5,6,-99.99,,,0.00,178.3,rob ver 1B,2013-04-19 01:13:00,
2013-04-18 18:14:00,82.7,10.5,29.41,West,266,12.1,16.4,6,-99.99,,,0.00,174.5,rob ver 1B,2013-04-19 01:14:00,
2013-04-18 18:15:00,73.3,11.3,29.59,NW,317,13.3,17.3,9,-99.99,,,0.00,168.1,rob ver 1A,2013-04-19 01:15:00,
2013-04-18 18:16:00,82.6,10.3,29.44,WSW,255,11.3,13.8,6,-99.99,,,0.00,167.4,rob ver 1B,2013-04-19 01:16:00,
2013-04-18 18:17:00,82.5,10.3,29.41,West,266,10.6,13.8,6,-99.99,,,0.00,163.8,rob ver 1B,2013-04-19 01:17:00,
2013-04-18 18:18:00,82.4,10.3,29.41,West,267,10.6,14.2,6,-99.99,,,0.00,160.4,rob ver 1B,2013-04-19 01:18:00,
2013-04-18 18:19:00,82.4,10.4,29.41,WSW,258,9.5,12.0,6,-99.99,,,0.00,157,rob ver 1B,2013-04-19 01:19:00,
2013-04-18 18:20:00,73.2,11.2,29.59,NW,326,11.8,13.7,9,-99.99,,,0.00,150.5,rob ver 1A,2013-04-19 01:20:00,
2013-04-18 18:21:00,82.4,10.3,29.41,WSW,248,9.1,11.0,6,-99.99,,,0.00,148.6,rob ver 1B,2013-04-19 01:21:00,
2013-04-18 18:22:00,82.6,10.3,29.41,WSW,248,10.3,14.1,6,-99.99,,,0.00,146.8,rob ver 1B,2013-04-19 01:22:00,
2013-04-18 18:23:00,82.5,10.2,29.41,WSW,252,10.3,13.4,6,-99.99,,,0.00,143.7,rob ver 1B,2013-04-19 01:23:00,
2013-04-18 18:24:00,82.5,10.2,29.41,WSW,250,10.9,13.5,6,-99.99,,,0.00,139.9,rob ver 1B,2013-04-19 01:24:00,
2013-04-18 18:25:00,73.0,11.3,29.59,NW,322,9.7,13.2,9,-99.99,,,0.00,133.3,rob ver 1A,2013-04-19 01:25:00,
2013-04-18 18:26:00,82.3,10.0,29.41,West,269,12.3,13.6,6,-99.99,,,0.00,132.9,rob ver 1B,2013-04-19 01:26:00,
2013-04-18 18:27:00,82.2,9.9,29.41,West,271,12.8,14.9,6,-99.99,,,0.00,129.6,rob ver 1B,2013-04-19 01:27:00,
2013-04-18 18:28:00,82.1,9.8,29.41,West,270,12.7,16.2,6,-99.99,,,0.00,126.7,rob ver 1B,2013-04-19 01:28:00,
2013-04-18 18:29:00,82.0,9.8,29.41,West,262,11.6,14.7,6,-99.99,,,0.00,123.5,rob ver 1B,2013-04-19 01:29:00,
2013-04-18 18:30:00,73.1,11.3,29.59,NW,313,15.4,18.1,9,-99.99,,,0.00,116.4,rob ver 1A,2013-04-19 01:30:00,
2013-04-18 18:31:00,81.9,9.8,29.41,WSW,258,11.4,14.0,6,-99.99,,,0.00,116.8,rob ver 1B,2013-04-19 01:31:00,
2013-04-18 18:32:00,81.8,9.8,29.41,West,260,11.0,12.3,6,-99.99,,,0.00,113.4,rob ver 1B,2013-04-19 01:32:00,
2013-04-18 18:33:00,81.9,9.7,29.41,WSW,253,8.9,11.7,6,-99.99,,,0.00,110.8,rob ver 1B,2013-04-19 01:33:00,
2013-04-18 18:34:00,82.0,9.6,29.41,West,259,9.9,12.6,6,-99.99,,,0.00,107.5,rob ver 1B,2013-04-19 01:34:00,
2013-04-18 18:35:00,72.8,11.4,29.59,NW,310,12.5,15.4,9,-99.99,,,0.00,100.7,rob ver 1A,2013-04-19 01:35:00,
2013-04-18 18:36:00,81.9,9.4,29.41,West,264,13.1,15.5,6,-99.99,,,0.00,101.6,rob ver 1B,2013-04-19 01:36:00,
2013-04-18 18:37:00,81.7,9.3,29.41,West,265,11.7,14.6,6,-99.99,,,0.00,98.3,rob ver 1B,2013-04-19 01:37:00,
2013-04-18 18:38:00,81.7,9.2,29.41,West,270,11.8,14.3,6,-99.99,,,0.00,94.7,rob ver 1B,2013-04-19 01:38:00,
2013-04-18 18:39:00,81.6,9.1,29.41,West,264,10.3,12.2,6,-99.99,,,0.00,91.8,rob ver 1B,2013-04-19 01:39:00,
2013-04-18 18:40:00,72.9,11.3,29.59,NW,313,13.9,17.0,9,-99.99,,,0.00,84.9,rob ver 1A,2013-04-19 01:40:00,
2013-04-18 18:41:00,81.6,9.0,29.41,WSW,258,12.5,14.7,6,-99.99,,,0.00,85.9,rob ver 1B,2013-04-19 01:41:00,
2013-04-18 18:42:00,81.5,8.9,29.41,West,262,12.0,14.5,6,-99.99,,,0.00,82.9,rob ver 1B,2013-04-19 01:42:00,
2013-04-18 18:43:00,81.5,8.7,29.41,West,266,11.4,14.6,6,-99.99,,,0.00,79.6,rob ver 1B,2013-04-19 01:43:00,
2013-04-18 18:44:00,81.5,8.3,29.41,West,267,11.1,14.0,6,-99.99,,,0.00,76.4,rob ver 1B,2013-04-19 01:44:00,
2013-04-18 18:45:00,72.5,11.5,29.59,NW,316,13.2,17.5,9,-99.99,,,0.00,69.53,rob ver 1A,2013-04-19 01:45:00,
2013-04-18 18:46:00,81.4,8.2,29.41,West,267,12.0,14.9,5,-99.99,,,0.00,70.5,rob ver 1B,2013-04-19 01:46:00,
2013-04-18 18:47:00,81.3,7.8,29.41,West,263,12.1,15.4,5,-99.99,,,0.00,67.5,rob ver 1B,2013-04-19 01:47:00,
2013-04-18 18:48:00,81.3,7.5,29.41,West,263,12.0,15.6,5,-99.99,,,0.00,64.72,rob ver 1B,2013-04-19 01:48:00,
2013-04-18 18:49:00,81.2,7.6,29.41,West,262,12.1,14.8,5,-99.99,,,0.00,61.61,rob ver 1B,2013-04-19 01:49:00,
2013-04-18 18:50:00,72.4,11.5,29.59,WNW,303,11.7,13.5,9,-99.99,,,0.00,54.77,rob ver 1A,2013-04-19 01:50:00,
2013-04-18 18:51:00,81.1,8.0,29.41,West,264,11.1,13.6,6,-99.99,,,0.00,55.71,rob ver 1B,2013-04-19 01:51:00,
2013-04-18 18:52:00,81.0,8.1,29.41,West,264,10.1,12.6,6,-99.99,,,0.00,53.09,rob ver 1B,2013-04-19 01:52:00,
2013-04-18 18:53:00,81.0,7.9,29.41,West,261,11.5,14.9,6,-99.99,,,0.00,50.14,rob ver 1B,2013-04-19 01:53:00,
2013-04-18 18:54:00,80.9,7.8,29.41,West,260,11.1,14.0,6,-99.99,,,0.00,46.86,rob ver 1B,2013-04-19 01:54:00,
2013-04-18 18:55:00,72.2,11.0,29.59,NW,326,10.3,13.7,9,-99.99,,,0.00,41.16,rob ver 1A,2013-04-19 01:55:00,
2013-04-18 18:56:00,80.8,8.0,29.41,West,262,11.1,13.2,6,-99.99,,,0.00,40.8,rob ver 1B,2013-04-19 01:56:00,
2013-04-18 18:57:00,80.8,8.3,29.41,West,261,10.5,12.5,6,-99.99,,,0.00,38.34,rob ver 1B,2013-04-19 01:57:00,
2013-04-18 18:58:00,80.7,8.4,29.41,West,262,9.8,12.3,6,-99.99,,,0.00,35.72,rob ver 1B,2013-04-19 01:58:00,
2013-04-18 18:59:00,80.7,8.4,29.41,West,261,11.1,13.2,6,-99.99,,,0.00,33.1,rob ver 1B,2013-04-19 01:59:00,
2013-04-18 19:00:00,72.1,10.8,29.59,NW,304,11.8,14.0,9,-99.99,,,0.00,28.53,rob ver 1A,2013-04-19 02:00:00,
2013-04-18 19:01:00,80.5,8.2,29.41,West,260,11.0,13.6,6,-99.99,,,0.00,28.35,rob ver 1B,2013-04-19 02:01:00,
2013-04-18 19:02:00,80.5,8.4,29.41,West,262,10.3,12.4,6,-99.99,,,0.00,26.05,rob ver 1B,2013-04-19 02:02:00,
2013-04-18 19:03:00,80.3,8.4,29.41,West,261,9.1,11.9,6,-99.99,,,0.00,23.27,rob ver 1B,2013-04-19 02:03:00,
2013-04-18 19:04:00,80.3,8.3,29.41,West,262,11.8,13.5,6,-99.99,,,0.00,20.65,rob ver 1B,2013-04-19 02:04:00,
2013-04-18 19:05:00,71.9,10.7,29.59,NW,311,12.9,15.3,9,-99.99,,,0.00,15.42,rob ver 1A,2013-04-19 02:05:00,
2013-04-18 19:06:00,80.2,8.3,29.41,West,261,10.6,13.4,6,-99.99,,,0.00,15.4,rob ver 1B,2013-04-19 02:06:00,
2013-04-18 19:07:00,80.1,8.2,29.41,West,262,10.2,12.5,6,-99.99,,,0.00,11.14,rob ver 1B,2013-04-19 02:07:00,
2013-04-18 19:08:00,80.0,8.2,29.41,West,262,10.4,12.0,6,-99.99,,,0.00,8.19,rob ver 1B,2013-04-19 02:08:00,
2013-04-18 19:09:00,79.9,8.3,29.41,West,259,9.6,11.5,6,-99.99,,,0.00,7.54,rob ver 1B,2013-04-19 02:09:00,
2013-04-18 19:10:00,71.4,10.7,29.59,NW,311,12.3,14.0,9,-99.99,,,0.00,5.904,rob ver 1A,2013-04-19 02:10:00,
2013-04-18 19:11:00,79.7,8.2,29.41,West,261,8.3,9.7,6,-99.99,,,0.00,5.9,rob ver 1B,2013-04-19 02:11:00,
2013-04-18 19:12:00,79.5,8.2,29.41,West,262,8.4,10.2,6,-99.99,,,0.00,5.244,rob ver 1B,2013-04-19 02:12:00,
2013-04-18 19:13:00,79.5,8.1,29.41,West,262,8.6,11.1,6,-99.99,,,0.00,4.589,rob ver 1B,2013-04-19 02:13:00,
2013-04-18 19:14:00,79.4,8.0,29.41,West,259,8.1,10.6,6,-99.99,,,0.00,4.261,rob ver 1B,2013-04-19 02:14:00,
2013-04-18 19:15:00,71.5,10.5,29.59,NW,311,15.5,18.4,9,-99.99,,,0.00,2.952,rob ver 1A,2013-04-19 02:15:00,
2013-04-18 19:16:00,79.3,7.9,29.41,WSW,257,8.9,10.9,6,-99.99,,,0.00,3.278,rob ver 1B,2013-04-19 02:16:00,
2013-04-18 19:17:00,79.2,7.9,29.41,WSW,257,7.5,9.7,6,-99.99,,,0.00,2.95,rob ver 1B,2013-04-19 02:17:00,
2013-04-18 19:18:00,79.2,7.9,29.41,WSW,257,7.7,9.3,6,-99.99,,,0.00,2.622,rob ver 1B,2013-04-19 02:18:00,
2013-04-18 19:19:00,79.1,7.9,29.41,West,260,7.5,9.1,6,-99.99,,,0.00,2.295,rob ver 1B,2013-04-19 02:19:00,
2013-04-18 19:20:00,71.3,10.2,29.59,NW,314,12.4,15.1,9,-99.99,,,0.00,1.312,rob ver 1A,2013-04-19 02:20:00,
2013-04-18 19:21:00,78.9,7.9,29.41,West,259,7.2,8.5,6,-99.99,,,0.00,1.639,rob ver 1B,2013-04-19 02:21:00,
2013-04-18 19:22:00,78.9,8.0,29.41,WSW,258,7.1,8.8,6,-99.99,,,0.00,1.311,rob ver 1B,2013-04-19 02:22:00,
2013-04-18 19:23:00,78.8,7.9,29.41,WSW,257,6.4,7.5,6,-99.99,,,0.00,.983,rob ver 1B,2013-04-19 02:23:00,
2013-04-18 19:24:00,78.6,7.9,29.41,WSW,258,6.7,8.5,6,-99.99,,,0.00,.983,rob ver 1B,2013-04-19 02:24:00,
2013-04-18 19:25:00,71.1,10.0,29.59,NW,308,10.6,12.7,9,-99.99,,,0.00,.328,rob ver 1A,2013-04-19 02:25:00,
2013-04-18 19:26:00,78.5,7.9,29.41,WSW,258,6.4,7.8,6,-99.99,,,0.00,.656,rob ver 1B,2013-04-19 02:26:00,
2013-04-18 19:27:00,78.4,8.0,29.41,WSW,257,6.6,7.9,6,-99.99,,,0.00,.492,rob ver 1B,2013-04-19 02:27:00,
2013-04-18 19:28:00,78.3,8.0,29.41,WSW,257,6.8,8.9,6,-99.99,,,0.00,.328,rob ver 1B,2013-04-19 02:28:00,
2013-04-18 19:29:00,78.3,8.0,29.41,WSW,255,6.3,7.8,6,-99.99,,,0.00,.328,rob ver 1B,2013-04-19 02:29:00,
2013-04-18 19:30:00,71.0,9.9,29.59,NW,308,9.9,12.6,9,-99.99,,,0.00,0,rob ver 1A,2013-04-19 02:30:00,
2013-04-18 19:31:00,78.1,8.0,29.41,WSW,254,6.3,7.7,6,-99.99,,,0.00,0,rob ver 1B,2013-04-19 02:31:00,
2013-04-18 19:32:00,78.0,8.0,29.41,WSW,255,6.1,7.3,6,-99.99,,,0.00,0,rob ver 1B,2013-04-19 02:32:00,
2013-04-18 19:33:00,77.9,8.1,29.41,WSW,256,6.0,7.1,6,-99.99,,,0.00,0,rob ver 1B,2013-04-19 02:33:00,
2013-04-18 19:34:00,77.8,8.1,29.41,WSW,257,6.1,6.9,6,-99.99,,,0.00,0,rob ver 1B,2013-04-19 02:34:00,
2013-04-18 19:35:00,70.8,10.1,29.59,NW,309,10.6,12.8,9,-99.99,,,0.00,0,rob ver 1A,2013-04-19 02:35:00,
2013-04-18 19:36:00,77.6,8.2,29.41,WSW,256,5.3,6.6,6,-99.99,,,0.00,0,rob ver 1B,2013-04-19 02:36:00,
2013-04-18 19:37:00,77.5,8.2,29.41,WSW,256,5.5,6.7,6,-99.99,,,0.00,0,rob ver 1B,2013-04-19 02:37:00,
2013-04-18 19:38:00,77.4,8.2,29.41,WSW,255,5.7,6.8,6,-99.99,,,0.00,0,rob ver 1B,2013-04-19 02:38:00,
2013-04-18 19:39:00,77.4,8.2,29.41,WSW,255,5.5,6.8,6,-99.99,,,0.00,0,rob ver 1B,2013-04-19 02:39:00,
2013-04-18 19:40:00,70.5,10.0,29.59,NW,308,10.9,13.0,9,-99.99,,,0.00,0,rob ver 1A,2013-04-19 02:40:00,
2013-04-18 19:41:00,77.2,8.2,29.41,WSW,254,4.8,5.5,6,-99.99,,,0.00,0,rob ver 1B,2013-04-19 02:41:00,
2013-04-18 19:42:00,77.1,8.3,29.41,WSW,255,5.1,6.0,7,-99.99,,,0.00,0,rob ver 1B,2013-04-19 02:42:00,
2013-04-18 19:43:00,77.0,8.3,29.41,WSW,254,4.9,5.6,7,-99.99,,,0.00,0,rob ver 1B,2013-04-19 02:43:00,
2013-04-18 19:44:00,76.9,8.3,29.41,WSW,254,5.0,5.9,7,-99.99,,,0.00,0,rob ver 1B,2013-04-19 02:44:00,
2013-04-18 19:45:00,76.9,8.5,29.41,WSW,256,5.1,6.0,7,-99.99,,,0.00,0,rob ver 1B,2013-04-19 02:45:00,
2013-04-18 19:46:00,70.0,10.0,29.59,NW,316,8.3,10.7,9,-99.99,,,0.00,0,rob ver 1A,2013-04-19 02:46:00,
2013-04-18 19:47:00,76.8,8.6,29.41,WSW,255,4.8,5.7,7,-99.99,,,0.00,0,rob ver 1B,2013-04-19 02:47:00,
2013-04-18 19:48:00,76.7,8.7,29.41,WSW,257,5.2,6.8,7,-99.99,,,0.00,0,rob ver 1B,2013-04-19 02:48:00,
2013-04-18 19:49:00,76.7,8.7,29.41,WSW,256,4.9,5.6,7,-99.99,,,0.00,0,rob ver 1B,2013-04-19 02:49:00,
2013-04-18 19:50:00,76.7,8.8,29.41,WSW,257,5.0,5.9,7,-99.99,,,0.00,0,rob ver 1B,2013-04-19 02:50:00,
2013-04-18 19:51:00,69.9,10.0,29.59,NW,315,9.0,11.3,9,-99.99,,,0.00,0,rob ver 1A,2013-04-19 02:51:00,
2013-04-18 19:52:00,76.6,8.8,29.41,WSW,257,4.9,5.7,7,-99.99,,,0.00,0,rob ver 1B,2013-04-19 02:52:00,
2013-04-18 19:53:00,76.5,8.8,29.41,WSW,255,4.9,5.4,7,-99.99,,,0.00,0,rob ver 1B,2013-04-19 02:53:00,
2013-04-18 19:54:00,76.4,8.8,29.41,WSW,255,4.9,5.7,7,-99.99,,,0.00,0,rob ver 1B,2013-04-19 02:54:00,
2013-04-18 19:55:00,76.3,8.7,29.41,WSW,254,4.7,5.5,7,-99.99,,,0.00,0,rob ver 1B,2013-04-19 02:55:00,
2013-04-18 19:56:00,69.7,10.0,29.59,NW,313,7.8,9.3,9,-99.99,,,0.00,0,rob ver 1A,2013-04-19 02:56:00,
2013-04-18 19:57:00,76.2,8.8,29.41,WSW,256,4.5,5.6,7,-99.99,,,0.00,0,rob ver 1B,2013-04-19 02:57:00,
2013-04-18 19:58:00,76.1,8.8,29.41,WSW,258,4.4,5.1,7,-99.99,,,0.00,0,rob ver 1B,2013-04-19 02:58:00,
2013-04-18 19:59:00,76.1,8.9,29.41,WSW,257,4.4,5.2,7,-99.99,,,0.00,0,rob ver 1B,2013-04-19 02:59:00,
2013-04-18 20:00:00,76.0,8.9,29.41,WSW,256,4.3,5.0,7,-99.99,,,0.00,0,rob ver 1B,2013-04-19 03:00:00,
2013-04-18 20:01:00,69.5,9.9,29.59,NW,312,8.6,10.6,9,-99.99,,,0.00,0,rob ver 1A,2013-04-19 03:01:00,
2013-04-18 20:02:00,76.0,8.9,29.41,WSW,258,4.3,4.9,7,-99.99,,,0.00,0,rob ver 1B,2013-04-19 03:02:00,
2013-04-18 20:03:00,75.9,8.9,29.41,WSW,254,4.2,4.8,7,-99.99,,,0.00,0,rob ver 1B,2013-04-19 03:03:00,
2013-04-18 20:04:00,75.8,8.8,29.41,WSW,252,3.7,4.2,7,-99.99,,,0.00,0,rob ver 1B,2013-04-19 03:04:00,
2013-04-18 20:05:00,75.7,8.7,29.41,WSW,251,3.4,3.9,7,-99.99,,,0.00,0,rob ver 1B,2013-04-19 03:05:00,
2013-04-18 20:06:00,69.3,9.9,29.62,NW,314,7.5,8.9,9,-99.99,,,0.00,0,rob ver 1A,2013-04-19 03:06:00,
2013-04-18 20:07:00,75.3,8.7,29.41,WSW,250,2.9,3.2,7,-99.99,,,0.00,0,rob ver 1B,2013-04-19 03:07:00,
2013-04-18 20:08:00,75.2,8.6,29.41,WSW,248,2.9,3.3,7,-99.99,,,0.00,0,rob ver 1B,2013-04-19 03:08:00,
2013-04-18 20:09:00,75.1,8.5,29.41,WSW,248,2.8,3.2,7,-99.99,,,0.00,0,rob ver 1B,2013-04-19 03:09:00,
2013-04-18 20:10:00,74.9,8.5,29.41,WSW,248,2.7,3.1,7,-99.99,,,0.00,0,rob ver 1B,2013-04-19 03:10:00,
2013-04-18 20:11:00,69.0,9.9,29.62,NW,316,7.3,9.3,9,-99.99,,,0.00,0,rob ver 1A,2013-04-19 03:11:00,
2013-04-18 20:12:00,74.7,8.6,29.41,WSW,248,2.7,3.0,7,-99.99,,,0.00,0,rob ver 1B,2013-04-19 03:12:00,
2013-04-18 20:13:00,74.6,8.6,29.41,WSW,247,2.6,2.9,7,-99.99,,,0.00,0,rob ver 1B,2013-04-19 03:13:00,
2013-04-18 20:14:00,74.5,8.6,29.41,WSW,245,2.5,2.8,7,-99.99,,,0.00,0,rob ver 1B,2013-04-19 03:14:00,
2013-04-18 20:15:00,74.4,8.6,29.41,WSW,242,2.4,2.7,7,-99.99,,,0.00,0,rob ver 1B,2013-04-19 03:15:00,
2013-04-18 20:16:00,68.9,9.8,29.62,NW,316,7.3,8.5,9,-99.99,,,0.00,0,rob ver 1A,2013-04-19 03:16:00,
2013-04-18 20:17:00,74.2,8.5,29.41,SW,236,2.5,2.8,7,-99.99,,,0.00,0,rob ver 1B,2013-04-19 03:17:00,
2013-04-18 20:18:00,74.2,8.5,29.41,SW,232,2.6,2.8,7,-99.99,,,0.00,0,rob ver 1B,2013-04-19 03:18:00,
2013-04-18 20:19:00,74.2,8.5,29.41,SW,229,2.6,2.7,7,-99.99,,,0.00,0,rob ver 1B,2013-04-19 03:19:00,
2013-04-18 20:20:00,74.1,8.5,29.41,SW,228,2.5,2.7,7,-99.99,,,0.00,0,rob ver 1B,2013-04-19 03:20:00,
2013-04-18 20:21:00,68.5,9.8,29.62,NW,322,6.1,7.6,9,-99.99,,,0.00,0,rob ver 1A,2013-04-19 03:21:00,
2013-04-18 20:22:00,74.0,8.5,29.41,SW,231,2.5,2.8,7,-99.99,,,0.00,0,rob ver 1B,2013-04-19 03:22:00,
2013-04-18 20:23:00,74.0,8.5,29.41,SW,233,2.6,3.0,7,-99.99,,,0.00,0,rob ver 1B,2013-04-19 03:23:00,
2013-04-18 20:24:00,73.9,8.5,29.44,SW,236,2.7,3.0,7,-99.99,,,0.00,0,rob ver 1B,2013-04-19 03:24:00,
2013-04-18 20:25:00,73.9,8.6,29.44,WSW,238,2.8,3.0,7,-99.99,,,0.00,0,rob ver 1B,2013-04-19 03:25:00,
2013-04-18 20:26:00,68.3,9.7,29.62,NW,320,6.6,8.1,10,-99.99,,,0.00,0,rob ver 1A,2013-04-19 03:26:00,
2013-04-18 20:27:00,73.8,8.5,29.41,WSW,245,2.9,3.3,7,-99.99,,,0.00,0,rob ver 1B,2013-04-19 03:27:00,
2013-04-18 20:28:00,73.7,8.5,29.44,WSW,246,2.9,3.2,7,-99.99,,,0.00,0,rob ver 1B,2013-04-19 03:28:00,
2013-04-18 20:29:00,73.6,8.4,29.44,WSW,246,2.7,3.0,7,-99.99,,,0.00,0,rob ver 1B,2013-04-19 03:29:00,
2013-04-18 20:30:00,73.6,8.4,29.44,WSW,247,2.6,3.1,7,-99.99,,,0.00,0,rob ver 1B,2013-04-19 03:30:00,
2013-04-18 20:31:00,68.1,9.6,29.62,NW,322,6.5,8.1,10,-99.99,,,0.00,0,rob ver 1A,2013-04-19 03:31:00,
2013-04-18 20:32:00,73.5,8.4,29.44,WSW,252,2.5,3.4,7,-99.99,,,0.00,0,rob ver 1B,2013-04-19 03:32:00,
2013-04-18 20:33:00,73.5,8.5,29.44,WSW,254,2.6,3.2,7,-99.99,,,0.00,0,rob ver 1B,2013-04-19 03:33:00,
2013-04-18 20:34:00,73.4,8.5,29.44,WSW,256,2.5,2.6,8,-99.99,,,0.00,0,rob ver 1B,2013-04-19 03:34:00,
2013-04-18 20:35:00,73.4,8.4,29.44,WSW,255,2.4,2.6,7,-99.99,,,0.00,0,rob ver 1B,2013-04-19 03:35:00,
2013-04-18 20:36:00,68.1,9.6,29.62,NW,326,7.2,9.7,10,-99.99,,,0.00,0,rob ver 1A,2013-04-19 03:36:00,
2013-04-18 20:37:00,73.4,8.4,29.44,WSW,249,2.0,2.3,7,-99.99,,,0.00,0,rob ver 1B,2013-04-19 03:37:00,
2013-04-18 20:38:00,73.4,8.3,29.44,WSW,247,1.7,2.1,7,-99.99,,,0.00,0,rob ver 1B,2013-04-19 03:38:00,
2013-04-18 20:39:00,73.3,8.3,29.41,WSW,244,1.6,2.0,7,-99.99,,,0.00,0,rob ver 1B,2013-04-19 03:39:00,
2013-04-18 20:40:00,73.3,8.3,29.41,WSW,250,1.3,1.7,7,-99.99,,,0.00,0,rob ver 1B,2013-04-19 03:40:00,
2013-04-18 20:41:00,68.4,9.6,29.62,NW,326,7.5,9.0,9,-99.99,,,0.00,0,rob ver 1A,2013-04-19 03:41:00,
2013-04-18 20:42:00,73.3,8.3,29.44,WSW,245,1.3,1.8,7,-99.99,,,0.00,0,rob ver 1B,2013-04-19 03:42:00,
2013-04-18 20:43:00,73.2,8.3,29.44,WSW,246,1.2,1.6,7,-99.99,,,0.00,0,rob ver 1B,2013-04-19 03:43:00,
2013-04-18 20:44:00,73.2,8.2,29.41,WSW,251,1.2,1.6,8,-99.99,,,0.00,0,rob ver 1B,2013-04-19 03:44:00,
2013-04-18 20:45:00,73.2,8.3,29.41,SW,233,1.5,1.8,7,-99.99,,,0.00,0,rob ver 1B,2013-04-19 03:45:00,
2013-04-18 20:46:00,68.3,9.5,29.62,NNW,329,6.4,7.6,9,-99.99,,,0.00,0,rob ver 1A,2013-04-19 03:46:00,
2013-04-18 20:47:00,73.3,8.3,29.44,SW,222,1.5,2.0,7,-99.99,,,0.00,0,rob ver 1B,2013-04-19 03:47:00,
2013-04-18 20:48:00,73.3,8.3,29.41,SW,218,1.6,1.9,7,-99.99,,,0.00,0,rob ver 1B,2013-04-19 03:48:00,
2013-04-18 20:49:00,73.3,8.3,29.41,SW,214,1.9,2.4,7,-99.99,,,0.00,0,rob ver 1B,2013-04-19 03:49:00,
2013-04-18 20:50:00,73.4,8.3,29.41,SSW,203,2.4,2.9,7,-99.99,,,0.00,0,rob ver 1B,2013-04-19 03:50:00,
2013-04-18 20:51:00,68.3,9.4,29.62,NNW,330,7.1,8.2,9,-99.99,,,0.00,0,rob ver 1A,2013-04-19 03:51:00,
2013-04-18 20:52:00,73.4,8.2,29.41,South,188,3.4,4.2,7,-99.99,,,0.00,0,rob ver 1B,2013-04-19 03:52:00,
2013-04-18 20:53:00,73.5,8.4,29.44,SSW,196,3.3,4.0,8,-99.99,,,0.00,0,rob ver 1B,2013-04-19 03:53:00,
2013-04-18 20:54:00,73.6,9.3,29.41,SSW,192,2.9,3.7,8,-99.99,,,0.00,0,rob ver 1B,2013-04-19 03:54:00,
2013-04-18 20:55:00,73.7,9.6,29.41,South,176,1.9,2.3,8,-99.99,,,0.00,0,rob ver 1B,2013-04-19 03:55:00,
2013-04-18 20:56:00,68.1,9.3,29.62,NW,325,6.3,7.2,9,-99.99,,,0.00,0,rob ver 1A,2013-04-19 03:56:00,
2013-04-18 20:57:00,73.6,10.5,29.41,South,182,2.9,3.5,8,-99.99,,,0.00,0,rob ver 1B,2013-04-19 03:57:00,
2013-04-18 20:58:00,73.4,10.7,29.41,South,179,3.2,4.0,8,-99.99,,,0.00,0,rob ver 1B,2013-04-19 03:58:00,
2013-04-18 20:59:00,73.3,12.1,29.44,South,179,3.6,4.8,9,-99.99,,,0.00,0,rob ver 1B,2013-04-19 03:59:00,
2013-04-18 21:00:00,73.2,13.7,29.41,South,180,4.2,5.2,10,-99.99,,,0.00,0,rob ver 1B,2013-04-19 04:00:00,
2013-04-18 21:01:00,67.8,9.2,29.62,NNW,331,5.6,6.9,10,-99.99,,,0.00,0,rob ver 1A,2013-04-19 04:01:00,
2013-04-18 21:02:00,73.2,15.5,29.41,South,183,3.5,4.3,10,-99.99,,,0.00,0,rob ver 1B,2013-04-19 04:02:00,
2013-04-18 21:03:00,67.6,9.2,29.62,NNW,328,5.4,6.5,10,-99.99,,,0.00,0,rob ver 1A,2013-04-19 04:03:00,
2013-04-18 21:04:00,72.9,15.1,29.44,South,182,3.6,5.0,11,-99.99,,,0.00,0,rob ver 1B,2013-04-19 04:04:00,
2013-04-18 21:05:00,72.7,16.5,29.41,South,186,5.6,7.8,12,-99.99,,,0.00,0,rob ver 1B,2013-04-19 04:05:00,
2013-04-18 21:06:00,72.8,17.4,29.41,South,181,5.7,6.7,11,-99.99,,,0.00,0,rob ver 1B,2013-04-19 04:06:00,
2013-04-18 21:07:00,72.8,17.6,29.41,South,180,5.5,6.6,12,-99.99,,,0.00,0,rob ver 1B,2013-04-19 04:07:00,
2013-04-18 21:08:00,67.2,9.1,29.62,NNW,328,5.5,6.5,10,-99.99,,,0.00,0,rob ver 1A,2013-04-19 04:08:00,
2013-04-18 21:09:00,72.8,18.8,29.44,South,179,6.3,8.2,12,-99.99,,,0.00,0,rob ver 1B,2013-04-19 04:09:00,
2013-04-18 21:10:00,73.1,19.3,29.44,South,169,6.4,8.0,13,-99.99,,,0.00,0,rob ver 1B,2013-04-19 04:10:00,
2013-04-18 21:11:00,73.3,19.1,29.41,South,187,5.4,6.6,12,-99.99,,,0.00,0,rob ver 1B,2013-04-19 04:11:00,
2013-04-18 21:12:00,73.2,19.2,29.41,SSW,198,4.5,5.9,12,-99.99,,,0.00,0,rob ver 1B,2013-04-19 04:12:00,
2013-04-18 21:13:00,67.0,9.0,29.62,NNW,331,5.3,6.1,10,-99.99,,,0.00,0,rob ver 1A,2013-04-19 04:13:00,
2013-04-18 21:14:00,72.7,19.4,29.44,South,191,5.0,7.2,13,-99.99,,,0.00,0,rob ver 1B,2013-04-19 04:14:00,
2013-04-18 21:15:00,72.6,19.8,29.44,South,186,6.4,7.4,13,-99.99,,,0.00,0,rob ver 1B,2013-04-19 04:15:00,
2013-04-18 21:16:00,72.5,19.7,29.44,South,184,6.2,7.8,13,-99.99,,,0.00,0,rob ver 1B,2013-04-19 04:16:00,
2013-04-18 21:17:00,72.3,19.7,29.41,South,183,6.4,7.9,13,-99.99,,,0.00,0,rob ver 1B,2013-04-19 04:17:00,
2013-04-18 21:18:00,66.7,8.9,29.62,NNW,329,5.0,6.1,10,-99.99,,,0.00,0,rob ver 1A,2013-04-19 04:18:00,
2013-04-18 21:19:00,72.1,19.8,29.44,South,180,5.7,7.0,13,-99.99,,,0.00,0,rob ver 1B,2013-04-19 04:19:00,
2013-04-18 21:20:00,72.0,20.0,29.44,South,186,5.9,7.2,13,-99.99,,,0.00,0,rob ver 1B,2013-04-19 04:20:00,
2013-04-18 21:21:00,71.9,20.1,29.44,South,187,5.5,7.3,13,-99.99,,,0.00,0,rob ver 1B,2013-04-19 04:21:00,
2013-04-18 21:22:00,71.8,20.0,29.44,South,186,5.0,6.5,14,-99.99,,,0.00,0,rob ver 1B,2013-04-19 04:22:00,
2013-04-18 21:23:00,66.5,8.8,29.62,NNW,327,4.7,5.7,10,-99.99,,,0.00,0,rob ver 1A,2013-04-19 04:23:00,
2013-04-18 21:24:00,71.6,20.3,29.44,South,185,5.5,6.5,14,-99.99,,,0.00,0,rob ver 1B,2013-04-19 04:24:00,
2013-04-18 21:25:00,71.5,20.9,29.44,South,187,5.8,6.8,14,-99.99,,,0.00,0,rob ver 1B,2013-04-19 04:25:00,
2013-04-18 21:26:00,71.5,21.2,29.44,South,187,5.7,6.8,15,-99.99,,,0.00,0,rob ver 1B,2013-04-19 04:26:00,
2013-04-18 21:27:00,71.5,21.7,29.44,South,190,5.7,6.9,15,-99.99,,,0.00,0,rob ver 1B,2013-04-19 04:27:00,
2013-04-18 21:28:00,65.9,8.7,29.62,NNW,333,4.7,5.5,10,-99.99,,,0.00,0,rob ver 1A,2013-04-19 04:28:00,
2013-04-18 21:29:00,71.5,21.8,29.41,South,187,5.2,6.9,15,-99.99,,,0.00,0,rob ver 1B,2013-04-19 04:29:00,
2013-04-18 21:30:00,71.5,22.1,29.41,South,189,5.7,7.3,15,-99.99,,,0.00,0,rob ver 1B,2013-04-19 04:30:00,
2013-04-18 21:31:00,71.5,22.3,29.44,South,190,5.6,6.8,15,-99.99,,,0.00,0,rob ver 1B,2013-04-19 04:31:00,
2013-04-18 21:32:00,71.5,22.4,29.44,South,190,5.4,6.5,15,-99.99,,,0.00,0,rob ver 1B,2013-04-19 04:32:00,
2013-04-18 21:33:00,65.3,8.5,29.62,NNW,340,4.0,4.4,10,-99.99,,,0.00,0,rob ver 1A,2013-04-19 04:33:00,
2013-04-18 21:34:00,71.4,22.4,29.41,South,190,5.0,6.1,15,-99.99,,,0.00,0,rob ver 1B,2013-04-19 04:34:00,
2013-04-18 21:35:00,71.4,22.6,29.41,South,189,4.5,6.5,15,-99.99,,,0.00,0,rob ver 1B,2013-04-19 04:35:00,
2013-04-18 21:36:00,71.3,22.5,29.44,SSW,198,3.9,4.9,15,-99.99,,,0.00,0,rob ver 1B,2013-04-19 04:36:00,
2013-04-18 21:37:00,71.2,22.3,29.44,SSW,206,3.2,4.0,15,-99.99,,,0.00,0,rob ver 1B,2013-04-19 04:37:00,
2013-04-18 21:38:00,65.1,8.5,29.62,NNW,341,4.3,4.7,10,-99.99,,,0.00,0,rob ver 1A,2013-04-19 04:38:00,
2013-04-18 21:39:00,71.0,22.5,29.44,South,190,3.6,4.4,16,-99.99,,,0.00,0,rob ver 1B,2013-04-19 04:39:00,
2013-04-18 21:40:00,71.0,22.6,29.41,South,188,3.5,4.2,16,-99.99,,,0.00,0,rob ver 1B,2013-04-19 04:40:00,
2013-04-18 21:41:00,70.9,22.6,29.44,South,190,3.5,4.9,15,-99.99,,,0.00,0,rob ver 1B,2013-04-19 04:41:00,
2013-04-18 21:42:00,70.9,22.5,29.44,SSW,195,3.4,4.2,16,-99.99,,,0.00,0,rob ver 1B,2013-04-19 04:42:00,
2013-04-18 21:43:00,65.1,8.5,29.62,NNW,337,4.0,4.6,10,-99.99,,,0.00,0,rob ver 1A,2013-04-19 04:43:00,
2013-04-18 21:44:00,70.8,22.6,29.44,South,189,3.1,3.9,15,-99.99,,,0.00,0,rob ver 1B,2013-04-19 04:44:00,
2013-04-18 21:45:00,70.8,22.6,29.41,South,186,3.3,4.2,16,-99.99,,,0.00,0,rob ver 1B,2013-04-19 04:45:00,
2013-04-18 21:46:00,70.7,22.5,29.41,South,187,3.4,4.1,16,-99.99,,,0.00,0,rob ver 1B,2013-04-19 04:46:00,
2013-04-18 21:47:00,70.6,22.4,29.44,SSW,193,2.9,3.5,16,-99.99,,,0.00,0,rob ver 1B,2013-04-19 04:47:00,
2013-04-18 21:48:00,65.3,8.5,29.62,NNW,335,4.7,5.5,10,-99.99,,,0.00,0,rob ver 1A,2013-04-19 04:48:00,
2013-04-18 21:49:00,70.5,22.3,29.41,SSW,194,2.4,3.4,16,-99.99,,,0.00,0,rob ver 1B,2013-04-19 04:49:00,
2013-04-18 21:50:00,70.4,22.0,29.41,SSW,199,2.5,3.3,15,-99.99,,,0.00,0,rob ver 1B,2013-04-19 04:50:00,
2013-04-18 21:51:00,70.3,21.8,29.41,SSW,196,2.2,2.8,15,-99.99,,,0.00,0,rob ver 1B,2013-04-19 04:51:00,
2013-04-18 21:52:00,70.3,21.6,29.41,SSW,197,2.3,3.4,15,-99.99,,,0.00,0,rob ver 1B,2013-04-19 04:52:00,
2013-04-18 21:53:00,65.2,8.5,29.62,NNW,338,5.1,6.9,10,-99.99,,,0.00,0,rob ver 1A,2013-04-19 04:53:00,
2013-04-18 21:54:00,70.2,21.4,29.41,SSW,200,2.0,2.7,15,-99.99,,,0.00,0,rob ver 1B,2013-04-19 04:54:00,
2013-04-18 21:55:00,70.2,21.4,29.41,SSW,209,1.9,2.3,15,-99.99,,,0.00,0,rob ver 1B,2013-04-19 04:55:00,
2013-04-18 21:56:00,70.2,21.2,29.41,SW,221,1.9,2.5,15,-99.99,,,0.00,0,rob ver 1B,2013-04-19 04:56:00,
2013-04-18 21:57:00,70.1,21.0,29.41,SW,221,1.6,2.0,15,-99.99,,,0.00,0,rob ver 1B,2013-04-19 04:57:00,
2013-04-18 21:58:00,65.5,8.5,29.62,NNW,336,4.5,5.7,10,-99.99,,,0.00,0,rob ver 1A,2013-04-19 04:58:00,
2013-04-18 21:59:00,70.1,20.3,29.41,SW,219,2.2,3.4,14,-99.99,,,0.00,0,rob ver 1B,2013-04-19 04:59:00,
2013-04-18 22:00:00,70.1,19.8,29.41,SW,217,2.7,3.4,14,-99.99,,,0.00,0,rob ver 1B,2013-04-19 05:00:00,
2013-04-18 22:01:00,70.2,19.3,29.41,SW,221,2.8,3.5,14,-99.99,,,0.00,0,rob ver 1B,2013-04-19 05:01:00,
2013-04-18 22:02:00,70.3,19.1,29.41,SW,219,3.0,3.9,14,-99.99,,,0.00,0,rob ver 1B,2013-04-19 05:02:00,
2013-04-18 22:03:00,65.6,8.5,29.62,NNW,333,4.5,5.4,10,-99.99,,,0.00,0,rob ver 1A,2013-04-19 05:03:00,
2013-04-18 22:04:00,70.4,18.7,29.41,SW,227,2.6,3.2,13,-99.99,,,0.00,0,rob ver 1B,2013-04-19 05:04:00,
2013-04-18 22:05:00,70.4,18.5,29.41,SW,231,2.3,2.9,13,-99.99,,,0.00,0,rob ver 1B,2013-04-19 05:05:00,
2013-04-18 22:06:00,70.3,18.3,29.41,SW,226,2.3,3.1,13,-99.99,,,0.00,0,rob ver 1B,2013-04-19 05:06:00,
2013-04-18 22:07:00,70.3,18.2,29.41,SW,222,2.3,3.2,13,-99.99,,,0.00,0,rob ver 1B,2013-04-19 05:07:00,
2013-04-18 22:08:00,70.2,18.1,29.41,SW,224,1.9,2.8,13,-99.99,,,0.00,0,rob ver 1B,2013-04-19 05:08:00,
2013-04-18 22:09:00,65.3,8.4,29.62,NNW,340,3.6,4.3,10,-99.99,,,0.00,0,rob ver 1A,2013-04-19 05:09:00,
2013-04-18 22:10:00,70.2,18.0,29.41,SW,224,2.1,3.0,13,-99.99,,,0.00,0,rob ver 1B,2013-04-19 05:10:00,
2013-04-18 22:11:00,70.3,18.0,29.41,SW,230,1.2,2.3,13,-99.99,,,0.00,0,rob ver 1B,2013-04-19 05:11:00,
2013-04-18 22:12:00,70.3,18.0,29.41,WSW,248,0.9,1.4,13,-99.99,,,0.00,0,rob ver 1B,2013-04-19 05:12:00,
2013-04-18 22:13:00,70.3,18.0,29.41,West,267,0.6,1.3,13,-99.99,,,0.00,0,rob ver 1B,2013-04-19 05:13:00,
2013-04-18 22:14:00,65.0,8.3,29.62,NNW,336,3.6,4.1,10,-99.99,,,0.00,0,rob ver 1A,2013-04-19 05:14:00,
2013-04-18 22:15:00,70.2,17.9,29.44,West,273,0.5,1.1,13,-99.99,,,0.00,0,rob ver 1B,2013-04-19 05:15:00,
2013-04-18 22:16:00,70.2,17.9,29.41,WNW,297,0.3,0.8,13,-99.99,,,0.00,0,rob ver 1B,2013-04-19 05:16:00,
2013-04-18 22:17:00,70.2,18.0,29.41,East,85,0.6,1.2,13,-99.99,,,0.00,0,rob ver 1B,2013-04-19 05:17:00,
2013-04-18 22:18:00,70.3,18.2,29.41,East,85,1.5,2.0,13,-99.99,,,0.00,0,rob ver 1B,2013-04-19 05:18:00,
2013-04-18 22:19:00,65.0,8.3,29.62,NNW,331,4.2,4.5,10,-99.99,,,0.00,0,rob ver 1A,2013-04-19 05:19:00,
2013-04-18 22:20:00,70.2,18.3,29.41,ENE,73,2.7,3.2,13,-99.99,,,0.00,0,rob ver 1B,2013-04-19 05:20:00,
2013-04-18 22:21:00,69.7,18.1,29.41,ENE,71,2.7,3.1,14,-99.99,,,0.00,0,rob ver 1B,2013-04-19 05:21:00,
2013-04-18 22:22:00,69.3,18.4,29.41,East,82,1.9,2.8,14,-99.99,,,0.00,0,rob ver 1B,2013-04-19 05:22:00,
2013-04-18 22:23:00,69.3,18.1,29.41,ESE,104,1.2,1.7,13,-99.99,,,0.00,0,rob ver 1B,2013-04-19 05:23:00,
2013-04-18 22:24:00,65.0,8.1,29.62,NNW,336,2.0,2.4,10,-99.99,,,0.00,0,rob ver 1A,2013-04-19 05:24:00,
2013-04-18 22:25:00,70.0,18.4,29.44,SSE,158,0.9,1.9,13,-99.99,,,0.00,0,rob ver 1B,2013-04-19 05:25:00,
2013-04-18 22:26:00,70.2,18.4,29.41,SSW,205,1.2,2.0,13,-99.99,,,0.00,0,rob ver 1B,2013-04-19 05:26:00,
2013-04-18 22:27:00,70.4,18.3,29.41,SSW,198,1.9,2.9,13,-99.99,,,0.00,0,rob ver 1B,2013-04-19 05:27:00,
2013-04-18 22:28:00,70.6,18.3,29.41,South,181,1.4,1.9,13,-99.99,,,0.00,0,rob ver 1B,2013-04-19 05:28:00,
2013-04-18 22:29:00,63.1,7.9,29.62,WNW,289,1.4,1.9,11,-99.99,,,0.00,0,rob ver 1A,2013-04-19 05:29:00,
2013-04-18 22:30:00,71.2,18.3,29.44,SW,228,2.8,4.3,13,-99.99,,,0.00,0,rob ver 1B,2013-04-19 05:30:00,
2013-04-18 22:31:00,71.5,18.2,29.44,SW,220,3.3,5.1,12,-99.99,,,0.00,0,rob ver 1B,2013-04-19 05:31:00,
2013-04-18 22:32:00,71.7,18.1,29.41,SW,222,4.0,5.3,12,-99.99,,,0.00,0,rob ver 1B,2013-04-19 05:32:00,
2013-04-18 22:33:00,71.9,18.4,29.41,SW,225,3.9,5.5,13,-99.99,,,0.00,0,rob ver 1B,2013-04-19 05:33:00,
2013-04-18 22:34:00,63.1,7.9,29.62,NW,322,1.1,1.4,11,-99.99,,,0.00,0,rob ver 1A,2013-04-19 05:34:00,
2013-04-18 22:35:00,71.7,18.9,29.44,SE,141,3.8,4.5,13,-99.99,,,0.00,0,rob ver 1B,2013-04-19 05:35:00,
2013-04-18 22:36:00,71.2,20.0,29.44,SE,133,4.1,5.1,14,-99.99,,,0.00,0,rob ver 1B,2013-04-19 05:36:00,
2013-04-18 22:37:00,71.1,20.7,29.41,SE,125,3.5,3.8,14,-99.99,,,0.00,0,rob ver 1B,2013-04-19 05:37:00,
2013-04-18 22:38:00,71.0,21.4,29.41,SE,143,3.0,5.0,15,-99.99,,,0.00,0,rob ver 1B,2013-04-19 05:38:00,
2013-04-18 22:39:00,62.8,7.7,29.62,NE,36,0.2,0.5,11,-99.99,,,0.00,0,rob ver 1A,2013-04-19 05:39:00,
2013-04-18 22:40:00,70.9,21.5,29.44,ESE,111,2.2,3.8,15,-99.99,,,0.00,0,rob ver 1B,2013-04-19 05:40:00,
2013-04-18 22:41:00,70.8,21.5,29.44,SE,143,2.6,3.8,15,-99.99,,,0.00,0,rob ver 1B,2013-04-19 05:41:00,
2013-04-18 22:42:00,70.9,21.7,29.41,SSE,157,3.2,5.3,15,-99.99,,,0.00,0,rob ver 1B,2013-04-19 05:42:00,
2013-04-18 22:43:00,71.0,21.3,29.41,SSW,213,2.8,4.3,15,-99.99,,,0.00,0,rob ver 1B,2013-04-19 05:43:00,
2013-04-18 22:44:00,62.3,7.8,29.62,SW,215,2.7,3.3,11,-99.99,,,0.00,0,rob ver 1A,2013-04-19 05:44:00,
2013-04-18 22:45:00,71.4,20.8,29.41,South,183,5.0,7.6,13,-99.99,,,0.00,0,rob ver 1B,2013-04-19 05:45:00,
2013-04-18 22:46:00,71.7,20.2,29.41,SSW,197,5.6,7.4,14,-99.99,,,0.00,0,rob ver 1B,2013-04-19 05:46:00,
2013-04-18 22:47:00,71.9,20.3,29.41,SSW,200,3.3,4.2,13,-99.99,,,0.00,0,rob ver 1B,2013-04-19 05:47:00,
2013-04-18 22:48:00,72.0,20.4,29.41,SSW,201,3.2,4.4,14,-99.99,,,0.00,0,rob ver 1B,2013-04-19 05:48:00,
2013-04-18 22:49:00,61.2,7.3,29.62,WSW,238,2.2,2.6,11,-99.99,,,0.00,0,rob ver 1A,2013-04-19 05:49:00,
2013-04-18 22:50:00,71.8,20.3,29.41,SSW,199,3.0,4.4,14,-99.99,,,0.00,0,rob ver 1B,2013-04-19 05:50:00,
2013-04-18 22:51:00,71.8,20.2,29.41,SSW,193,3.0,4.9,14,-99.99,,,0.00,0,rob ver 1B,2013-04-19 05:51:00,
2013-04-18 22:52:00,71.7,20.1,29.41,SW,219,4.4,6.9,13,-99.99,,,0.00,0,rob ver 1B,2013-04-19 05:52:00,
2013-04-18 22:53:00,71.9,19.7,29.41,SSW,207,5.0,8.1,13,-99.99,,,0.00,0,rob ver 1B,2013-04-19 05:53:00,
2013-04-18 22:54:00,60.3,7.2,29.62,SW,224,1.8,2.4,11,-99.99,,,0.00,0,rob ver 1A,2013-04-19 05:54:00,
2013-04-18 22:55:00,71.9,20.8,29.41,South,191,4.4,5.8,14,-99.99,,,0.00,0,rob ver 1B,2013-04-19 05:55:00,
2013-04-18 22:56:00,71.8,21.1,29.41,South,178,4.1,6.1,14,-99.99,,,0.00,0,rob ver 1B,2013-04-19 05:56:00,
2013-04-18 22:57:00,71.6,21.3,29.41,SSE,165,1.7,2.9,14,-99.99,,,0.00,0,rob ver 1B,2013-04-19 05:57:00,
2013-04-18 22:58:00,71.4,21.4,29.41,SSW,192,1.4,2.4,15,-99.99,,,0.00,0,rob ver 1B,2013-04-19 05:58:00,
2013-04-18 22:59:00,60.3,7.3,29.62,ESE,110,0.5,0.7,11,-99.99,,,0.00,0,rob ver 1A,2013-04-19 05:59:00,
2013-04-18 23:00:00,71.1,21.9,29.41,SSW,204,1.3,2.5,15,-99.99,,,0.00,0,rob ver 1B,2013-04-19 06:00:00,
2013-04-18 23:01:00,71.1,21.9,29.41,South,181,1.7,2.6,15,-99.99,,,0.00,0,rob ver 1B,2013-04-19 06:01:00,
2013-04-18 23:02:00,71.1,21.6,29.41,South,169,1.1,2.0,15,-99.99,,,0.00,0,rob ver 1B,2013-04-19 06:02:00,
2013-04-18 23:03:00,70.9,21.3,29.41,East,97,1.7,2.4,14,-99.99,,,0.00,0,rob ver 1B,2013-04-19 06:03:00,
2013-04-18 23:04:00,60.5,7.4,29.62,SSW,194,2.3,2.6,11,-99.99,,,0.00,0,rob ver 1A,2013-04-19 06:04:00,
2013-04-18 23:05:00,70.3,21.4,29.41,NE,54,2.0,2.5,15,-99.99,,,0.00,0,rob ver 1B,2013-04-19 06:05:00,
2013-04-18 23:06:00,70.2,21.1,29.41,NE,52,1.9,2.4,15,-99.99,,,0.00,0,rob ver 1B,2013-04-19 06:06:00,
2013-04-18 23:07:00,70.0,20.9,29.41,NE,47,1.5,2.1,15,-99.99,,,0.00,0,rob ver 1B,2013-04-19 06:07:00,
2013-04-18 23:08:00,69.8,20.6,29.41,NE,43,2.0,2.8,15,-99.99,,,0.00,0,rob ver 1B,2013-04-19 06:08:00,
2013-04-18 23:09:00,60.8,7.5,29.62,SSE,155,0.7,1.0,11,-99.99,,,0.00,0,rob ver 1A,2013-04-19 06:09:00,
2013-04-18 23:10:00,69.3,21.1,29.41,NE,49,3.0,3.4,15,-99.99,,,0.00,0,rob ver 1B,2013-04-19 06:10:00,
2013-04-18 23:11:00,69.2,21.4,29.41,NE,52,3.4,3.8,16,-99.99,,,0.00,0,rob ver 1B,2013-04-19 06:11:00,
2013-04-18 23:12:00,69.1,21.4,29.41,NE,53,3.1,3.5,16,-99.99,,,0.00,0,rob ver 1B,2013-04-19 06:12:00,
2013-04-18 23:13:00,68.9,21.0,29.41,NE,47,2.8,3.3,16,-99.99,,,0.00,0,rob ver 1B,2013-04-19 06:13:00,
2013-04-18 23:14:00,60.7,7.5,29.62,North,349,1.4,1.8,11,-99.99,,,0.00,0,rob ver 1A,2013-04-19 06:14:00,
2013-04-18 23:15:00,68.3,21.1,29.41,NE,51,3.0,3.5,16,-99.99,,,0.00,0,rob ver 1B,2013-04-19 06:15:00,
2013-04-18 23:16:00,68.2,21.1,29.41,NE,53,3.4,3.8,16,-99.99,,,0.00,0,rob ver 1B,2013-04-19 06:16:00,
2013-04-18 23:17:00,68.0,20.2,29.41,NE,54,2.8,3.8,16,-99.99,,,0.00,0,rob ver 1B,2013-04-19 06:17:00,
2013-04-18 23:18:00,67.6,20.3,29.41,ENE,59,3.1,3.8,16,-99.99,,,0.00,0,rob ver 1B,2013-04-19 06:18:00,
2013-04-18 23:19:00,60.9,7.5,29.62,NNW,328,2.1,2.4,11,-99.99,,,0.00,0,rob ver 1A,2013-04-19 06:19:00,
2013-04-18 23:20:00,66.9,20.2,29.41,ENE,59,3.8,4.6,16,-99.99,,,0.00,0,rob ver 1B,2013-04-19 06:20:00,
2013-04-18 23:21:00,66.6,20.1,29.41,ENE,64,4.1,4.5,16,-99.99,,,0.00,0,rob ver 1B,2013-04-19 06:21:00,
2013-04-18 23:22:00,66.4,20.3,29.41,ENE,66,4.4,4.9,16,-99.99,,,0.00,0,rob ver 1B,2013-04-19 06:22:00,
2013-04-18 23:23:00,66.1,19.3,29.41,ENE,63,3.8,4.8,16,-99.99,,,0.00,0,rob ver 1B,2013-04-19 06:23:00,
2013-04-18 23:24:00,61.3,7.5,29.62,North,354,3.1,3.6,11,-99.99,,,0.00,0,rob ver 1A,2013-04-19 06:24:00,
2013-04-18 23:25:00,65.3,18.9,29.41,NE,53,4.2,5.0,16,-99.99,,,0.00,0,rob ver 1B,2013-04-19 06:25:00,
2013-04-18 23:26:00,65.1,18.9,29.41,NE,50,5.0,5.4,16,-99.99,,,0.00,0,rob ver 1B,2013-04-19 06:26:00,
2013-04-18 23:27:00,65.0,18.7,29.41,NE,48,4.9,5.7,16,-99.99,,,0.00,0,rob ver 1B,2013-04-19 06:27:00,
2013-04-18 23:28:00,65.0,18.8,29.41,NE,47,4.5,5.6,16,-99.99,,,0.00,0,rob ver 1B,2013-04-19 06:28:00,
2013-04-18 23:29:00,60.7,6.8,29.62,NNE,16,3.5,3.7,11,-99.99,,,0.00,0,rob ver 1A,2013-04-19 06:29:00,
2013-04-18 23:30:00,64.9,19.3,29.41,ENE,58,4.6,5.3,17,-99.99,,,0.00,0,rob ver 1B,2013-04-19 06:30:00,
2013-04-18 23:31:00,65.0,19.4,29.41,ENE,60,4.3,4.8,17,-99.99,,,0.00,0,rob ver 1B,2013-04-19 06:31:00,
2013-04-18 23:32:00,65.0,19.7,29.41,ENE,59,4.3,5.0,17,-99.99,,,0.00,0,rob ver 1B,2013-04-19 06:32:00,
2013-04-18 23:33:00,65.2,19.8,29.41,ENE,59,4.4,5.0,17,-99.99,,,0.00,0,rob ver 1B,2013-04-19 06:33:00,
2013-04-18 23:34:00,60.3,7.2,29.62,NW,322,2.2,2.6,11,-99.99,,,0.00,0,rob ver 1A,2013-04-19 06:34:00,
2013-04-18 23:35:00,65.1,19.2,29.41,ENE,64,3.5,4.2,16,-99.99,,,0.00,0,rob ver 1B,2013-04-19 06:35:00,
2013-04-18 23:36:00,65.0,19.1,29.41,ENE,67,4.0,4.7,17,-99.99,,,0.00,0,rob ver 1B,2013-04-19 06:36:00,
2013-04-18 23:37:00,64.9,19.4,29.41,ENE,73,3.6,4.3,17,-99.99,,,0.00,0,rob ver 1B,2013-04-19 06:37:00,
2013-04-18 23:38:00,65.1,19.6,29.41,East,85,2.8,3.7,16,-99.99,,,0.00,0,rob ver 1B,2013-04-19 06:38:00,
2013-04-18 23:39:00,59.8,7.1,29.62,NNW,332,2.6,3.1,12,-99.99,,,0.00,0,rob ver 1A,2013-04-19 06:39:00,
2013-04-18 23:40:00,65.3,20.3,29.41,ENE,73,2.6,3.5,17,-99.99,,,0.00,0,rob ver 1B,2013-04-19 06:40:00,
2013-04-18 23:41:00,65.6,20.0,29.41,ENE,65,2.6,4.2,17,-99.99,,,0.00,0,rob ver 1B,2013-04-19 06:41:00,
2013-04-18 23:42:00,65.7,19.8,29.41,NE,39,3.0,4.1,16,-99.99,,,0.00,0,rob ver 1B,2013-04-19 06:42:00,
2013-04-18 23:43:00,65.6,18.3,29.41,NNE,33,4.1,4.8,15,-99.99,,,0.00,0,rob ver 1B,2013-04-19 06:43:00,
2013-04-18 23:44:00,60.0,7.2,29.62,West,271,2.5,2.9,12,-99.99,,,0.00,0,rob ver 1A,2013-04-19 06:44:00,
2013-04-18 23:45:00,64.8,18.0,29.41,NE,34,4.3,5.9,16,-99.99,,,0.00,0,rob ver 1B,2013-04-19 06:45:00,
2013-04-18 23:46:00,64.9,17.9,29.41,NE,44,5.2,6.4,16,-99.99,,,0.00,0,rob ver 1B,2013-04-19 06:46:00,
2013-04-18 23:47:00,64.9,17.8,29.41,NE,46,4.3,6.0,16,-99.99,,,0.00,0,rob ver 1B,2013-04-19 06:47:00,
2013-04-18 23:48:00,64.8,17.7,29.41,NE,46,4.5,5.9,16,-99.99,,,0.00,0,rob ver 1B,2013-04-19 06:48:00,
2013-04-18 23:49:00,59.0,6.2,29.62,SW,225,3.4,4.0,11,-99.99,,,0.00,0,rob ver 1A,2013-04-19 06:49:00,
2013-04-18 23:50:00,64.6,17.4,29.41,NNE,33,4.7,6.5,15,-99.99,,,0.00,0,rob ver 1B,2013-04-19 06:50:00,
2013-04-18 23:51:00,64.6,17.4,29.41,NNE,32,3.0,5.7,16,-99.99,,,0.00,0,rob ver 1B,2013-04-19 06:51:00,
2013-04-18 23:52:00,64.6,17.8,29.41,NE,40,5.8,6.6,16,-99.99,,,0.00,0,rob ver 1B,2013-04-19 06:52:00,
2013-04-18 23:53:00,64.8,17.8,29.41,NE,40,4.4,5.9,16,-99.99,,,0.00,0,rob ver 1B,2013-04-19 06:53:00,
2013-04-18 23:54:00,58.7,6.7,29.62,West,266,1.9,2.1,12,-99.99,,,0.00,0,rob ver 1A,2013-04-19 06:54:00,
2013-04-18 23:55:00,64.9,17.4,29.41,NNE,28,4.5,5.3,15,-99.99,,,0.00,0,rob ver 1B,2013-04-19 06:55:00,
2013-04-18 23:56:00,64.9,17.5,29.41,NNE,20,4.9,5.4,15,-99.99,,,0.00,0,rob ver 1B,2013-04-19 06:56:00,
2013-04-18 23:57:00,65.1,17.8,29.41,NNE,18,5.1,5.3,16,-99.99,,,0.00,0,rob ver 1B,2013-04-19 06:57:00,
2013-04-18 23:58:00,65.3,18.1,29.41,NNE,13,5.0,5.4,16,-99.99,,,0.00,0,rob ver 1B,2013-04-19 06:58:00,
2013-04-18 23:59:00,58.4,6.7,29.62,WSW,255,2.9,4.1,12,-99.99,,,0.00,0,rob ver 1A,2013-04-19 06:59:00,